<?xml version='1.0' encoding='UTF-8'?>
<gpx version="1.1" creator="https://www.komoot.de" xmlns="http://www.topografix.com/GPX/1/1" xmlns:xsi="http://www.w3.org/2001/XMLSchema-instance" xsi:schemaLocation="http://www.topografix.com/GPX/1/1 http://www.topografix.com/GPX/1/1/gpx.xsd">
  <metadata>
    <name>50_520WiesletSteinenRhf</name>
    <author>
      <link href="https://www.komoot.de">
        <text>komoot</text>
        <type>text/html</type>
      </link>
    </author>
  </metadata>
  <trk>
    <name>50_520WiesletSteinenRhf</name>
    <trkseg>
      <trkpt lat="47.541576" lon="7.870664">
        <ele>338.939278</ele>
        <time>2021-11-09T21:06:40.075Z</time>
      </trkpt>
      <trkpt lat="47.541576" lon="7.870664">
        <ele>338.939278</ele>
        <time>2021-11-09T21:06:40.114Z</time>
      </trkpt>
      <trkpt lat="47.541550" lon="7.870601">
        <ele>338.939278</ele>
        <time>2021-11-09T21:06:40.924Z</time>
      </trkpt>
      <trkpt lat="47.541521" lon="7.870517">
        <ele>338.939278</ele>
        <time>2021-11-09T21:06:41.981Z</time>
      </trkpt>
      <trkpt lat="47.541606" lon="7.870424">
        <ele>338.939278</ele>
        <time>2021-11-09T21:06:43.720Z</time>
      </trkpt>
      <trkpt lat="47.541910" lon="7.870106">
        <ele>338.939278</ele>
        <time>2021-11-09T21:06:49.788Z</time>
      </trkpt>
      <trkpt lat="47.542014" lon="7.870126">
        <ele>338.939278</ele>
        <time>2021-11-09T21:06:51.384Z</time>
      </trkpt>
      <trkpt lat="47.542118" lon="7.870135">
        <ele>338.939278</ele>
        <time>2021-11-09T21:06:53.254Z</time>
      </trkpt>
      <trkpt lat="47.542181" lon="7.870131">
        <ele>338.939278</ele>
        <time>2021-11-09T21:06:54.142Z</time>
      </trkpt>
      <trkpt lat="47.542317" lon="7.870012">
        <ele>338.810404</ele>
        <time>2021-11-09T21:06:56.393Z</time>
      </trkpt>
      <trkpt lat="47.542348" lon="7.869983">
        <ele>338.771706</ele>
        <time>2021-11-09T21:06:56.853Z</time>
      </trkpt>
      <trkpt lat="47.542329" lon="7.869820">
        <ele>338.653850</ele>
        <time>2021-11-09T21:06:58.764Z</time>
      </trkpt>
      <trkpt lat="47.542372" lon="7.869746">
        <ele>338.584281</ele>
        <time>2021-11-09T21:06:59.588Z</time>
      </trkpt>
      <trkpt lat="47.542657" lon="7.869354">
        <ele>338.173797</ele>
        <time>2021-11-09T21:07:04.556Z</time>
      </trkpt>
      <trkpt lat="47.542696" lon="7.869257">
        <ele>338.093355</ele>
        <time>2021-11-09T21:07:05.491Z</time>
      </trkpt>
      <trkpt lat="47.542722" lon="7.869201">
        <ele>338.044929</ele>
        <time>2021-11-09T21:07:06.082Z</time>
      </trkpt>
      <trkpt lat="47.543049" lon="7.868759">
        <ele>337.577703</ele>
        <time>2021-11-09T21:07:10.995Z</time>
      </trkpt>
      <trkpt lat="47.543105" lon="7.868711">
        <ele>337.509415</ele>
        <time>2021-11-09T21:07:11.734Z</time>
      </trkpt>
      <trkpt lat="47.543201" lon="7.868657">
        <ele>337.401029</ele>
        <time>2021-11-09T21:07:12.812Z</time>
      </trkpt>
      <trkpt lat="47.543657" lon="7.868359">
        <ele>336.863582</ele>
        <time>2021-11-09T21:07:18.607Z</time>
      </trkpt>
      <trkpt lat="47.543801" lon="7.868269">
        <ele>336.687287</ele>
        <time>2021-11-09T21:07:21.087Z</time>
      </trkpt>
      <trkpt lat="47.544214" lon="7.867988">
        <ele>336.174639</ele>
        <time>2021-11-09T21:07:28.703Z</time>
      </trkpt>
      <trkpt lat="47.544246" lon="7.867967">
        <ele>336.135160</ele>
        <time>2021-11-09T21:07:29.300Z</time>
      </trkpt>
      <trkpt lat="47.544410" lon="7.867825">
        <ele>335.920889</ele>
        <time>2021-11-09T21:07:32.553Z</time>
      </trkpt>
      <trkpt lat="47.544469" lon="7.867776">
        <ele>335.844592</ele>
        <time>2021-11-09T21:07:33.575Z</time>
      </trkpt>
      <trkpt lat="47.544568" lon="7.867693">
        <ele>335.716278</ele>
        <time>2021-11-09T21:07:35.502Z</time>
      </trkpt>
      <trkpt lat="47.545003" lon="7.867278">
        <ele>335.132657</ele>
        <time>2021-11-09T21:07:44.350Z</time>
      </trkpt>
      <trkpt lat="47.545160" lon="7.866985">
        <ele>335.125310</ele>
        <time>2021-11-09T21:07:49.001Z</time>
      </trkpt>
      <trkpt lat="47.545240" lon="7.866887">
        <ele>335.206158</ele>
        <time>2021-11-09T21:07:51.275Z</time>
      </trkpt>
      <trkpt lat="47.546096" lon="7.866147">
        <ele>335.978040</ele>
        <time>2021-11-09T21:08:16.345Z</time>
      </trkpt>
      <trkpt lat="47.546327" lon="7.865959">
        <ele>336.183310</ele>
        <time>2021-11-09T21:08:22.765Z</time>
      </trkpt>
      <trkpt lat="47.546510" lon="7.865766">
        <ele>336.358261</ele>
        <time>2021-11-09T21:08:29.151Z</time>
      </trkpt>
      <trkpt lat="47.546819" lon="7.865489">
        <ele>336.376598</ele>
        <time>2021-11-09T21:08:37.304Z</time>
      </trkpt>
      <trkpt lat="47.546889" lon="7.865225">
        <ele>336.352785</ele>
        <time>2021-11-09T21:08:41.091Z</time>
      </trkpt>
      <trkpt lat="47.546894" lon="7.864837">
        <ele>336.320205</ele>
        <time>2021-11-09T21:08:46.268Z</time>
      </trkpt>
      <trkpt lat="47.546885" lon="7.864500">
        <ele>336.291890</ele>
        <time>2021-11-09T21:08:51.907Z</time>
      </trkpt>
      <trkpt lat="47.546974" lon="7.864423">
        <ele>336.279071</ele>
        <time>2021-11-09T21:08:53.495Z</time>
      </trkpt>
      <trkpt lat="47.547320" lon="7.863864">
        <ele>336.215396</ele>
        <time>2021-11-09T21:09:03.420Z</time>
      </trkpt>
      <trkpt lat="47.547568" lon="7.863151">
        <ele>335.639539</ele>
        <time>2021-11-09T21:09:12.433Z</time>
      </trkpt>
      <trkpt lat="47.547930" lon="7.861711">
        <ele>333.911945</ele>
        <time>2021-11-09T21:09:28.807Z</time>
      </trkpt>
      <trkpt lat="47.548049" lon="7.860929">
        <ele>333.074684</ele>
        <time>2021-11-09T21:09:37.507Z</time>
      </trkpt>
      <trkpt lat="47.548334" lon="7.859801">
        <ele>332.195373</ele>
        <time>2021-11-09T21:09:50.988Z</time>
      </trkpt>
      <trkpt lat="47.548611" lon="7.858381">
        <ele>331.237900</ele>
        <time>2021-11-09T21:10:08.945Z</time>
      </trkpt>
      <trkpt lat="47.548686" lon="7.857973">
        <ele>331.214799</ele>
        <time>2021-11-09T21:10:14.333Z</time>
      </trkpt>
      <trkpt lat="47.548701" lon="7.857893">
        <ele>331.210264</ele>
        <time>2021-11-09T21:10:15.454Z</time>
      </trkpt>
      <trkpt lat="47.548743" lon="7.857692">
        <ele>331.198769</ele>
        <time>2021-11-09T21:10:18.228Z</time>
      </trkpt>
      <trkpt lat="47.548887" lon="7.857308">
        <ele>331.174771</ele>
        <time>2021-11-09T21:10:24.262Z</time>
      </trkpt>
      <trkpt lat="47.549362" lon="7.855774">
        <ele>330.999854</ele>
        <time>2021-11-09T21:10:48.306Z</time>
      </trkpt>
      <trkpt lat="47.549566" lon="7.855225">
        <ele>330.821050</ele>
        <time>2021-11-09T21:10:57.082Z</time>
      </trkpt>
      <trkpt lat="47.549883" lon="7.854434">
        <ele>330.558587</ele>
        <time>2021-11-09T21:11:09.100Z</time>
      </trkpt>
      <trkpt lat="47.550221" lon="7.853833">
        <ele>330.302375</ele>
        <time>2021-11-09T21:11:16.005Z</time>
      </trkpt>
      <trkpt lat="47.551330" lon="7.852221">
        <ele>326.290251</ele>
        <time>2021-11-09T21:11:32.254Z</time>
      </trkpt>
      <trkpt lat="47.551516" lon="7.851950">
        <ele>325.588414</ele>
        <time>2021-11-09T21:11:34.854Z</time>
      </trkpt>
      <trkpt lat="47.551660" lon="7.851725">
        <ele>324.858457</ele>
        <time>2021-11-09T21:11:36.880Z</time>
      </trkpt>
      <trkpt lat="47.551830" lon="7.851603">
        <ele>324.199604</ele>
        <time>2021-11-09T21:11:38.793Z</time>
      </trkpt>
      <trkpt lat="47.551925" lon="7.851845">
        <ele>323.540548</ele>
        <time>2021-11-09T21:11:40.610Z</time>
      </trkpt>
      <trkpt lat="47.552042" lon="7.852007">
        <ele>322.981994</ele>
        <time>2021-11-09T21:11:42.234Z</time>
      </trkpt>
      <trkpt lat="47.552097" lon="7.852063">
        <ele>322.749225</ele>
        <time>2021-11-09T21:11:42.874Z</time>
      </trkpt>
      <trkpt lat="47.552272" lon="7.852167">
        <ele>322.091557</ele>
        <time>2021-11-09T21:11:44.711Z</time>
      </trkpt>
      <trkpt lat="47.552449" lon="7.852231">
        <ele>321.456064</ele>
        <time>2021-11-09T21:11:46.501Z</time>
      </trkpt>
      <trkpt lat="47.552639" lon="7.851798">
        <ele>320.240245</ele>
        <time>2021-11-09T21:11:49.956Z</time>
      </trkpt>
      <trkpt lat="47.552678" lon="7.851709">
        <ele>319.990444</ele>
        <time>2021-11-09T21:11:50.678Z</time>
      </trkpt>
      <trkpt lat="47.552876" lon="7.851300">
        <ele>319.074630</ele>
        <time>2021-11-09T21:11:54.231Z</time>
      </trkpt>
      <trkpt lat="47.553283" lon="7.850634">
        <ele>317.881014</ele>
        <time>2021-11-09T21:12:00.919Z</time>
      </trkpt>
      <trkpt lat="47.553344" lon="7.850525">
        <ele>317.692898</ele>
        <time>2021-11-09T21:12:01.985Z</time>
      </trkpt>
      <trkpt lat="47.553380" lon="7.850453">
        <ele>317.573855</ele>
        <time>2021-11-09T21:12:02.662Z</time>
      </trkpt>
      <trkpt lat="47.553537" lon="7.849904">
        <ele>316.781727</ele>
        <time>2021-11-09T21:12:07.146Z</time>
      </trkpt>
      <trkpt lat="47.553605" lon="7.849629">
        <ele>316.392637</ele>
        <time>2021-11-09T21:12:09.399Z</time>
      </trkpt>
      <trkpt lat="47.553725" lon="7.849291">
        <ele>315.885262</ele>
        <time>2021-11-09T21:12:12.340Z</time>
      </trkpt>
      <trkpt lat="47.554055" lon="7.848586">
        <ele>315.058589</ele>
        <time>2021-11-09T21:12:19.240Z</time>
      </trkpt>
      <trkpt lat="47.554209" lon="7.848300">
        <ele>314.706368</ele>
        <time>2021-11-09T21:12:22.178Z</time>
      </trkpt>
      <trkpt lat="47.554269" lon="7.848188">
        <ele>314.568708</ele>
        <time>2021-11-09T21:12:23.272Z</time>
      </trkpt>
      <trkpt lat="47.554351" lon="7.848049">
        <ele>314.390981</ele>
        <time>2021-11-09T21:12:24.718Z</time>
      </trkpt>
      <trkpt lat="47.554465" lon="7.847858">
        <ele>314.145519</ele>
        <time>2021-11-09T21:12:26.739Z</time>
      </trkpt>
      <trkpt lat="47.554618" lon="7.847626">
        <ele>313.833251</ele>
        <time>2021-11-09T21:12:29.238Z</time>
      </trkpt>
      <trkpt lat="47.554759" lon="7.847388">
        <ele>313.528380</ele>
        <time>2021-11-09T21:12:31.655Z</time>
      </trkpt>
      <trkpt lat="47.554892" lon="7.847148">
        <ele>313.241320</ele>
        <time>2021-11-09T21:12:34.087Z</time>
      </trkpt>
      <trkpt lat="47.554995" lon="7.846915">
        <ele>313.009576</ele>
        <time>2021-11-09T21:12:36.219Z</time>
      </trkpt>
      <trkpt lat="47.555068" lon="7.846672">
        <ele>312.788271</ele>
        <time>2021-11-09T21:12:38.286Z</time>
      </trkpt>
      <trkpt lat="47.555068" lon="7.846672">
        <ele>312.788271</ele>
        <time>2021-11-09T21:12:38.290Z</time>
      </trkpt>
      <trkpt lat="47.555068" lon="7.846672">
        <ele>312.788271</ele>
        <time>2021-11-09T21:12:38.339Z</time>
      </trkpt>
      <trkpt lat="47.555199" lon="7.846687">
        <ele>312.626290</ele>
        <time>2021-11-09T21:12:39.802Z</time>
      </trkpt>
      <trkpt lat="47.555727" lon="7.846715">
        <ele>311.974942</ele>
        <time>2021-11-09T21:12:46.278Z</time>
      </trkpt>
      <trkpt lat="47.555855" lon="7.846815">
        <ele>311.796550</ele>
        <time>2021-11-09T21:12:47.933Z</time>
      </trkpt>
      <trkpt lat="47.555892" lon="7.846856">
        <ele>311.739592</ele>
        <time>2021-11-09T21:12:48.484Z</time>
      </trkpt>
      <trkpt lat="47.555966" lon="7.846932">
        <ele>311.628592</ele>
        <time>2021-11-09T21:12:49.646Z</time>
      </trkpt>
      <trkpt lat="47.555990" lon="7.846965">
        <ele>311.588227</ele>
        <time>2021-11-09T21:12:50.083Z</time>
      </trkpt>
      <trkpt lat="47.556060" lon="7.846859">
        <ele>311.464838</ele>
        <time>2021-11-09T21:12:51.286Z</time>
      </trkpt>
      <trkpt lat="47.556150" lon="7.846714">
        <ele>311.300933</ele>
        <time>2021-11-09T21:12:52.790Z</time>
      </trkpt>
      <trkpt lat="47.556636" lon="7.845928">
        <ele>310.739368</ele>
        <time>2021-11-09T21:13:01.677Z</time>
      </trkpt>
      <trkpt lat="47.557134" lon="7.845095">
        <ele>310.252867</ele>
        <time>2021-11-09T21:13:11.500Z</time>
      </trkpt>
      <trkpt lat="47.557282" lon="7.844832">
        <ele>310.103164</ele>
        <time>2021-11-09T21:13:14.681Z</time>
      </trkpt>
      <trkpt lat="47.557560" lon="7.844433">
        <ele>309.931797</ele>
        <time>2021-11-09T21:13:19.896Z</time>
      </trkpt>
      <trkpt lat="47.557715" lon="7.843940">
        <ele>309.924026</ele>
        <time>2021-11-09T21:13:24.907Z</time>
      </trkpt>
      <trkpt lat="47.557759" lon="7.843839">
        <ele>309.922308</ele>
        <time>2021-11-09T21:13:26.087Z</time>
      </trkpt>
      <trkpt lat="47.557846" lon="7.843756">
        <ele>309.920117</ele>
        <time>2021-11-09T21:13:27.435Z</time>
      </trkpt>
      <trkpt lat="47.557967" lon="7.843683">
        <ele>309.917351</ele>
        <time>2021-11-09T21:13:29.469Z</time>
      </trkpt>
      <trkpt lat="47.558136" lon="7.843582">
        <ele>309.913492</ele>
        <time>2021-11-09T21:13:32.156Z</time>
      </trkpt>
      <trkpt lat="47.558405" lon="7.843371">
        <ele>309.907048</ele>
        <time>2021-11-09T21:13:37.021Z</time>
      </trkpt>
      <trkpt lat="47.558471" lon="7.843365">
        <ele>309.905648</ele>
        <time>2021-11-09T21:13:37.872Z</time>
      </trkpt>
      <trkpt lat="47.558555" lon="7.843392">
        <ele>309.903828</ele>
        <time>2021-11-09T21:13:39.154Z</time>
      </trkpt>
      <trkpt lat="47.558884" lon="7.843836">
        <ele>309.895701</ele>
        <time>2021-11-09T21:13:46.433Z</time>
      </trkpt>
      <trkpt lat="47.559060" lon="7.844197">
        <ele>309.893486</ele>
        <time>2021-11-09T21:13:51.259Z</time>
      </trkpt>
      <trkpt lat="47.559109" lon="7.844229">
        <ele>309.893091</ele>
        <time>2021-11-09T21:13:52.306Z</time>
      </trkpt>
      <trkpt lat="47.559158" lon="7.844233">
        <ele>309.892729</ele>
        <time>2021-11-09T21:13:53.254Z</time>
      </trkpt>
      <trkpt lat="47.559583" lon="7.843813">
        <ele>309.888962</ele>
        <time>2021-11-09T21:14:01.234Z</time>
      </trkpt>
      <trkpt lat="47.559847" lon="7.843604">
        <ele>309.886756</ele>
        <time>2021-11-09T21:14:05.632Z</time>
      </trkpt>
      <trkpt lat="47.560139" lon="7.843433">
        <ele>309.884441</ele>
        <time>2021-11-09T21:14:09.863Z</time>
      </trkpt>
      <trkpt lat="47.560209" lon="7.843393">
        <ele>309.883887</ele>
        <time>2021-11-09T21:14:10.814Z</time>
      </trkpt>
      <trkpt lat="47.560338" lon="7.843341">
        <ele>309.849006</ele>
        <time>2021-11-09T21:14:12.480Z</time>
      </trkpt>
      <trkpt lat="47.560430" lon="7.843341">
        <ele>309.748597</ele>
        <time>2021-11-09T21:14:14.023Z</time>
      </trkpt>
      <trkpt lat="47.560515" lon="7.843379">
        <ele>309.651698</ele>
        <time>2021-11-09T21:14:15.057Z</time>
      </trkpt>
      <trkpt lat="47.560812" lon="7.843560">
        <ele>309.301212</ele>
        <time>2021-11-09T21:14:19.116Z</time>
      </trkpt>
      <trkpt lat="47.560934" lon="7.843550">
        <ele>309.167858</ele>
        <time>2021-11-09T21:14:20.638Z</time>
      </trkpt>
      <trkpt lat="47.561038" lon="7.843502">
        <ele>309.048975</ele>
        <time>2021-11-09T21:14:21.927Z</time>
      </trkpt>
      <trkpt lat="47.561434" lon="7.843181">
        <ele>308.556348</ele>
        <time>2021-11-09T21:14:27.368Z</time>
      </trkpt>
      <trkpt lat="47.561498" lon="7.843130">
        <ele>308.477040</ele>
        <time>2021-11-09T21:14:28.131Z</time>
      </trkpt>
      <trkpt lat="47.562179" lon="7.842500">
        <ele>307.575303</ele>
        <time>2021-11-09T21:14:37.389Z</time>
      </trkpt>
      <trkpt lat="47.562300" lon="7.842326">
        <ele>307.376556</ele>
        <time>2021-11-09T21:14:39.338Z</time>
      </trkpt>
      <trkpt lat="47.562385" lon="7.842183">
        <ele>307.224971</ele>
        <time>2021-11-09T21:14:40.752Z</time>
      </trkpt>
      <trkpt lat="47.562440" lon="7.842083">
        <ele>307.122353</ele>
        <time>2021-11-09T21:14:41.866Z</time>
      </trkpt>
      <trkpt lat="47.562574" lon="7.841873">
        <ele>306.892455</ele>
        <time>2021-11-09T21:14:44.260Z</time>
      </trkpt>
      <trkpt lat="47.562904" lon="7.841632">
        <ele>306.458785</ele>
        <time>2021-11-09T21:14:48.749Z</time>
      </trkpt>
      <trkpt lat="47.562965" lon="7.841597">
        <ele>306.381678</ele>
        <time>2021-11-09T21:14:49.542Z</time>
      </trkpt>
      <trkpt lat="47.563016" lon="7.841568">
        <ele>306.317286</ele>
        <time>2021-11-09T21:14:50.242Z</time>
      </trkpt>
      <trkpt lat="47.563300" lon="7.841391">
        <ele>305.954110</ele>
        <time>2021-11-09T21:14:53.980Z</time>
      </trkpt>
      <trkpt lat="47.563483" lon="7.841269">
        <ele>305.723251</ele>
        <time>2021-11-09T21:14:56.534Z</time>
      </trkpt>
      <trkpt lat="47.563659" lon="7.841150">
        <ele>305.510955</ele>
        <time>2021-11-09T21:14:58.864Z</time>
      </trkpt>
      <trkpt lat="47.563805" lon="7.841046">
        <ele>305.333185</ele>
        <time>2021-11-09T21:15:00.923Z</time>
      </trkpt>
      <trkpt lat="47.563941" lon="7.840948">
        <ele>305.167230</ele>
        <time>2021-11-09T21:15:02.778Z</time>
      </trkpt>
      <trkpt lat="47.563986" lon="7.840916">
        <ele>305.112456</ele>
        <time>2021-11-09T21:15:03.398Z</time>
      </trkpt>
      <trkpt lat="47.564094" lon="7.840838">
        <ele>304.980610</ele>
        <time>2021-11-09T21:15:04.865Z</time>
      </trkpt>
      <trkpt lat="47.564463" lon="7.840580">
        <ele>304.532861</ele>
        <time>2021-11-09T21:15:09.856Z</time>
      </trkpt>
      <trkpt lat="47.564534" lon="7.840532">
        <ele>304.447221</ele>
        <time>2021-11-09T21:15:10.763Z</time>
      </trkpt>
      <trkpt lat="47.564558" lon="7.840516">
        <ele>304.418341</ele>
        <time>2021-11-09T21:15:11.087Z</time>
      </trkpt>
      <trkpt lat="47.564936" lon="7.840261">
        <ele>303.962565</ele>
        <time>2021-11-09T21:15:15.989Z</time>
      </trkpt>
      <trkpt lat="47.565057" lon="7.840213">
        <ele>303.825102</ele>
        <time>2021-11-09T21:15:17.402Z</time>
      </trkpt>
      <trkpt lat="47.565168" lon="7.840179">
        <ele>303.700471</ele>
        <time>2021-11-09T21:15:18.743Z</time>
      </trkpt>
      <trkpt lat="47.565233" lon="7.840176">
        <ele>303.628965</ele>
        <time>2021-11-09T21:15:19.479Z</time>
      </trkpt>
      <trkpt lat="47.565343" lon="7.840185">
        <ele>303.507829</ele>
        <time>2021-11-09T21:15:20.739Z</time>
      </trkpt>
      <trkpt lat="47.565906" lon="7.840272">
        <ele>302.885421</ele>
        <time>2021-11-09T21:15:27.405Z</time>
      </trkpt>
      <trkpt lat="47.566081" lon="7.840309">
        <ele>302.691050</ele>
        <time>2021-11-09T21:15:29.521Z</time>
      </trkpt>
      <trkpt lat="47.566142" lon="7.840322">
        <ele>302.623287</ele>
        <time>2021-11-09T21:15:30.255Z</time>
      </trkpt>
      <trkpt lat="47.566221" lon="7.840340">
        <ele>302.535401</ele>
        <time>2021-11-09T21:15:31.395Z</time>
      </trkpt>
      <trkpt lat="47.566350" lon="7.840350">
        <ele>302.393364</ele>
        <time>2021-11-09T21:15:33.009Z</time>
      </trkpt>
      <trkpt lat="47.566450" lon="7.840326">
        <ele>302.281975</ele>
        <time>2021-11-09T21:15:34.260Z</time>
      </trkpt>
      <trkpt lat="47.566515" lon="7.840312">
        <ele>302.209753</ele>
        <time>2021-11-09T21:15:35.055Z</time>
      </trkpt>
      <trkpt lat="47.566592" lon="7.840279">
        <ele>302.121618</ele>
        <time>2021-11-09T21:15:36.169Z</time>
      </trkpt>
      <trkpt lat="47.566826" lon="7.840179">
        <ele>301.853838</ele>
        <time>2021-11-09T21:15:39.119Z</time>
      </trkpt>
      <trkpt lat="47.567111" lon="7.839998">
        <ele>301.622717</ele>
        <time>2021-11-09T21:15:43.051Z</time>
      </trkpt>
      <trkpt lat="47.567305" lon="7.839854">
        <ele>301.462255</ele>
        <time>2021-11-09T21:15:45.803Z</time>
      </trkpt>
      <trkpt lat="47.567406" lon="7.839778">
        <ele>301.378484</ele>
        <time>2021-11-09T21:15:47.211Z</time>
      </trkpt>
      <trkpt lat="47.567481" lon="7.839664">
        <ele>301.299033</ele>
        <time>2021-11-09T21:15:48.506Z</time>
      </trkpt>
      <trkpt lat="47.567510" lon="7.839548">
        <ele>301.237305</ele>
        <time>2021-11-09T21:15:49.661Z</time>
      </trkpt>
      <trkpt lat="47.567530" lon="7.839459">
        <ele>301.190496</ele>
        <time>2021-11-09T21:15:50.467Z</time>
      </trkpt>
      <trkpt lat="47.567564" lon="7.839283">
        <ele>301.099144</ele>
        <time>2021-11-09T21:15:52.033Z</time>
      </trkpt>
      <trkpt lat="47.567626" lon="7.839064">
        <ele>300.980635</ele>
        <time>2021-11-09T21:15:54.145Z</time>
      </trkpt>
      <trkpt lat="47.567634" lon="7.839037">
        <ele>300.965921</ele>
        <time>2021-11-09T21:15:54.373Z</time>
      </trkpt>
      <trkpt lat="47.567823" lon="7.838648">
        <ele>300.726724</ele>
        <time>2021-11-09T21:15:58.681Z</time>
      </trkpt>
      <trkpt lat="47.567846" lon="7.838609">
        <ele>300.700878</ele>
        <time>2021-11-09T21:15:59.105Z</time>
      </trkpt>
      <trkpt lat="47.567936" lon="7.838380">
        <ele>300.568637</ele>
        <time>2021-11-09T21:16:01.462Z</time>
      </trkpt>
      <trkpt lat="47.568042" lon="7.838436">
        <ele>300.462910</ele>
        <time>2021-11-09T21:16:03.550Z</time>
      </trkpt>
      <trkpt lat="47.568160" lon="7.838415">
        <ele>300.314522</ele>
        <time>2021-11-09T21:16:05.695Z</time>
      </trkpt>
      <trkpt lat="47.568420" lon="7.838300">
        <ele>299.975749</ele>
        <time>2021-11-09T21:16:10.485Z</time>
      </trkpt>
      <trkpt lat="47.568988" lon="7.838054">
        <ele>299.236909</ele>
        <time>2021-11-09T21:16:20.308Z</time>
      </trkpt>
      <trkpt lat="47.569310" lon="7.837922">
        <ele>298.819779</ele>
        <time>2021-11-09T21:16:25.815Z</time>
      </trkpt>
      <trkpt lat="47.569522" lon="7.837844">
        <ele>298.547051</ele>
        <time>2021-11-09T21:16:29.407Z</time>
      </trkpt>
      <trkpt lat="47.569665" lon="7.837789">
        <ele>298.362593</ele>
        <time>2021-11-09T21:16:31.845Z</time>
      </trkpt>
      <trkpt lat="47.569814" lon="7.837733">
        <ele>298.170124</ele>
        <time>2021-11-09T21:16:34.381Z</time>
      </trkpt>
      <trkpt lat="47.569907" lon="7.837696">
        <ele>298.049252</ele>
        <time>2021-11-09T21:16:35.957Z</time>
      </trkpt>
      <trkpt lat="47.570038" lon="7.837643">
        <ele>297.878796</ele>
        <time>2021-11-09T21:16:38.209Z</time>
      </trkpt>
      <trkpt lat="47.570298" lon="7.837528">
        <ele>297.538206</ele>
        <time>2021-11-09T21:16:42.660Z</time>
      </trkpt>
      <trkpt lat="47.570872" lon="7.837307">
        <ele>296.793772</ele>
        <time>2021-11-09T21:16:52.523Z</time>
      </trkpt>
      <trkpt lat="47.570985" lon="7.837265">
        <ele>296.647536</ele>
        <time>2021-11-09T21:16:54.449Z</time>
      </trkpt>
      <trkpt lat="47.571254" lon="7.837161">
        <ele>296.298572</ele>
        <time>2021-11-09T21:16:59.162Z</time>
      </trkpt>
      <trkpt lat="47.571771" lon="7.836971">
        <ele>295.843816</ele>
        <time>2021-11-09T21:17:08.668Z</time>
      </trkpt>
      <trkpt lat="47.571871" lon="7.836932">
        <ele>295.786181</ele>
        <time>2021-11-09T21:17:10.605Z</time>
      </trkpt>
      <trkpt lat="47.572139" lon="7.836834">
        <ele>295.632324</ele>
        <time>2021-11-09T21:17:15.801Z</time>
      </trkpt>
      <trkpt lat="47.572296" lon="7.836777">
        <ele>295.542229</ele>
        <time>2021-11-09T21:17:18.879Z</time>
      </trkpt>
      <trkpt lat="47.572760" lon="7.836606">
        <ele>295.275730</ele>
        <time>2021-11-09T21:17:27.896Z</time>
      </trkpt>
      <trkpt lat="47.573348" lon="7.836386">
        <ele>294.974191</ele>
        <time>2021-11-09T21:17:39.051Z</time>
      </trkpt>
      <trkpt lat="47.573815" lon="7.836215">
        <ele>294.837566</ele>
        <time>2021-11-09T21:17:47.862Z</time>
      </trkpt>
      <trkpt lat="47.574158" lon="7.836106">
        <ele>294.737933</ele>
        <time>2021-11-09T21:17:54.434Z</time>
      </trkpt>
      <trkpt lat="47.574568" lon="7.836025">
        <ele>294.620455</ele>
        <time>2021-11-09T21:18:00.125Z</time>
      </trkpt>
      <trkpt lat="47.575033" lon="7.835907">
        <ele>294.540802</ele>
        <time>2021-11-09T21:18:07.130Z</time>
      </trkpt>
      <trkpt lat="47.575959" lon="7.835718">
        <ele>295.251406</ele>
        <time>2021-11-09T21:18:22.746Z</time>
      </trkpt>
      <trkpt lat="47.576219" lon="7.835650">
        <ele>295.452115</ele>
        <time>2021-11-09T21:18:27.904Z</time>
      </trkpt>
      <trkpt lat="47.579073" lon="7.834987">
        <ele>298.519610</ele>
        <time>2021-11-09T21:19:26.740Z</time>
      </trkpt>
      <trkpt lat="47.580667" lon="7.834627">
        <ele>298.614949</ele>
        <time>2021-11-09T21:19:50.590Z</time>
      </trkpt>
      <trkpt lat="47.580816" lon="7.834599">
        <ele>298.440583</ele>
        <time>2021-11-09T21:19:52.686Z</time>
      </trkpt>
      <trkpt lat="47.582828" lon="7.834117">
        <ele>294.977790</ele>
        <time>2021-11-09T21:20:15.734Z</time>
      </trkpt>
      <trkpt lat="47.583163" lon="7.833942">
        <ele>294.043103</ele>
        <time>2021-11-09T21:20:19.563Z</time>
      </trkpt>
      <trkpt lat="47.583327" lon="7.833750">
        <ele>293.493195</ele>
        <time>2021-11-09T21:20:21.721Z</time>
      </trkpt>
      <trkpt lat="47.583401" lon="7.833658">
        <ele>293.239053</ele>
        <time>2021-11-09T21:20:22.648Z</time>
      </trkpt>
      <trkpt lat="47.583523" lon="7.833509">
        <ele>292.823099</ele>
        <time>2021-11-09T21:20:24.340Z</time>
      </trkpt>
      <trkpt lat="47.583696" lon="7.833171">
        <ele>291.986739</ele>
        <time>2021-11-09T21:20:27.169Z</time>
      </trkpt>
      <trkpt lat="47.583849" lon="7.832883">
        <ele>290.940836</ele>
        <time>2021-11-09T21:20:29.492Z</time>
      </trkpt>
      <trkpt lat="47.584029" lon="7.832543">
        <ele>289.707726</ele>
        <time>2021-11-09T21:20:32.231Z</time>
      </trkpt>
      <trkpt lat="47.584156" lon="7.832334">
        <ele>288.905176</ele>
        <time>2021-11-09T21:20:34.005Z</time>
      </trkpt>
      <trkpt lat="47.584367" lon="7.832247">
        <ele>287.978840</ele>
        <time>2021-11-09T21:20:36.067Z</time>
      </trkpt>
      <trkpt lat="47.584448" lon="7.832251">
        <ele>287.636045</ele>
        <time>2021-11-09T21:20:36.840Z</time>
      </trkpt>
      <trkpt lat="47.584637" lon="7.832260">
        <ele>286.836222</ele>
        <time>2021-11-09T21:20:38.669Z</time>
      </trkpt>
      <trkpt lat="47.584717" lon="7.832264">
        <ele>286.497654</ele>
        <time>2021-11-09T21:20:39.459Z</time>
      </trkpt>
      <trkpt lat="47.585027" lon="7.832425">
        <ele>285.108328</ele>
        <time>2021-11-09T21:20:42.727Z</time>
      </trkpt>
      <trkpt lat="47.585195" lon="7.832588">
        <ele>284.402937</ele>
        <time>2021-11-09T21:20:44.775Z</time>
      </trkpt>
      <trkpt lat="47.585247" lon="7.832651">
        <ele>284.238976</ele>
        <time>2021-11-09T21:20:45.429Z</time>
      </trkpt>
      <trkpt lat="47.585278" lon="7.832688">
        <ele>284.141809</ele>
        <time>2021-11-09T21:20:45.815Z</time>
      </trkpt>
      <trkpt lat="47.586276" lon="7.833601">
        <ele>281.278594</ele>
        <time>2021-11-09T21:20:57.818Z</time>
      </trkpt>
      <trkpt lat="47.586496" lon="7.833050">
        <ele>280.224150</ele>
        <time>2021-11-09T21:21:03.055Z</time>
      </trkpt>
      <trkpt lat="47.587848" lon="7.834235">
        <ele>280.783223</ele>
        <time>2021-11-09T21:21:27.395Z</time>
      </trkpt>
      <trkpt lat="47.587628" lon="7.835942">
        <ele>283.439312</ele>
        <time>2021-11-09T21:21:55.221Z</time>
      </trkpt>
      <trkpt lat="47.587903" lon="7.836007">
        <ele>284.202711</ele>
        <time>2021-11-09T21:22:02.942Z</time>
      </trkpt>
      <trkpt lat="47.588272" lon="7.836090">
        <ele>285.225855</ele>
        <time>2021-11-09T21:22:13.931Z</time>
      </trkpt>
      <trkpt lat="47.589181" lon="7.835983">
        <ele>288.921128</ele>
        <time>2021-11-09T21:22:41.507Z</time>
      </trkpt>
      <trkpt lat="47.590263" lon="7.835856">
        <ele>293.744242</ele>
        <time>2021-11-09T21:23:16.760Z</time>
      </trkpt>
      <trkpt lat="47.590166" lon="7.836338">
        <ele>296.826344</ele>
        <time>2021-11-09T21:23:27.935Z</time>
      </trkpt>
      <trkpt lat="47.591704" lon="7.836354">
        <ele>311.369739</ele>
        <time>2021-11-09T21:24:59.229Z</time>
      </trkpt>
      <trkpt lat="47.591953" lon="7.836379">
        <ele>314.897656</ele>
        <time>2021-11-09T21:25:22.263Z</time>
      </trkpt>
      <trkpt lat="47.592110" lon="7.836372">
        <ele>317.118007</ele>
        <time>2021-11-09T21:25:31.902Z</time>
      </trkpt>
      <trkpt lat="47.592182" lon="7.836371">
        <ele>318.135842</ele>
        <time>2021-11-09T21:25:38.237Z</time>
      </trkpt>
      <trkpt lat="47.592250" lon="7.836371">
        <ele>319.097088</ele>
        <time>2021-11-09T21:25:46.004Z</time>
      </trkpt>
      <trkpt lat="47.592897" lon="7.836379">
        <ele>328.243382</ele>
        <time>2021-11-09T21:26:35.464Z</time>
      </trkpt>
      <trkpt lat="47.593173" lon="7.836468">
        <ele>332.236100</ele>
        <time>2021-11-09T21:26:58.130Z</time>
      </trkpt>
      <trkpt lat="47.593342" lon="7.836538">
        <ele>334.716532</ele>
        <time>2021-11-09T21:27:16.293Z</time>
      </trkpt>
      <trkpt lat="47.593826" lon="7.836849">
        <ele>339.776463</ele>
        <time>2021-11-09T21:27:51.530Z</time>
      </trkpt>
      <trkpt lat="47.594385" lon="7.837297">
        <ele>345.360229</ele>
        <time>2021-11-09T21:28:27.007Z</time>
      </trkpt>
      <trkpt lat="47.594966" lon="7.837645">
        <ele>350.866552</ele>
        <time>2021-11-09T21:28:55.838Z</time>
      </trkpt>
      <trkpt lat="47.595487" lon="7.838131">
        <ele>353.343535</ele>
        <time>2021-11-09T21:29:16.945Z</time>
      </trkpt>
      <trkpt lat="47.595964" lon="7.838747">
        <ele>355.382922</ele>
        <time>2021-11-09T21:29:36.534Z</time>
      </trkpt>
      <trkpt lat="47.596578" lon="7.839929">
        <ele>358.633573</ele>
        <time>2021-11-09T21:30:07.187Z</time>
      </trkpt>
      <trkpt lat="47.596993" lon="7.840544">
        <ele>360.535814</ele>
        <time>2021-11-09T21:30:26.634Z</time>
      </trkpt>
      <trkpt lat="47.597263" lon="7.840840">
        <ele>361.624470</ele>
        <time>2021-11-09T21:30:37.964Z</time>
      </trkpt>
      <trkpt lat="47.597727" lon="7.841333">
        <ele>363.528957</ele>
        <time>2021-11-09T21:30:57.605Z</time>
      </trkpt>
      <trkpt lat="47.597842" lon="7.841614">
        <ele>364.440982</ele>
        <time>2021-11-09T21:31:05.624Z</time>
      </trkpt>
      <trkpt lat="47.598058" lon="7.842175">
        <ele>366.233408</ele>
        <time>2021-11-09T21:31:21.490Z</time>
      </trkpt>
      <trkpt lat="47.598238" lon="7.842763">
        <ele>368.025124</ele>
        <time>2021-11-09T21:31:37.315Z</time>
      </trkpt>
      <trkpt lat="47.598536" lon="7.843376">
        <ele>370.121859</ele>
        <time>2021-11-09T21:31:56.132Z</time>
      </trkpt>
      <trkpt lat="47.598696" lon="7.843499">
        <ele>370.935420</ele>
        <time>2021-11-09T21:32:02.914Z</time>
      </trkpt>
      <trkpt lat="47.598937" lon="7.843561">
        <ele>372.328698</ele>
        <time>2021-11-09T21:32:12.513Z</time>
      </trkpt>
      <trkpt lat="47.599568" lon="7.843496">
        <ele>375.931637</ele>
        <time>2021-11-09T21:32:38.703Z</time>
      </trkpt>
      <trkpt lat="47.599763" lon="7.843535">
        <ele>377.052444</ele>
        <time>2021-11-09T21:32:47.237Z</time>
      </trkpt>
      <trkpt lat="47.600072" lon="7.843673">
        <ele>378.890637</ele>
        <time>2021-11-09T21:33:01.893Z</time>
      </trkpt>
      <trkpt lat="47.600807" lon="7.843916">
        <ele>383.852265</ele>
        <time>2021-11-09T21:33:37.668Z</time>
      </trkpt>
      <trkpt lat="47.602198" lon="7.844937">
        <ele>395.678784</ele>
        <time>2021-11-09T21:34:56.188Z</time>
      </trkpt>
      <trkpt lat="47.602253" lon="7.845252">
        <ele>397.819801</ele>
        <time>2021-11-09T21:35:07.330Z</time>
      </trkpt>
      <trkpt lat="47.602229" lon="7.845655">
        <ele>400.481804</ele>
        <time>2021-11-09T21:35:21.055Z</time>
      </trkpt>
      <trkpt lat="47.602243" lon="7.846717">
        <ele>407.470942</ele>
        <time>2021-11-09T21:36:06.632Z</time>
      </trkpt>
      <trkpt lat="47.602236" lon="7.847007">
        <ele>409.380321</ele>
        <time>2021-11-09T21:36:20.660Z</time>
      </trkpt>
      <trkpt lat="47.602282" lon="7.847374">
        <ele>411.843037</ele>
        <time>2021-11-09T21:36:36.441Z</time>
      </trkpt>
      <trkpt lat="47.602400" lon="7.847680">
        <ele>414.382946</ele>
        <time>2021-11-09T21:36:50.430Z</time>
      </trkpt>
      <trkpt lat="47.602486" lon="7.847821">
        <ele>415.752865</ele>
        <time>2021-11-09T21:36:59.624Z</time>
      </trkpt>
      <trkpt lat="47.602606" lon="7.848016">
        <ele>417.655075</ele>
        <time>2021-11-09T21:37:11.249Z</time>
      </trkpt>
      <trkpt lat="47.603736" lon="7.848907">
        <ele>431.210327</ele>
        <time>2021-11-09T21:38:34.233Z</time>
      </trkpt>
      <trkpt lat="47.604551" lon="7.849629">
        <ele>437.793161</ele>
        <time>2021-11-09T21:39:21.709Z</time>
      </trkpt>
      <trkpt lat="47.604823" lon="7.849877">
        <ele>440.007180</ele>
        <time>2021-11-09T21:39:35.871Z</time>
      </trkpt>
      <trkpt lat="47.605011" lon="7.850048">
        <ele>441.536448</ele>
        <time>2021-11-09T21:39:45.107Z</time>
      </trkpt>
      <trkpt lat="47.605181" lon="7.850167">
        <ele>442.839971</ele>
        <time>2021-11-09T21:39:52.825Z</time>
      </trkpt>
      <trkpt lat="47.605584" lon="7.850507">
        <ele>444.586698</ele>
        <time>2021-11-09T21:40:10.689Z</time>
      </trkpt>
      <trkpt lat="47.605922" lon="7.850724">
        <ele>445.695504</ele>
        <time>2021-11-09T21:40:23.719Z</time>
      </trkpt>
      <trkpt lat="47.606259" lon="7.850845">
        <ele>446.739364</ele>
        <time>2021-11-09T21:40:34.833Z</time>
      </trkpt>
      <trkpt lat="47.606432" lon="7.850826">
        <ele>447.261615</ele>
        <time>2021-11-09T21:40:39.804Z</time>
      </trkpt>
      <trkpt lat="47.606459" lon="7.850818">
        <ele>447.344506</ele>
        <time>2021-11-09T21:40:40.660Z</time>
      </trkpt>
      <trkpt lat="47.606642" lon="7.850761">
        <ele>447.907454</ele>
        <time>2021-11-09T21:40:45.976Z</time>
      </trkpt>
      <trkpt lat="47.606841" lon="7.850541">
        <ele>448.654665</ele>
        <time>2021-11-09T21:40:53.012Z</time>
      </trkpt>
      <trkpt lat="47.607206" lon="7.849906">
        <ele>448.444807</ele>
        <time>2021-11-09T21:41:06.339Z</time>
      </trkpt>
      <trkpt lat="47.607512" lon="7.849734">
        <ele>448.157120</ele>
        <time>2021-11-09T21:41:12.337Z</time>
      </trkpt>
      <trkpt lat="47.607779" lon="7.849458">
        <ele>447.871007</ele>
        <time>2021-11-09T21:41:17.780Z</time>
      </trkpt>
      <trkpt lat="47.608193" lon="7.849027">
        <ele>447.426337</ele>
        <time>2021-11-09T21:41:25.763Z</time>
      </trkpt>
      <trkpt lat="47.608499" lon="7.848767">
        <ele>446.534634</ele>
        <time>2021-11-09T21:41:31.015Z</time>
      </trkpt>
      <trkpt lat="47.608647" lon="7.848750">
        <ele>445.976428</ele>
        <time>2021-11-09T21:41:33.131Z</time>
      </trkpt>
      <trkpt lat="47.608958" lon="7.849213">
        <ele>444.319465</ele>
        <time>2021-11-09T21:41:39.307Z</time>
      </trkpt>
      <trkpt lat="47.609180" lon="7.849407">
        <ele>443.350545</ele>
        <time>2021-11-09T21:41:42.876Z</time>
      </trkpt>
      <trkpt lat="47.609671" lon="7.849581">
        <ele>441.452222</ele>
        <time>2021-11-09T21:41:49.772Z</time>
      </trkpt>
      <trkpt lat="47.609900" lon="7.849721">
        <ele>440.524697</ele>
        <time>2021-11-09T21:41:53.232Z</time>
      </trkpt>
      <trkpt lat="47.610164" lon="7.850132">
        <ele>439.683464</ele>
        <time>2021-11-09T21:41:58.786Z</time>
      </trkpt>
      <trkpt lat="47.610866" lon="7.850970">
        <ele>437.702805</ele>
        <time>2021-11-09T21:42:12.791Z</time>
      </trkpt>
      <trkpt lat="47.611197" lon="7.851511">
        <ele>436.620205</ele>
        <time>2021-11-09T21:42:21.800Z</time>
      </trkpt>
      <trkpt lat="47.611256" lon="7.851684">
        <ele>436.160792</ele>
        <time>2021-11-09T21:42:24.306Z</time>
      </trkpt>
      <trkpt lat="47.611373" lon="7.852022">
        <ele>435.200166</ele>
        <time>2021-11-09T21:42:28.552Z</time>
      </trkpt>
      <trkpt lat="47.611487" lon="7.852197">
        <ele>434.584906</ele>
        <time>2021-11-09T21:42:31.332Z</time>
      </trkpt>
      <trkpt lat="47.611909" lon="7.852604">
        <ele>432.697172</ele>
        <time>2021-11-09T21:42:38.681Z</time>
      </trkpt>
      <trkpt lat="47.612224" lon="7.852925">
        <ele>431.263922</ele>
        <time>2021-11-09T21:42:43.821Z</time>
      </trkpt>
      <trkpt lat="47.612366" lon="7.853056">
        <ele>430.636792</ele>
        <time>2021-11-09T21:42:46.041Z</time>
      </trkpt>
      <trkpt lat="47.612473" lon="7.853153">
        <ele>430.166507</ele>
        <time>2021-11-09T21:42:47.695Z</time>
      </trkpt>
      <trkpt lat="47.612894" lon="7.853499">
        <ele>426.542987</ele>
        <time>2021-11-09T21:42:53.875Z</time>
      </trkpt>
      <trkpt lat="47.613147" lon="7.853586">
        <ele>424.363867</ele>
        <time>2021-11-09T21:42:57.088Z</time>
      </trkpt>
      <trkpt lat="47.613350" lon="7.853629">
        <ele>422.643293</ele>
        <time>2021-11-09T21:42:59.641Z</time>
      </trkpt>
      <trkpt lat="47.613558" lon="7.853788">
        <ele>420.679942</ele>
        <time>2021-11-09T21:43:02.510Z</time>
      </trkpt>
      <trkpt lat="47.613564" lon="7.854464">
        <ele>416.855919</ele>
        <time>2021-11-09T21:43:08.088Z</time>
      </trkpt>
      <trkpt lat="47.613607" lon="7.854572">
        <ele>416.146444</ele>
        <time>2021-11-09T21:43:09.099Z</time>
      </trkpt>
      <trkpt lat="47.613659" lon="7.854700">
        <ele>415.301127</ele>
        <time>2021-11-09T21:43:10.378Z</time>
      </trkpt>
      <trkpt lat="47.613792" lon="7.854776">
        <ele>414.240691</ele>
        <time>2021-11-09T21:43:12.183Z</time>
      </trkpt>
      <trkpt lat="47.613988" lon="7.854392">
        <ele>412.098144</ele>
        <time>2021-11-09T21:43:16.221Z</time>
      </trkpt>
      <trkpt lat="47.614075" lon="7.854240">
        <ele>411.211160</ele>
        <time>2021-11-09T21:43:17.880Z</time>
      </trkpt>
      <trkpt lat="47.614100" lon="7.854196">
        <ele>410.955187</ele>
        <time>2021-11-09T21:43:18.357Z</time>
      </trkpt>
      <trkpt lat="47.614301" lon="7.854162">
        <ele>409.620260</ele>
        <time>2021-11-09T21:43:21.187Z</time>
      </trkpt>
      <trkpt lat="47.614629" lon="7.854431">
        <ele>407.147149</ele>
        <time>2021-11-09T21:43:26.037Z</time>
      </trkpt>
      <trkpt lat="47.614801" lon="7.854465">
        <ele>406.002146</ele>
        <time>2021-11-09T21:43:28.216Z</time>
      </trkpt>
      <trkpt lat="47.615213" lon="7.854374">
        <ele>403.253526</ele>
        <time>2021-11-09T21:43:33.884Z</time>
      </trkpt>
      <trkpt lat="47.615386" lon="7.854341">
        <ele>402.773416</ele>
        <time>2021-11-09T21:43:36.286Z</time>
      </trkpt>
      <trkpt lat="47.615617" lon="7.854296">
        <ele>402.578475</ele>
        <time>2021-11-09T21:43:39.480Z</time>
      </trkpt>
      <trkpt lat="47.615794" lon="7.854262">
        <ele>402.429139</ele>
        <time>2021-11-09T21:43:42.064Z</time>
      </trkpt>
      <trkpt lat="47.615857" lon="7.854262">
        <ele>402.376426</ele>
        <time>2021-11-09T21:43:43.099Z</time>
      </trkpt>
      <trkpt lat="47.615860" lon="7.854339">
        <ele>402.332923</ele>
        <time>2021-11-09T21:43:43.937Z</time>
      </trkpt>
      <trkpt lat="47.616057" lon="7.854419">
        <ele>402.162025</ele>
        <time>2021-11-09T21:43:47.191Z</time>
      </trkpt>
      <trkpt lat="47.616213" lon="7.854635">
        <ele>401.983475</ele>
        <time>2021-11-09T21:43:51.643Z</time>
      </trkpt>
      <trkpt lat="47.616419" lon="7.854648">
        <ele>401.810955</ele>
        <time>2021-11-09T21:43:56.052Z</time>
      </trkpt>
      <trkpt lat="47.616561" lon="7.854545">
        <ele>401.678699</ele>
        <time>2021-11-09T21:43:59.880Z</time>
      </trkpt>
      <trkpt lat="47.616730" lon="7.854154">
        <ele>401.416725</ele>
        <time>2021-11-09T21:44:08.986Z</time>
      </trkpt>
      <trkpt lat="47.616902" lon="7.854158">
        <ele>402.009131</ele>
        <time>2021-11-09T21:44:13.882Z</time>
      </trkpt>
      <trkpt lat="47.617010" lon="7.853874">
        <ele>403.280053</ele>
        <time>2021-11-09T21:44:20.820Z</time>
      </trkpt>
      <trkpt lat="47.617121" lon="7.853582">
        <ele>404.586654</ele>
        <time>2021-11-09T21:44:28.457Z</time>
      </trkpt>
      <trkpt lat="47.617174" lon="7.853374">
        <ele>405.453343</ele>
        <time>2021-11-09T21:44:34.295Z</time>
      </trkpt>
      <trkpt lat="47.617401" lon="7.852985">
        <ele>407.458715</ele>
        <time>2021-11-09T21:44:48.684Z</time>
      </trkpt>
      <trkpt lat="47.617505" lon="7.852663">
        <ele>408.850365</ele>
        <time>2021-11-09T21:44:59.283Z</time>
      </trkpt>
      <trkpt lat="47.617527" lon="7.851427">
        <ele>413.562386</ele>
        <time>2021-11-09T21:45:37.566Z</time>
      </trkpt>
      <trkpt lat="47.618006" lon="7.850183">
        <ele>418.832182</ele>
        <time>2021-11-09T21:46:13.526Z</time>
      </trkpt>
      <trkpt lat="47.618035" lon="7.849984">
        <ele>419.581081</ele>
        <time>2021-11-09T21:46:18.115Z</time>
      </trkpt>
      <trkpt lat="47.618004" lon="7.848291">
        <ele>423.623250</ele>
        <time>2021-11-09T21:46:50.285Z</time>
      </trkpt>
      <trkpt lat="47.617988" lon="7.848055">
        <ele>424.044517</ele>
        <time>2021-11-09T21:46:54.282Z</time>
      </trkpt>
      <trkpt lat="47.617998" lon="7.847811">
        <ele>424.478679</ele>
        <time>2021-11-09T21:46:57.844Z</time>
      </trkpt>
      <trkpt lat="47.618233" lon="7.846599">
        <ele>426.737079</ele>
        <time>2021-11-09T21:47:16.296Z</time>
      </trkpt>
      <trkpt lat="47.618223" lon="7.845325">
        <ele>429.105097</ele>
        <time>2021-11-09T21:47:37.027Z</time>
      </trkpt>
      <trkpt lat="47.618134" lon="7.844973">
        <ele>429.803835</ele>
        <time>2021-11-09T21:47:43.524Z</time>
      </trkpt>
      <trkpt lat="47.617988" lon="7.844483">
        <ele>430.799559</ele>
        <time>2021-11-09T21:47:53.656Z</time>
      </trkpt>
      <trkpt lat="47.617607" lon="7.843840">
        <ele>433.127224</ele>
        <time>2021-11-09T21:48:11.694Z</time>
      </trkpt>
      <trkpt lat="47.617368" lon="7.843216">
        <ele>435.345118</ele>
        <time>2021-11-09T21:48:28.338Z</time>
      </trkpt>
      <trkpt lat="47.617228" lon="7.842570">
        <ele>437.442094</ele>
        <time>2021-11-09T21:48:44.709Z</time>
      </trkpt>
      <trkpt lat="47.617103" lon="7.841209">
        <ele>441.359758</ele>
        <time>2021-11-09T21:49:15.568Z</time>
      </trkpt>
      <trkpt lat="47.616766" lon="7.839183">
        <ele>446.782320</ele>
        <time>2021-11-09T21:49:57.117Z</time>
      </trkpt>
      <trkpt lat="47.616796" lon="7.838812">
        <ele>447.602757</ele>
        <time>2021-11-09T21:50:03.898Z</time>
      </trkpt>
      <trkpt lat="47.617290" lon="7.837217">
        <ele>451.456821</ele>
        <time>2021-11-09T21:50:36.291Z</time>
      </trkpt>
      <trkpt lat="47.617841" lon="7.835706">
        <ele>455.556764</ele>
        <time>2021-11-09T21:51:09.071Z</time>
      </trkpt>
      <trkpt lat="47.618319" lon="7.834959">
        <ele>458.078755</ele>
        <time>2021-11-09T21:51:30.226Z</time>
      </trkpt>
      <trkpt lat="47.618582" lon="7.834417">
        <ele>459.717682</ele>
        <time>2021-11-09T21:51:43.921Z</time>
      </trkpt>
      <trkpt lat="47.618883" lon="7.833744">
        <ele>461.704485</ele>
        <time>2021-11-09T21:52:00.445Z</time>
      </trkpt>
      <trkpt lat="47.619543" lon="7.832548">
        <ele>465.501091</ele>
        <time>2021-11-09T21:52:31.088Z</time>
      </trkpt>
      <trkpt lat="47.621202" lon="7.830405">
        <ele>472.194071</ele>
        <time>2021-11-09T21:53:28.132Z</time>
      </trkpt>
      <trkpt lat="47.621427" lon="7.829933">
        <ele>473.629819</ele>
        <time>2021-11-09T21:53:38.735Z</time>
      </trkpt>
      <trkpt lat="47.621534" lon="7.829734">
        <ele>474.262022</ele>
        <time>2021-11-09T21:53:43.562Z</time>
      </trkpt>
      <trkpt lat="47.621800" lon="7.829109">
        <ele>476.097736</ele>
        <time>2021-11-09T21:53:58.511Z</time>
      </trkpt>
      <trkpt lat="47.621973" lon="7.828724">
        <ele>477.246874</ele>
        <time>2021-11-09T21:54:08.374Z</time>
      </trkpt>
      <trkpt lat="47.622611" lon="7.827681">
        <ele>483.032909</ele>
        <time>2021-11-09T21:54:44.902Z</time>
      </trkpt>
      <trkpt lat="47.622929" lon="7.827233">
        <ele>485.726922</ele>
        <time>2021-11-09T21:55:04.142Z</time>
      </trkpt>
      <trkpt lat="47.623357" lon="7.826769">
        <ele>488.891279</ele>
        <time>2021-11-09T21:55:26.615Z</time>
      </trkpt>
      <trkpt lat="47.623651" lon="7.826499">
        <ele>490.698498</ele>
        <time>2021-11-09T21:55:40.524Z</time>
      </trkpt>
      <trkpt lat="47.624085" lon="7.826125">
        <ele>493.321768</ele>
        <time>2021-11-09T21:55:59.345Z</time>
      </trkpt>
      <trkpt lat="47.624738" lon="7.825514">
        <ele>497.356846</ele>
        <time>2021-11-09T21:56:25.648Z</time>
      </trkpt>
      <trkpt lat="47.625432" lon="7.824606">
        <ele>500.230237</ele>
        <time>2021-11-09T21:56:49.130Z</time>
      </trkpt>
      <trkpt lat="47.626017" lon="7.823389">
        <ele>503.170292</ele>
        <time>2021-11-09T21:57:14.627Z</time>
      </trkpt>
      <trkpt lat="47.626214" lon="7.823154">
        <ele>503.948312</ele>
        <time>2021-11-09T21:57:21.529Z</time>
      </trkpt>
      <trkpt lat="47.626961" lon="7.822577">
        <ele>506.540435</ele>
        <time>2021-11-09T21:57:45.700Z</time>
      </trkpt>
      <trkpt lat="47.627230" lon="7.822262">
        <ele>507.595190</ele>
        <time>2021-11-09T21:57:54.976Z</time>
      </trkpt>
      <trkpt lat="47.627436" lon="7.821903">
        <ele>508.554509</ele>
        <time>2021-11-09T21:58:03.215Z</time>
      </trkpt>
      <trkpt lat="47.627644" lon="7.821437">
        <ele>509.144397</ele>
        <time>2021-11-09T21:58:12.692Z</time>
      </trkpt>
      <trkpt lat="47.627725" lon="7.821287">
        <ele>509.347252</ele>
        <time>2021-11-09T21:58:15.799Z</time>
      </trkpt>
      <trkpt lat="47.628068" lon="7.820705">
        <ele>510.163205</ele>
        <time>2021-11-09T21:58:27.952Z</time>
      </trkpt>
      <trkpt lat="47.628223" lon="7.820316">
        <ele>510.640129</ele>
        <time>2021-11-09T21:58:34.692Z</time>
      </trkpt>
      <trkpt lat="47.628382" lon="7.819690">
        <ele>511.346149</ele>
        <time>2021-11-09T21:58:42.090Z</time>
      </trkpt>
      <trkpt lat="47.628652" lon="7.819012">
        <ele>509.937714</ele>
        <time>2021-11-09T21:58:48.540Z</time>
      </trkpt>
      <trkpt lat="47.628903" lon="7.818442">
        <ele>508.706948</ele>
        <time>2021-11-09T21:58:53.646Z</time>
      </trkpt>
      <trkpt lat="47.629046" lon="7.818276">
        <ele>508.219975</ele>
        <time>2021-11-09T21:58:55.492Z</time>
      </trkpt>
      <trkpt lat="47.629850" lon="7.816905">
        <ele>502.196591</ele>
        <time>2021-11-09T21:59:07.050Z</time>
      </trkpt>
      <trkpt lat="47.630743" lon="7.815987">
        <ele>494.272710</ele>
        <time>2021-11-09T21:59:16.557Z</time>
      </trkpt>
      <trkpt lat="47.631021" lon="7.815514">
        <ele>490.923234</ele>
        <time>2021-11-09T21:59:20.275Z</time>
      </trkpt>
      <trkpt lat="47.631083" lon="7.815420">
        <ele>490.199705</ele>
        <time>2021-11-09T21:59:21.058Z</time>
      </trkpt>
      <trkpt lat="47.631227" lon="7.815205">
        <ele>488.532265</ele>
        <time>2021-11-09T21:59:22.843Z</time>
      </trkpt>
      <trkpt lat="47.631677" lon="7.814692">
        <ele>483.900243</ele>
        <time>2021-11-09T21:59:27.827Z</time>
      </trkpt>
      <trkpt lat="47.631707" lon="7.814641">
        <ele>483.527861</ele>
        <time>2021-11-09T21:59:28.214Z</time>
      </trkpt>
      <trkpt lat="47.632099" lon="7.813963">
        <ele>478.629263</ele>
        <time>2021-11-09T21:59:33.574Z</time>
      </trkpt>
      <trkpt lat="47.632179" lon="7.813790">
        <ele>477.633318</ele>
        <time>2021-11-09T21:59:34.796Z</time>
      </trkpt>
      <trkpt lat="47.632515" lon="7.813155">
        <ele>473.800970</ele>
        <time>2021-11-09T21:59:39.797Z</time>
      </trkpt>
      <trkpt lat="47.632573" lon="7.813067">
        <ele>473.216680</ele>
        <time>2021-11-09T21:59:40.512Z</time>
      </trkpt>
      <trkpt lat="47.632601" lon="7.813004">
        <ele>472.858452</ele>
        <time>2021-11-09T21:59:40.950Z</time>
      </trkpt>
      <trkpt lat="47.632790" lon="7.812277">
        <ele>469.159679</ele>
        <time>2021-11-09T21:59:45.766Z</time>
      </trkpt>
      <trkpt lat="47.632845" lon="7.812246">
        <ele>468.745261</ele>
        <time>2021-11-09T21:59:46.301Z</time>
      </trkpt>
      <trkpt lat="47.632938" lon="7.812283">
        <ele>468.067045</ele>
        <time>2021-11-09T21:59:47.120Z</time>
      </trkpt>
      <trkpt lat="47.633151" lon="7.812590">
        <ele>465.965927</ele>
        <time>2021-11-09T21:59:49.845Z</time>
      </trkpt>
      <trkpt lat="47.633391" lon="7.813533">
        <ele>460.619968</ele>
        <time>2021-11-09T21:59:55.918Z</time>
      </trkpt>
      <trkpt lat="47.633759" lon="7.814194">
        <ele>456.072775</ele>
        <time>2021-11-09T22:00:00.927Z</time>
      </trkpt>
      <trkpt lat="47.633899" lon="7.814255">
        <ele>454.924449</ele>
        <time>2021-11-09T22:00:02.264Z</time>
      </trkpt>
      <trkpt lat="47.634025" lon="7.814248">
        <ele>453.932120</ele>
        <time>2021-11-09T22:00:03.356Z</time>
      </trkpt>
      <trkpt lat="47.634267" lon="7.814103">
        <ele>451.878477</ele>
        <time>2021-11-09T22:00:05.720Z</time>
      </trkpt>
      <trkpt lat="47.634603" lon="7.813838">
        <ele>448.923312</ele>
        <time>2021-11-09T22:00:09.096Z</time>
      </trkpt>
      <trkpt lat="47.634638" lon="7.813802">
        <ele>448.592579</ele>
        <time>2021-11-09T22:00:09.454Z</time>
      </trkpt>
      <trkpt lat="47.634810" lon="7.813677">
        <ele>447.105171</ele>
        <time>2021-11-09T22:00:11.169Z</time>
      </trkpt>
      <trkpt lat="47.635241" lon="7.813237">
        <ele>443.042285</ele>
        <time>2021-11-09T22:00:15.768Z</time>
      </trkpt>
      <trkpt lat="47.635461" lon="7.813093">
        <ele>441.174858</ele>
        <time>2021-11-09T22:00:17.909Z</time>
      </trkpt>
      <trkpt lat="47.635537" lon="7.813043">
        <ele>440.529209</ele>
        <time>2021-11-09T22:00:18.649Z</time>
      </trkpt>
      <trkpt lat="47.635617" lon="7.812948">
        <ele>439.733465</ele>
        <time>2021-11-09T22:00:19.549Z</time>
      </trkpt>
      <trkpt lat="47.635678" lon="7.812872">
        <ele>439.114891</ele>
        <time>2021-11-09T22:00:20.270Z</time>
      </trkpt>
      <trkpt lat="47.635984" lon="7.812598">
        <ele>436.383826</ele>
        <time>2021-11-09T22:00:23.474Z</time>
      </trkpt>
      <trkpt lat="47.636234" lon="7.812469">
        <ele>434.385682</ele>
        <time>2021-11-09T22:00:25.867Z</time>
      </trkpt>
      <trkpt lat="47.636362" lon="7.812419">
        <ele>433.386463</ele>
        <time>2021-11-09T22:00:27.071Z</time>
      </trkpt>
      <trkpt lat="47.636514" lon="7.812384">
        <ele>432.225245</ele>
        <time>2021-11-09T22:00:28.430Z</time>
      </trkpt>
      <trkpt lat="47.637056" lon="7.812257">
        <ele>428.082860</ele>
        <time>2021-11-09T22:00:33.348Z</time>
      </trkpt>
      <trkpt lat="47.637370" lon="7.812117">
        <ele>425.607726</ele>
        <time>2021-11-09T22:00:36.253Z</time>
      </trkpt>
      <trkpt lat="47.637893" lon="7.811811">
        <ele>421.387100</ele>
        <time>2021-11-09T22:00:41.134Z</time>
      </trkpt>
      <trkpt lat="47.638511" lon="7.811552">
        <ele>416.577125</ele>
        <time>2021-11-09T22:00:46.849Z</time>
      </trkpt>
      <trkpt lat="47.638925" lon="7.811482">
        <ele>413.456119</ele>
        <time>2021-11-09T22:00:50.554Z</time>
      </trkpt>
      <trkpt lat="47.638925" lon="7.811482">
        <ele>413.456119</ele>
        <time>2021-11-09T22:00:50.564Z</time>
      </trkpt>
      <trkpt lat="47.639195" lon="7.811442">
        <ele>411.423712</ele>
        <time>2021-11-09T22:00:53.021Z</time>
      </trkpt>
      <trkpt lat="47.639796" lon="7.811469">
        <ele>408.733837</ele>
        <time>2021-11-09T22:00:58.603Z</time>
      </trkpt>
      <trkpt lat="47.639913" lon="7.811500">
        <ele>408.251182</ele>
        <time>2021-11-09T22:00:59.706Z</time>
      </trkpt>
      <trkpt lat="47.640114" lon="7.811584">
        <ele>407.403169</ele>
        <time>2021-11-09T22:01:01.739Z</time>
      </trkpt>
      <trkpt lat="47.640311" lon="7.811772">
        <ele>406.452029</ele>
        <time>2021-11-09T22:01:04.054Z</time>
      </trkpt>
      <trkpt lat="47.640406" lon="7.811979">
        <ele>405.766714</ele>
        <time>2021-11-09T22:01:05.812Z</time>
      </trkpt>
      <trkpt lat="47.640965" lon="7.814694">
        <ele>399.400538</ele>
        <time>2021-11-09T22:01:26.360Z</time>
      </trkpt>
      <trkpt lat="47.641246" lon="7.815390">
        <ele>397.226855</ele>
        <time>2021-11-09T22:01:31.648Z</time>
      </trkpt>
      <trkpt lat="47.641404" lon="7.815775">
        <ele>395.027796</ele>
        <time>2021-11-09T22:01:34.436Z</time>
      </trkpt>
      <trkpt lat="47.641514" lon="7.816229">
        <ele>392.674262</ele>
        <time>2021-11-09T22:01:37.340Z</time>
      </trkpt>
      <trkpt lat="47.641644" lon="7.816622">
        <ele>390.538560</ele>
        <time>2021-11-09T22:01:39.936Z</time>
      </trkpt>
      <trkpt lat="47.641687" lon="7.816751">
        <ele>389.836478</ele>
        <time>2021-11-09T22:01:40.801Z</time>
      </trkpt>
      <trkpt lat="47.641819" lon="7.816919">
        <ele>388.577517</ele>
        <time>2021-11-09T22:01:42.315Z</time>
      </trkpt>
      <trkpt lat="47.641916" lon="7.816921">
        <ele>387.875156</ele>
        <time>2021-11-09T22:01:43.163Z</time>
      </trkpt>
      <trkpt lat="47.642138" lon="7.816906">
        <ele>386.266182</ele>
        <time>2021-11-09T22:01:45.102Z</time>
      </trkpt>
      <trkpt lat="47.642758" lon="7.816795">
        <ele>382.094117</ele>
        <time>2021-11-09T22:01:50.578Z</time>
      </trkpt>
      <trkpt lat="47.642952" lon="7.816765">
        <ele>380.829579</ele>
        <time>2021-11-09T22:01:52.298Z</time>
      </trkpt>
      <trkpt lat="47.643638" lon="7.816626">
        <ele>376.340890</ele>
        <time>2021-11-09T22:01:58.527Z</time>
      </trkpt>
      <trkpt lat="47.643909" lon="7.816574">
        <ele>374.569337</ele>
        <time>2021-11-09T22:02:01.138Z</time>
      </trkpt>
      <trkpt lat="47.644357" lon="7.816478">
        <ele>373.032702</ele>
        <time>2021-11-09T22:02:05.725Z</time>
      </trkpt>
      <trkpt lat="47.644797" lon="7.816399">
        <ele>372.402699</ele>
        <time>2021-11-09T22:02:10.863Z</time>
      </trkpt>
      <trkpt lat="47.644927" lon="7.816376">
        <ele>372.216601</ele>
        <time>2021-11-09T22:02:12.461Z</time>
      </trkpt>
      <trkpt lat="47.645154" lon="7.816347">
        <ele>371.892737</ele>
        <time>2021-11-09T22:02:15.331Z</time>
      </trkpt>
      <trkpt lat="47.645328" lon="7.816364">
        <ele>371.644867</ele>
        <time>2021-11-09T22:02:17.630Z</time>
      </trkpt>
      <trkpt lat="47.645421" lon="7.816394">
        <ele>371.509585</ele>
        <time>2021-11-09T22:02:18.915Z</time>
      </trkpt>
      <trkpt lat="47.645433" lon="7.816418">
        <ele>371.480963</ele>
        <time>2021-11-09T22:02:19.197Z</time>
      </trkpt>
      <trkpt lat="47.645449" lon="7.816438">
        <ele>371.451230</ele>
        <time>2021-11-09T22:02:19.482Z</time>
      </trkpt>
      <trkpt lat="47.645479" lon="7.816460">
        <ele>371.403665</ele>
        <time>2021-11-09T22:02:19.945Z</time>
      </trkpt>
      <trkpt lat="47.645574" lon="7.816439">
        <ele>371.267137</ele>
        <time>2021-11-09T22:02:21.268Z</time>
      </trkpt>
      <trkpt lat="47.645598" lon="7.816405">
        <ele>371.219977</ele>
        <time>2021-11-09T22:02:21.739Z</time>
      </trkpt>
      <trkpt lat="47.645612" lon="7.816369">
        <ele>371.180170</ele>
        <time>2021-11-09T22:02:22.127Z</time>
      </trkpt>
      <trkpt lat="47.645701" lon="7.816302">
        <ele>371.038319</ele>
        <time>2021-11-09T22:02:23.493Z</time>
      </trkpt>
      <trkpt lat="47.645797" lon="7.816274">
        <ele>370.899250</ele>
        <time>2021-11-09T22:02:24.857Z</time>
      </trkpt>
      <trkpt lat="47.645844" lon="7.816242">
        <ele>370.864094</ele>
        <time>2021-11-09T22:02:25.569Z</time>
      </trkpt>
      <trkpt lat="47.645949" lon="7.816228">
        <ele>370.848407</ele>
        <time>2021-11-09T22:02:27.075Z</time>
      </trkpt>
      <trkpt lat="47.646346" lon="7.816173">
        <ele>370.789080</ele>
        <time>2021-11-09T22:02:32.883Z</time>
      </trkpt>
      <trkpt lat="47.646609" lon="7.816150">
        <ele>370.749879</ele>
        <time>2021-11-09T22:02:36.673Z</time>
      </trkpt>
      <trkpt lat="47.646940" lon="7.816087">
        <ele>370.700225</ele>
        <time>2021-11-09T22:02:41.360Z</time>
      </trkpt>
      <trkpt lat="47.647306" lon="7.815996">
        <ele>370.645008</ele>
        <time>2021-11-09T22:02:46.740Z</time>
      </trkpt>
      <trkpt lat="47.647662" lon="7.815885">
        <ele>370.566544</ele>
        <time>2021-11-09T22:02:52.170Z</time>
      </trkpt>
      <trkpt lat="47.647716" lon="7.815862">
        <ele>370.537980</ele>
        <time>2021-11-09T22:02:52.944Z</time>
      </trkpt>
      <trkpt lat="47.647785" lon="7.815818">
        <ele>370.499797</ele>
        <time>2021-11-09T22:02:54.028Z</time>
      </trkpt>
      <trkpt lat="47.647894" lon="7.815775">
        <ele>370.442453</ele>
        <time>2021-11-09T22:02:55.681Z</time>
      </trkpt>
      <trkpt lat="47.647965" lon="7.815741">
        <ele>370.404522</ele>
        <time>2021-11-09T22:02:56.777Z</time>
      </trkpt>
      <trkpt lat="47.648042" lon="7.815683">
        <ele>370.360619</ele>
        <time>2021-11-09T22:02:57.961Z</time>
      </trkpt>
      <trkpt lat="47.648065" lon="7.815705">
        <ele>370.346707</ele>
        <time>2021-11-09T22:02:58.311Z</time>
      </trkpt>
      <trkpt lat="47.648144" lon="7.815719">
        <ele>370.306255</ele>
        <time>2021-11-09T22:02:59.471Z</time>
      </trkpt>
      <trkpt lat="47.648170" lon="7.815706">
        <ele>370.292305</ele>
        <time>2021-11-09T22:02:59.841Z</time>
      </trkpt>
      <trkpt lat="47.648193" lon="7.815685">
        <ele>370.278576</ele>
        <time>2021-11-09T22:03:00.211Z</time>
      </trkpt>
      <trkpt lat="47.648227" lon="7.815625">
        <ele>370.251721</ele>
        <time>2021-11-09T22:03:01.033Z</time>
      </trkpt>
      <trkpt lat="47.648236" lon="7.815588">
        <ele>370.238246</ele>
        <time>2021-11-09T22:03:01.399Z</time>
      </trkpt>
      <trkpt lat="47.648240" lon="7.815548">
        <ele>370.224395</ele>
        <time>2021-11-09T22:03:01.778Z</time>
      </trkpt>
      <trkpt lat="47.648238" lon="7.815508">
        <ele>370.210656</ele>
        <time>2021-11-09T22:03:02.141Z</time>
      </trkpt>
      <trkpt lat="47.648231" lon="7.815470">
        <ele>370.197162</ele>
        <time>2021-11-09T22:03:02.489Z</time>
      </trkpt>
      <trkpt lat="47.648218" lon="7.815437">
        <ele>370.184068</ele>
        <time>2021-11-09T22:03:02.825Z</time>
      </trkpt>
      <trkpt lat="47.648201" lon="7.815408">
        <ele>370.170900</ele>
        <time>2021-11-09T22:03:03.144Z</time>
      </trkpt>
      <trkpt lat="47.648181" lon="7.815385">
        <ele>370.158037</ele>
        <time>2021-11-09T22:03:03.476Z</time>
      </trkpt>
      <trkpt lat="47.648157" lon="7.815369">
        <ele>370.144660</ele>
        <time>2021-11-09T22:03:03.838Z</time>
      </trkpt>
      <trkpt lat="47.648132" lon="7.815361">
        <ele>370.131657</ele>
        <time>2021-11-09T22:03:04.175Z</time>
      </trkpt>
      <trkpt lat="47.648106" lon="7.815361">
        <ele>370.118437</ele>
        <time>2021-11-09T22:03:04.521Z</time>
      </trkpt>
      <trkpt lat="47.648028" lon="7.815252">
        <ele>370.063969</ele>
        <time>2021-11-09T22:03:05.989Z</time>
      </trkpt>
      <trkpt lat="47.647991" lon="7.815199">
        <ele>370.037826</ele>
        <time>2021-11-09T22:03:06.672Z</time>
      </trkpt>
      <trkpt lat="47.647872" lon="7.814837">
        <ele>369.899855</ele>
        <time>2021-11-09T22:03:10.118Z</time>
      </trkpt>
      <trkpt lat="47.647819" lon="7.814667">
        <ele>369.835692</ele>
        <time>2021-11-09T22:03:11.741Z</time>
      </trkpt>
      <trkpt lat="47.647768" lon="7.814442">
        <ele>369.754377</ele>
        <time>2021-11-09T22:03:13.657Z</time>
      </trkpt>
      <trkpt lat="47.647731" lon="7.814277">
        <ele>369.694810</ele>
        <time>2021-11-09T22:03:15.118Z</time>
      </trkpt>
      <trkpt lat="47.647634" lon="7.813776">
        <ele>369.166271</ele>
        <time>2021-11-09T22:03:19.304Z</time>
      </trkpt>
      <trkpt lat="47.647557" lon="7.813314">
        <ele>368.667999</ele>
        <time>2021-11-09T22:03:23.124Z</time>
      </trkpt>
      <trkpt lat="47.647492" lon="7.812403">
        <ele>367.708894</ele>
        <time>2021-11-09T22:03:30.076Z</time>
      </trkpt>
      <trkpt lat="47.647437" lon="7.810945">
        <ele>366.191704</ele>
        <time>2021-11-09T22:03:40.920Z</time>
      </trkpt>
      <trkpt lat="47.647424" lon="7.810611">
        <ele>365.847178</ele>
        <time>2021-11-09T22:03:43.406Z</time>
      </trkpt>
      <trkpt lat="47.647363" lon="7.809040">
        <ele>364.226683</ele>
        <time>2021-11-09T22:03:55.769Z</time>
      </trkpt>
      <trkpt lat="47.647343" lon="7.808643">
        <ele>364.001718</ele>
        <time>2021-11-09T22:03:59.037Z</time>
      </trkpt>
      <trkpt lat="47.647326" lon="7.807899">
        <ele>363.671286</ele>
        <time>2021-11-09T22:04:05.362Z</time>
      </trkpt>
      <trkpt lat="47.647303" lon="7.806931">
        <ele>363.241350</ele>
        <time>2021-11-09T22:04:13.999Z</time>
      </trkpt>
      <trkpt lat="47.647290" lon="7.806277">
        <ele>362.952116</ele>
        <time>2021-11-09T22:04:19.951Z</time>
      </trkpt>
      <trkpt lat="47.647320" lon="7.804903">
        <ele>362.465083</ele>
        <time>2021-11-09T22:04:32.977Z</time>
      </trkpt>
      <trkpt lat="47.647349" lon="7.804754">
        <ele>362.410137</ele>
        <time>2021-11-09T22:04:34.312Z</time>
      </trkpt>
      <trkpt lat="47.647425" lon="7.804363">
        <ele>362.265964</ele>
        <time>2021-11-09T22:04:38.026Z</time>
      </trkpt>
      <trkpt lat="47.647509" lon="7.803929">
        <ele>362.105989</ele>
        <time>2021-11-09T22:04:41.930Z</time>
      </trkpt>
      <trkpt lat="47.647677" lon="7.803299">
        <ele>361.604367</ele>
        <time>2021-11-09T22:04:47.471Z</time>
      </trkpt>
      <trkpt lat="47.647780" lon="7.802900">
        <ele>361.179901</ele>
        <time>2021-11-09T22:04:50.871Z</time>
      </trkpt>
      <trkpt lat="47.647896" lon="7.802634">
        <ele>360.865130</ele>
        <time>2021-11-09T22:04:53.312Z</time>
      </trkpt>
      <trkpt lat="47.648032" lon="7.802295">
        <ele>360.473183</ele>
        <time>2021-11-09T22:04:56.395Z</time>
      </trkpt>
      <trkpt lat="47.648175" lon="7.801942">
        <ele>360.064003</ele>
        <time>2021-11-09T22:04:59.537Z</time>
      </trkpt>
      <trkpt lat="47.648191" lon="7.801903">
        <ele>360.018643</ele>
        <time>2021-11-09T22:04:59.880Z</time>
      </trkpt>
      <trkpt lat="47.648544" lon="7.801029">
        <ele>359.031238</ele>
        <time>2021-11-09T22:05:07.447Z</time>
      </trkpt>
      <trkpt lat="47.648712" lon="7.800751">
        <ele>358.686451</ele>
        <time>2021-11-09T22:05:10.243Z</time>
      </trkpt>
      <trkpt lat="47.648726" lon="7.800730">
        <ele>358.659175</ele>
        <time>2021-11-09T22:05:10.457Z</time>
      </trkpt>
      <trkpt lat="47.648813" lon="7.800640">
        <ele>358.513851</ele>
        <time>2021-11-09T22:05:11.627Z</time>
      </trkpt>
      <trkpt lat="47.648842" lon="7.800639">
        <ele>358.474098</ele>
        <time>2021-11-09T22:05:11.956Z</time>
      </trkpt>
      <trkpt lat="47.648859" lon="7.800627">
        <ele>358.448301</ele>
        <time>2021-11-09T22:05:12.172Z</time>
      </trkpt>
      <trkpt lat="47.648906" lon="7.800592">
        <ele>358.376241</ele>
        <time>2021-11-09T22:05:12.769Z</time>
      </trkpt>
      <trkpt lat="47.648922" lon="7.800561">
        <ele>358.340187</ele>
        <time>2021-11-09T22:05:13.063Z</time>
      </trkpt>
      <trkpt lat="47.649025" lon="7.800505">
        <ele>358.189863</ele>
        <time>2021-11-09T22:05:14.283Z</time>
      </trkpt>
      <trkpt lat="47.649108" lon="7.800464">
        <ele>358.069986</ele>
        <time>2021-11-09T22:05:15.244Z</time>
      </trkpt>
      <trkpt lat="47.649238" lon="7.800402">
        <ele>357.882861</ele>
        <time>2021-11-09T22:05:16.836Z</time>
      </trkpt>
      <trkpt lat="47.649415" lon="7.800336">
        <ele>357.632761</ele>
        <time>2021-11-09T22:05:18.905Z</time>
      </trkpt>
      <trkpt lat="47.649440" lon="7.800327">
        <ele>357.597507</ele>
        <time>2021-11-09T22:05:19.187Z</time>
      </trkpt>
      <trkpt lat="47.649598" lon="7.800268">
        <ele>357.374234</ele>
        <time>2021-11-09T22:05:21.154Z</time>
      </trkpt>
      <trkpt lat="47.649707" lon="7.800227">
        <ele>357.220137</ele>
        <time>2021-11-09T22:05:22.506Z</time>
      </trkpt>
      <trkpt lat="47.650046" lon="7.800072">
        <ele>356.947760</ele>
        <time>2021-11-09T22:05:27.362Z</time>
      </trkpt>
      <trkpt lat="47.650174" lon="7.800012">
        <ele>357.009823</ele>
        <time>2021-11-09T22:05:29.499Z</time>
      </trkpt>
      <trkpt lat="47.650489" lon="7.799868">
        <ele>357.162217</ele>
        <time>2021-11-09T22:05:34.950Z</time>
      </trkpt>
      <trkpt lat="47.650602" lon="7.799816">
        <ele>357.216917</ele>
        <time>2021-11-09T22:05:36.756Z</time>
      </trkpt>
      <trkpt lat="47.650980" lon="7.799643">
        <ele>357.399809</ele>
        <time>2021-11-09T22:05:43.955Z</time>
      </trkpt>
      <trkpt lat="47.651021" lon="7.799621">
        <ele>357.419966</ele>
        <time>2021-11-09T22:05:44.660Z</time>
      </trkpt>
      <trkpt lat="47.651401" lon="7.799445">
        <ele>357.604017</ele>
        <time>2021-11-09T22:05:51.878Z</time>
      </trkpt>
      <trkpt lat="47.651401" lon="7.799445">
        <ele>357.604017</ele>
        <time>2021-11-09T22:05:51.979Z</time>
      </trkpt>
      <trkpt lat="47.651510" lon="7.799390">
        <ele>357.657247</ele>
        <time>2021-11-09T22:05:54.977Z</time>
      </trkpt>
      <trkpt lat="47.651827" lon="7.799068">
        <ele>357.753900</ele>
        <time>2021-11-09T22:06:03.715Z</time>
      </trkpt>
      <trkpt lat="47.652373" lon="7.798474">
        <ele>357.835259</ele>
        <time>2021-11-09T22:06:18.324Z</time>
      </trkpt>
      <trkpt lat="47.652486" lon="7.798377">
        <ele>357.850948</ele>
        <time>2021-11-09T22:06:20.624Z</time>
      </trkpt>
      <trkpt lat="47.652811" lon="7.798152">
        <ele>357.894049</ele>
        <time>2021-11-09T22:06:28.177Z</time>
      </trkpt>
      <trkpt lat="47.652902" lon="7.798116">
        <ele>357.905368</ele>
        <time>2021-11-09T22:06:29.910Z</time>
      </trkpt>
      <trkpt lat="47.653088" lon="7.798043">
        <ele>357.928491</ele>
        <time>2021-11-09T22:06:33.685Z</time>
      </trkpt>
      <trkpt lat="47.653274" lon="7.797996">
        <ele>357.929680</ele>
        <time>2021-11-09T22:06:37.005Z</time>
      </trkpt>
      <trkpt lat="47.653601" lon="7.798001">
        <ele>357.880279</ele>
        <time>2021-11-09T22:06:43.024Z</time>
      </trkpt>
      <trkpt lat="47.653659" lon="7.798008">
        <ele>357.871488</ele>
        <time>2021-11-09T22:06:44.156Z</time>
      </trkpt>
      <trkpt lat="47.653906" lon="7.798052">
        <ele>357.833907</ele>
        <time>2021-11-09T22:06:48.654Z</time>
      </trkpt>
      <trkpt lat="47.654269" lon="7.798145">
        <ele>357.778260</ele>
        <time>2021-11-09T22:06:55.811Z</time>
      </trkpt>
      <trkpt lat="47.654972" lon="7.798325">
        <ele>357.670493</ele>
        <time>2021-11-09T22:07:10.471Z</time>
      </trkpt>
      <trkpt lat="47.655261" lon="7.798389">
        <ele>357.788961</ele>
        <time>2021-11-09T22:07:16.856Z</time>
      </trkpt>
      <trkpt lat="47.655416" lon="7.798427">
        <ele>357.853776</ele>
        <time>2021-11-09T22:07:20.353Z</time>
      </trkpt>
      <trkpt lat="47.656074" lon="7.798592">
        <ele>358.129094</ele>
        <time>2021-11-09T22:07:35.001Z</time>
      </trkpt>
      <trkpt lat="47.656097" lon="7.798598">
        <ele>358.138729</ele>
        <time>2021-11-09T22:07:35.540Z</time>
      </trkpt>
      <trkpt lat="47.656579" lon="7.798702">
        <ele>358.339678</ele>
        <time>2021-11-09T22:07:46.359Z</time>
      </trkpt>
      <trkpt lat="47.656780" lon="7.798744">
        <ele>358.425778</ele>
        <time>2021-11-09T22:07:50.903Z</time>
      </trkpt>
      <trkpt lat="47.656989" lon="7.798756">
        <ele>358.529872</ele>
        <time>2021-11-09T22:07:55.538Z</time>
      </trkpt>
      <trkpt lat="47.657806" lon="7.798860">
        <ele>358.937972</ele>
        <time>2021-11-09T22:08:13.908Z</time>
      </trkpt>
      <trkpt lat="47.658094" lon="7.798895">
        <ele>359.081784</ele>
        <time>2021-11-09T22:08:20.227Z</time>
      </trkpt>
      <trkpt lat="47.658412" lon="7.798888">
        <ele>359.240065</ele>
        <time>2021-11-09T22:08:27.160Z</time>
      </trkpt>
      <trkpt lat="47.658617" lon="7.798885">
        <ele>359.341047</ele>
        <time>2021-11-09T22:08:31.800Z</time>
      </trkpt>
      <trkpt lat="47.658702" lon="7.798884">
        <ele>359.382082</ele>
        <time>2021-11-09T22:08:33.680Z</time>
      </trkpt>
      <trkpt lat="47.658990" lon="7.798898">
        <ele>359.521188</ele>
        <time>2021-11-09T22:08:40.142Z</time>
      </trkpt>
      <trkpt lat="47.659142" lon="7.798947">
        <ele>359.596276</ele>
        <time>2021-11-09T22:08:43.542Z</time>
      </trkpt>
      <trkpt lat="47.659353" lon="7.799038">
        <ele>359.702346</ele>
        <time>2021-11-09T22:08:48.476Z</time>
      </trkpt>
      <trkpt lat="47.659617" lon="7.799151">
        <ele>359.834982</ele>
        <time>2021-11-09T22:08:54.545Z</time>
      </trkpt>
      <trkpt lat="47.659695" lon="7.799185">
        <ele>359.874226</ele>
        <time>2021-11-09T22:08:56.367Z</time>
      </trkpt>
      <trkpt lat="47.659866" lon="7.799258">
        <ele>359.960121</ele>
        <time>2021-11-09T22:09:00.362Z</time>
      </trkpt>
      <trkpt lat="47.660413" lon="7.799490">
        <ele>360.250462</ele>
        <time>2021-11-09T22:09:12.782Z</time>
      </trkpt>
      <trkpt lat="47.660755" lon="7.799654">
        <ele>360.469943</ele>
        <time>2021-11-09T22:09:20.626Z</time>
      </trkpt>
      <trkpt lat="47.660793" lon="7.799673">
        <ele>360.494430</ele>
        <time>2021-11-09T22:09:21.542Z</time>
      </trkpt>
      <trkpt lat="47.661187" lon="7.799870">
        <ele>360.748321</ele>
        <time>2021-11-09T22:09:30.849Z</time>
      </trkpt>
      <trkpt lat="47.661224" lon="7.799885">
        <ele>360.771744</ele>
        <time>2021-11-09T22:09:31.810Z</time>
      </trkpt>
      <trkpt lat="47.661603" lon="7.800090">
        <ele>361.018077</ele>
        <time>2021-11-09T22:09:41.064Z</time>
      </trkpt>
      <trkpt lat="47.662007" lon="7.800299">
        <ele>361.280042</ele>
        <time>2021-11-09T22:09:50.849Z</time>
      </trkpt>
      <trkpt lat="47.662416" lon="7.800534">
        <ele>361.581998</ele>
        <time>2021-11-09T22:10:01.466Z</time>
      </trkpt>
      <trkpt lat="47.663470" lon="7.800659">
        <ele>362.310013</ele>
        <time>2021-11-09T22:10:25.658Z</time>
      </trkpt>
      <trkpt lat="47.663623" lon="7.800669">
        <ele>362.415460</ele>
        <time>2021-11-09T22:10:29.244Z</time>
      </trkpt>
      <trkpt lat="47.663648" lon="7.800671">
        <ele>362.432698</ele>
        <time>2021-11-09T22:10:29.798Z</time>
      </trkpt>
      <trkpt lat="47.663842" lon="7.800716">
        <ele>362.528920</ele>
        <time>2021-11-09T22:10:34.049Z</time>
      </trkpt>
      <trkpt lat="47.664106" lon="7.800746">
        <ele>362.583455</ele>
        <time>2021-11-09T22:10:39.861Z</time>
      </trkpt>
      <trkpt lat="47.664689" lon="7.800933">
        <ele>362.706306</ele>
        <time>2021-11-09T22:10:52.710Z</time>
      </trkpt>
      <trkpt lat="47.664798" lon="7.800967">
        <ele>362.729247</ele>
        <time>2021-11-09T22:10:54.992Z</time>
      </trkpt>
      <trkpt lat="47.664905" lon="7.801009">
        <ele>362.752043</ele>
        <time>2021-11-09T22:10:56.664Z</time>
      </trkpt>
      <trkpt lat="47.664978" lon="7.801054">
        <ele>362.768323</ele>
        <time>2021-11-09T22:10:57.984Z</time>
      </trkpt>
      <trkpt lat="47.665172" lon="7.801118">
        <ele>362.809255</ele>
        <time>2021-11-09T22:11:01.021Z</time>
      </trkpt>
      <trkpt lat="47.665245" lon="7.801124">
        <ele>362.824314</ele>
        <time>2021-11-09T22:11:02.089Z</time>
      </trkpt>
      <trkpt lat="47.665316" lon="7.801149">
        <ele>362.839344</ele>
        <time>2021-11-09T22:11:03.122Z</time>
      </trkpt>
      <trkpt lat="47.665387" lon="7.801168">
        <ele>362.854203</ele>
        <time>2021-11-09T22:11:04.134Z</time>
      </trkpt>
      <trkpt lat="47.665445" lon="7.801185">
        <ele>362.866380</ele>
        <time>2021-11-09T22:11:04.966Z</time>
      </trkpt>
      <trkpt lat="47.665568" lon="7.801222">
        <ele>362.886090</ele>
        <time>2021-11-09T22:11:06.702Z</time>
      </trkpt>
      <trkpt lat="47.665926" lon="7.801299">
        <ele>362.912324</ele>
        <time>2021-11-09T22:11:11.884Z</time>
      </trkpt>
      <trkpt lat="47.667457" lon="7.801591">
        <ele>363.061169</ele>
        <time>2021-11-09T22:11:35.460Z</time>
      </trkpt>
      <trkpt lat="47.667683" lon="7.801634">
        <ele>363.132762</ele>
        <time>2021-11-09T22:11:39.067Z</time>
      </trkpt>
      <trkpt lat="47.668510" lon="7.801819">
        <ele>363.395550</ele>
        <time>2021-11-09T22:11:52.307Z</time>
      </trkpt>
      <trkpt lat="47.669268" lon="7.802058">
        <ele>363.701589</ele>
        <time>2021-11-09T22:12:05.292Z</time>
      </trkpt>
      <trkpt lat="47.669789" lon="7.802222">
        <ele>364.041452</ele>
        <time>2021-11-09T22:12:14.402Z</time>
      </trkpt>
      <trkpt lat="47.670454" lon="7.802523">
        <ele>364.485097</ele>
        <time>2021-11-09T22:12:26.664Z</time>
      </trkpt>
      <trkpt lat="47.671719" lon="7.803219">
        <ele>365.479451</ele>
        <time>2021-11-09T22:12:50.708Z</time>
      </trkpt>
      <trkpt lat="47.672584" lon="7.803691">
        <ele>366.211838</ele>
        <time>2021-11-09T22:13:07.233Z</time>
      </trkpt>
      <trkpt lat="47.672895" lon="7.803860">
        <ele>366.530810</ele>
        <time>2021-11-09T22:13:13.191Z</time>
      </trkpt>
      <trkpt lat="47.673196" lon="7.804045">
        <ele>366.844573</ele>
        <time>2021-11-09T22:13:19.096Z</time>
      </trkpt>
      <trkpt lat="47.673946" lon="7.804566">
        <ele>367.642076</ele>
        <time>2021-11-09T22:13:34.849Z</time>
      </trkpt>
      <trkpt lat="47.674603" lon="7.805215">
        <ele>368.500125</ele>
        <time>2021-11-09T22:13:50.121Z</time>
      </trkpt>
      <trkpt lat="47.674775" lon="7.805343">
        <ele>368.718546</ele>
        <time>2021-11-09T22:13:53.951Z</time>
      </trkpt>
      <trkpt lat="47.674984" lon="7.805448">
        <ele>368.969038</ele>
        <time>2021-11-09T22:13:58.126Z</time>
      </trkpt>
      <trkpt lat="47.675201" lon="7.805494">
        <ele>369.217902</ele>
        <time>2021-11-09T22:14:02.377Z</time>
      </trkpt>
      <trkpt lat="47.675373" lon="7.805530">
        <ele>369.415108</ele>
        <time>2021-11-09T22:14:05.748Z</time>
      </trkpt>
      <trkpt lat="47.675967" lon="7.805369">
        <ele>370.115660</ele>
        <time>2021-11-09T22:14:17.479Z</time>
      </trkpt>
      <trkpt lat="47.676130" lon="7.805401">
        <ele>370.316010</ele>
        <time>2021-11-09T22:14:20.768Z</time>
      </trkpt>
      <trkpt lat="47.678058" lon="7.806976">
        <ele>373.386203</ele>
        <time>2021-11-09T22:15:04.275Z</time>
      </trkpt>
      <trkpt lat="47.678361" lon="7.807188">
        <ele>373.968773</ele>
        <time>2021-11-09T22:15:11.795Z</time>
      </trkpt>
      <trkpt lat="47.678488" lon="7.807276">
        <ele>374.212525</ele>
        <time>2021-11-09T22:15:15.135Z</time>
      </trkpt>
      <trkpt lat="47.678718" lon="7.807469">
        <ele>374.672006</ele>
        <time>2021-11-09T22:15:21.013Z</time>
      </trkpt>
      <trkpt lat="47.679035" lon="7.807798">
        <ele>375.390156</ele>
        <time>2021-11-09T22:15:30.327Z</time>
      </trkpt>
      <trkpt lat="47.679093" lon="7.807855">
        <ele>375.553828</ele>
        <time>2021-11-09T22:15:32.102Z</time>
      </trkpt>
      <trkpt lat="47.679211" lon="7.807962">
        <ele>375.879193</ele>
        <time>2021-11-09T22:15:35.406Z</time>
      </trkpt>
      <trkpt lat="47.679337" lon="7.808074">
        <ele>376.224768</ele>
        <time>2021-11-09T22:15:38.916Z</time>
      </trkpt>
      <trkpt lat="47.679509" lon="7.808150">
        <ele>376.647085</ele>
        <time>2021-11-09T22:15:43.258Z</time>
      </trkpt>
      <trkpt lat="47.679852" lon="7.808259">
        <ele>377.472569</ele>
        <time>2021-11-09T22:15:51.713Z</time>
      </trkpt>
      <trkpt lat="47.680002" lon="7.808310">
        <ele>377.834710</ele>
        <time>2021-11-09T22:15:55.496Z</time>
      </trkpt>
      <trkpt lat="47.680190" lon="7.808369">
        <ele>378.286917</ele>
        <time>2021-11-09T22:16:00.528Z</time>
      </trkpt>
      <trkpt lat="47.680296" lon="7.808398">
        <ele>378.540573</ele>
        <time>2021-11-09T22:16:03.382Z</time>
      </trkpt>
      <trkpt lat="47.680998" lon="7.808558">
        <ele>380.069260</ele>
        <time>2021-11-09T22:16:20.607Z</time>
      </trkpt>
      <trkpt lat="47.681112" lon="7.808625">
        <ele>380.303834</ele>
        <time>2021-11-09T22:16:23.289Z</time>
      </trkpt>
      <trkpt lat="47.681354" lon="7.808953">
        <ele>380.930660</ele>
        <time>2021-11-09T22:16:30.393Z</time>
      </trkpt>
      <trkpt lat="47.681416" lon="7.808985">
        <ele>381.056244</ele>
        <time>2021-11-09T22:16:32.139Z</time>
      </trkpt>
      <trkpt lat="47.681479" lon="7.808934">
        <ele>381.193524</ele>
        <time>2021-11-09T22:16:33.572Z</time>
      </trkpt>
      <trkpt lat="47.681525" lon="7.808831">
        <ele>381.352741</ele>
        <time>2021-11-09T22:16:35.284Z</time>
      </trkpt>
      <trkpt lat="47.681566" lon="7.808766">
        <ele>381.467477</ele>
        <time>2021-11-09T22:16:36.727Z</time>
      </trkpt>
      <trkpt lat="47.681743" lon="7.808468">
        <ele>381.979380</ele>
        <time>2021-11-09T22:16:42.329Z</time>
      </trkpt>
      <trkpt lat="47.681980" lon="7.808264">
        <ele>382.503477</ele>
        <time>2021-11-09T22:16:48.101Z</time>
      </trkpt>
      <trkpt lat="47.682788" lon="7.807894">
        <ele>384.427849</ele>
        <time>2021-11-09T22:17:06.916Z</time>
      </trkpt>
      <trkpt lat="47.683018" lon="7.807663">
        <ele>385.091363</ele>
        <time>2021-11-09T22:17:13.277Z</time>
      </trkpt>
      <trkpt lat="47.683100" lon="7.807543">
        <ele>385.366457</ele>
        <time>2021-11-09T22:17:16.154Z</time>
      </trkpt>
      <trkpt lat="47.683227" lon="7.807391">
        <ele>385.756228</ele>
        <time>2021-11-09T22:17:19.548Z</time>
      </trkpt>
      <trkpt lat="47.683298" lon="7.807196">
        <ele>386.112905</ele>
        <time>2021-11-09T22:17:23.980Z</time>
      </trkpt>
      <trkpt lat="47.683414" lon="7.806933">
        <ele>386.618766</ele>
        <time>2021-11-09T22:17:28.963Z</time>
      </trkpt>
      <trkpt lat="47.683440" lon="7.806883">
        <ele>386.720412</ele>
        <time>2021-11-09T22:17:30.671Z</time>
      </trkpt>
      <trkpt lat="47.683762" lon="7.806139">
        <ele>388.556223</ele>
        <time>2021-11-09T22:17:47.576Z</time>
      </trkpt>
      <trkpt lat="47.684002" lon="7.805825">
        <ele>389.650927</ele>
        <time>2021-11-09T22:17:57.722Z</time>
      </trkpt>
      <trkpt lat="47.685433" lon="7.804734">
        <ele>393.999902</ele>
        <time>2021-11-09T22:18:43.042Z</time>
      </trkpt>
      <trkpt lat="47.685474" lon="7.804690">
        <ele>394.062494</ele>
        <time>2021-11-09T22:18:44.734Z</time>
      </trkpt>
      <trkpt lat="47.685544" lon="7.804620">
        <ele>394.166917</ele>
        <time>2021-11-09T22:18:45.912Z</time>
      </trkpt>
      <trkpt lat="47.686085" lon="7.803707">
        <ele>395.180168</ele>
        <time>2021-11-09T22:19:00.372Z</time>
      </trkpt>
      <trkpt lat="47.686282" lon="7.803470">
        <ele>395.493871</ele>
        <time>2021-11-09T22:19:03.883Z</time>
      </trkpt>
      <trkpt lat="47.686515" lon="7.803165">
        <ele>395.206783</ele>
        <time>2021-11-09T22:19:07.968Z</time>
      </trkpt>
      <trkpt lat="47.686861" lon="7.802763">
        <ele>394.563286</ele>
        <time>2021-11-09T22:19:12.889Z</time>
      </trkpt>
      <trkpt lat="47.686988" lon="7.802664">
        <ele>394.353177</ele>
        <time>2021-11-09T22:19:14.540Z</time>
      </trkpt>
      <trkpt lat="47.687345" lon="7.802442">
        <ele>393.786214</ele>
        <time>2021-11-09T22:19:18.869Z</time>
      </trkpt>
      <trkpt lat="47.687529" lon="7.802242">
        <ele>393.452210</ele>
        <time>2021-11-09T22:19:21.384Z</time>
      </trkpt>
      <trkpt lat="47.688168" lon="7.801084">
        <ele>391.819894</ele>
        <time>2021-11-09T22:19:32.560Z</time>
      </trkpt>
      <trkpt lat="47.688515" lon="7.800635">
        <ele>391.036443</ele>
        <time>2021-11-09T22:19:37.939Z</time>
      </trkpt>
      <trkpt lat="47.688706" lon="7.800220">
        <ele>390.460296</ele>
        <time>2021-11-09T22:19:41.877Z</time>
      </trkpt>
      <trkpt lat="47.688835" lon="7.799732">
        <ele>389.860001</ele>
        <time>2021-11-09T22:19:45.732Z</time>
      </trkpt>
      <trkpt lat="47.688987" lon="7.799109">
        <ele>389.130192</ele>
        <time>2021-11-09T22:19:50.667Z</time>
      </trkpt>
      <trkpt lat="47.689229" lon="7.798474">
        <ele>388.326547</ele>
        <time>2021-11-09T22:19:56.163Z</time>
      </trkpt>
      <trkpt lat="47.689229" lon="7.798474">
        <ele>388.326547</ele>
        <time>2021-11-09T22:19:56.169Z</time>
      </trkpt>
      <trkpt lat="47.689312" lon="7.798158">
        <ele>387.952973</ele>
        <time>2021-11-09T22:19:58.802Z</time>
      </trkpt>
      <trkpt lat="47.689375" lon="7.798016">
        <ele>387.765672</ele>
        <time>2021-11-09T22:20:00.133Z</time>
      </trkpt>
      <trkpt lat="47.689359" lon="7.797846">
        <ele>387.576626</ele>
        <time>2021-11-09T22:20:01.345Z</time>
      </trkpt>
      <trkpt lat="47.689337" lon="7.797614">
        <ele>387.318595</ele>
        <time>2021-11-09T22:20:03.470Z</time>
      </trkpt>
      <trkpt lat="47.689304" lon="7.797526">
        <ele>387.207655</ele>
        <time>2021-11-09T22:20:04.339Z</time>
      </trkpt>
      <trkpt lat="47.689267" lon="7.797481">
        <ele>387.129420</ele>
        <time>2021-11-09T22:20:04.828Z</time>
      </trkpt>
      <trkpt lat="47.689198" lon="7.797440">
        <ele>387.007835</ele>
        <time>2021-11-09T22:20:05.697Z</time>
      </trkpt>
      <trkpt lat="47.688818" lon="7.797354">
        <ele>386.723283</ele>
        <time>2021-11-09T22:20:10.316Z</time>
      </trkpt>
      <trkpt lat="47.688760" lon="7.797271">
        <ele>386.673719</ele>
        <time>2021-11-09T22:20:11.452Z</time>
      </trkpt>
      <trkpt lat="47.688706" lon="7.797170">
        <ele>386.620284</ele>
        <time>2021-11-09T22:20:12.523Z</time>
      </trkpt>
      <trkpt lat="47.688677" lon="7.797115">
        <ele>386.591341</ele>
        <time>2021-11-09T22:20:13.084Z</time>
      </trkpt>
      <trkpt lat="47.688460" lon="7.796657">
        <ele>386.359309</ele>
        <time>2021-11-09T22:20:17.450Z</time>
      </trkpt>
      <trkpt lat="47.688430" lon="7.796592">
        <ele>386.326659</ele>
        <time>2021-11-09T22:20:18.049Z</time>
      </trkpt>
      <trkpt lat="47.688376" lon="7.796471">
        <ele>386.266514</ele>
        <time>2021-11-09T22:20:19.272Z</time>
      </trkpt>
      <trkpt lat="47.688243" lon="7.796236">
        <ele>386.139319</ele>
        <time>2021-11-09T22:20:22.260Z</time>
      </trkpt>
      <trkpt lat="47.688126" lon="7.796135">
        <ele>386.056038</ele>
        <time>2021-11-09T22:20:24.235Z</time>
      </trkpt>
      <trkpt lat="47.688100" lon="7.796113">
        <ele>386.037623</ele>
        <time>2021-11-09T22:20:24.696Z</time>
      </trkpt>
      <trkpt lat="47.687750" lon="7.795967">
        <ele>385.841187</ele>
        <time>2021-11-09T22:20:30.603Z</time>
      </trkpt>
      <trkpt lat="47.687733" lon="7.795960">
        <ele>385.859760</ele>
        <time>2021-11-09T22:20:31.016Z</time>
      </trkpt>
      <trkpt lat="47.687589" lon="7.795875">
        <ele>386.022905</ele>
        <time>2021-11-09T22:20:33.581Z</time>
      </trkpt>
      <trkpt lat="47.687244" lon="7.795566">
        <ele>386.447063</ele>
        <time>2021-11-09T22:20:40.570Z</time>
      </trkpt>
      <trkpt lat="47.686773" lon="7.795244">
        <ele>386.992963</ele>
        <time>2021-11-09T22:20:50.554Z</time>
      </trkpt>
      <trkpt lat="47.686447" lon="7.795085">
        <ele>387.354228</ele>
        <time>2021-11-09T22:20:57.227Z</time>
      </trkpt>
      <trkpt lat="47.685757" lon="7.794995">
        <ele>388.507869</ele>
        <time>2021-11-09T22:21:12.182Z</time>
      </trkpt>
      <trkpt lat="47.685630" lon="7.794901">
        <ele>388.830574</ele>
        <time>2021-11-09T22:21:15.665Z</time>
      </trkpt>
      <trkpt lat="47.685562" lon="7.794813">
        <ele>389.035684</ele>
        <time>2021-11-09T22:21:17.794Z</time>
      </trkpt>
      <trkpt lat="47.685487" lon="7.794521">
        <ele>389.514187</ele>
        <time>2021-11-09T22:21:23.025Z</time>
      </trkpt>
      <trkpt lat="47.685483" lon="7.793624">
        <ele>390.887575</ele>
        <time>2021-11-09T22:21:38.037Z</time>
      </trkpt>
      <trkpt lat="47.685522" lon="7.793290">
        <ele>391.406583</ele>
        <time>2021-11-09T22:21:43.828Z</time>
      </trkpt>
      <trkpt lat="47.685569" lon="7.792956">
        <ele>391.925035</ele>
        <time>2021-11-09T22:21:49.546Z</time>
      </trkpt>
      <trkpt lat="47.685693" lon="7.792135">
        <ele>393.170863</ele>
        <time>2021-11-09T22:22:03.362Z</time>
      </trkpt>
      <trkpt lat="47.685714" lon="7.791960">
        <ele>393.434060</ele>
        <time>2021-11-09T22:22:06.320Z</time>
      </trkpt>
      <trkpt lat="47.685709" lon="7.791561">
        <ele>394.024938</ele>
        <time>2021-11-09T22:22:12.783Z</time>
      </trkpt>
      <trkpt lat="47.685466" lon="7.790442">
        <ele>395.765664</ele>
        <time>2021-11-09T22:22:31.110Z</time>
      </trkpt>
      <trkpt lat="47.685446" lon="7.790197">
        <ele>396.086341</ele>
        <time>2021-11-09T22:22:34.818Z</time>
      </trkpt>
      <trkpt lat="47.685435" lon="7.790058">
        <ele>396.268197</ele>
        <time>2021-11-09T22:22:36.635Z</time>
      </trkpt>
      <trkpt lat="47.685517" lon="7.789491">
        <ele>397.021747</ele>
        <time>2021-11-09T22:22:44.768Z</time>
      </trkpt>
      <trkpt lat="47.685712" lon="7.788776">
        <ele>398.024137</ele>
        <time>2021-11-09T22:22:55.865Z</time>
      </trkpt>
      <trkpt lat="47.685727" lon="7.788724">
        <ele>398.097645</ele>
        <time>2021-11-09T22:22:57.126Z</time>
      </trkpt>
      <trkpt lat="47.685949" lon="7.787951">
        <ele>399.189630</ele>
        <time>2021-11-09T22:23:09.850Z</time>
      </trkpt>
      <trkpt lat="47.686130" lon="7.787340">
        <ele>400.627698</ele>
        <time>2021-11-09T22:23:21.242Z</time>
      </trkpt>
      <trkpt lat="47.686302" lon="7.786331">
        <ele>402.920163</ele>
        <time>2021-11-09T22:23:40.563Z</time>
      </trkpt>
      <trkpt lat="47.686331" lon="7.786036">
        <ele>403.576790</ele>
        <time>2021-11-09T22:23:46.271Z</time>
      </trkpt>
      <trkpt lat="47.686340" lon="7.785785">
        <ele>404.130400</ele>
        <time>2021-11-09T22:23:51.286Z</time>
      </trkpt>
      <trkpt lat="47.686341" lon="7.785005">
        <ele>406.136573</ele>
        <time>2021-11-09T22:24:07.322Z</time>
      </trkpt>
      <trkpt lat="47.686252" lon="7.784253">
        <ele>408.484309</ele>
        <time>2021-11-09T22:24:25.620Z</time>
      </trkpt>
      <trkpt lat="47.685935" lon="7.782954">
        <ele>412.732871</ele>
        <time>2021-11-09T22:24:57.840Z</time>
      </trkpt>
      <trkpt lat="47.685771" lon="7.782429">
        <ele>413.701861</ele>
        <time>2021-11-09T22:25:10.162Z</time>
      </trkpt>
      <trkpt lat="47.685457" lon="7.781526">
        <ele>414.673619</ele>
        <time>2021-11-09T22:25:27.583Z</time>
      </trkpt>
      <trkpt lat="47.685192" lon="7.780420">
        <ele>415.796081</ele>
        <time>2021-11-09T22:25:39.832Z</time>
      </trkpt>
      <trkpt lat="47.685111" lon="7.779800">
        <ele>414.692344</ele>
        <time>2021-11-09T22:25:44.324Z</time>
      </trkpt>
      <trkpt lat="47.685066" lon="7.779203">
        <ele>413.341055</ele>
        <time>2021-11-09T22:25:48.405Z</time>
      </trkpt>
      <trkpt lat="47.685010" lon="7.778565">
        <ele>411.893783</ele>
        <time>2021-11-09T22:25:52.657Z</time>
      </trkpt>
      <trkpt lat="47.684693" lon="7.776536">
        <ele>406.528729</ele>
        <time>2021-11-09T22:26:06.123Z</time>
      </trkpt>
      <trkpt lat="47.684265" lon="7.774268">
        <ele>400.195226</ele>
        <time>2021-11-09T22:26:21.627Z</time>
      </trkpt>
      <trkpt lat="47.683952" lon="7.772543">
        <ele>395.794740</ele>
        <time>2021-11-09T22:26:33.564Z</time>
      </trkpt>
      <trkpt lat="47.683943" lon="7.772495">
        <ele>395.686746</ele>
        <time>2021-11-09T22:26:33.895Z</time>
      </trkpt>
      <trkpt lat="47.683865" lon="7.772140">
        <ele>394.918333</ele>
        <time>2021-11-09T22:26:36.459Z</time>
      </trkpt>
      <trkpt lat="47.683745" lon="7.771752">
        <ele>394.039714</ele>
        <time>2021-11-09T22:26:39.386Z</time>
      </trkpt>
      <trkpt lat="47.683569" lon="7.771339">
        <ele>393.033917</ele>
        <time>2021-11-09T22:26:42.754Z</time>
      </trkpt>
      <trkpt lat="47.683285" lon="7.770864">
        <ele>391.726671</ele>
        <time>2021-11-09T22:26:47.156Z</time>
      </trkpt>
      <trkpt lat="47.682798" lon="7.770327">
        <ele>389.917235</ele>
        <time>2021-11-09T22:26:53.433Z</time>
      </trkpt>
      <trkpt lat="47.681387" lon="7.769148">
        <ele>385.530954</ele>
        <time>2021-11-09T22:27:10.198Z</time>
      </trkpt>
      <trkpt lat="47.680608" lon="7.768711">
        <ele>384.350746</ele>
        <time>2021-11-09T22:27:19.329Z</time>
      </trkpt>
      <trkpt lat="47.680291" lon="7.768374">
        <ele>383.831608</ele>
        <time>2021-11-09T22:27:25.008Z</time>
      </trkpt>
      <trkpt lat="47.680112" lon="7.768210">
        <ele>383.551530</ele>
        <time>2021-11-09T22:27:27.836Z</time>
      </trkpt>
      <trkpt lat="47.679654" lon="7.767908">
        <ele>382.838004</ele>
        <time>2021-11-09T22:27:34.145Z</time>
      </trkpt>
      <trkpt lat="47.679576" lon="7.767868">
        <ele>382.682492</ele>
        <time>2021-11-09T22:27:35.081Z</time>
      </trkpt>
      <trkpt lat="47.679489" lon="7.767825">
        <ele>382.509694</ele>
        <time>2021-11-09T22:27:36.092Z</time>
      </trkpt>
      <trkpt lat="47.679333" lon="7.767766">
        <ele>382.206318</ele>
        <time>2021-11-09T22:27:38.022Z</time>
      </trkpt>
      <trkpt lat="47.679255" lon="7.767756">
        <ele>382.058774</ele>
        <time>2021-11-09T22:27:38.852Z</time>
      </trkpt>
      <trkpt lat="47.679217" lon="7.767752">
        <ele>381.986980</ele>
        <time>2021-11-09T22:27:39.327Z</time>
      </trkpt>
      <trkpt lat="47.679131" lon="7.767730">
        <ele>381.822520</ele>
        <time>2021-11-09T22:27:40.229Z</time>
      </trkpt>
      <trkpt lat="47.679013" lon="7.767707">
        <ele>381.598233</ele>
        <time>2021-11-09T22:27:41.681Z</time>
      </trkpt>
      <trkpt lat="47.678987" lon="7.767687">
        <ele>381.543052</ele>
        <time>2021-11-09T22:27:41.982Z</time>
      </trkpt>
      <trkpt lat="47.678922" lon="7.767592">
        <ele>381.371192</ele>
        <time>2021-11-09T22:27:42.957Z</time>
      </trkpt>
      <trkpt lat="47.678899" lon="7.767537">
        <ele>381.289039</ele>
        <time>2021-11-09T22:27:43.468Z</time>
      </trkpt>
      <trkpt lat="47.678852" lon="7.767327">
        <ele>381.008243</ele>
        <time>2021-11-09T22:27:45.088Z</time>
      </trkpt>
      <trkpt lat="47.678702" lon="7.766832">
        <ele>380.319472</ele>
        <time>2021-11-09T22:27:49.107Z</time>
      </trkpt>
      <trkpt lat="47.678683" lon="7.766771">
        <ele>380.234190</ele>
        <time>2021-11-09T22:27:49.643Z</time>
      </trkpt>
      <trkpt lat="47.678569" lon="7.766392">
        <ele>379.707481</ele>
        <time>2021-11-09T22:27:52.667Z</time>
      </trkpt>
      <trkpt lat="47.678412" lon="7.765986">
        <ele>378.747960</ele>
        <time>2021-11-09T22:27:55.976Z</time>
      </trkpt>
      <trkpt lat="47.678382" lon="7.765906">
        <ele>378.545537</ele>
        <time>2021-11-09T22:27:56.599Z</time>
      </trkpt>
      <trkpt lat="47.678359" lon="7.765855">
        <ele>378.409846</ele>
        <time>2021-11-09T22:27:57.033Z</time>
      </trkpt>
      <trkpt lat="47.678344" lon="7.765825">
        <ele>378.327243</ele>
        <time>2021-11-09T22:27:57.292Z</time>
      </trkpt>
      <trkpt lat="47.678233" lon="7.765617">
        <ele>377.740537</ele>
        <time>2021-11-09T22:27:59.023Z</time>
      </trkpt>
      <trkpt lat="47.678197" lon="7.765565">
        <ele>377.575663</ele>
        <time>2021-11-09T22:27:59.508Z</time>
      </trkpt>
      <trkpt lat="47.678111" lon="7.765484">
        <ele>377.241320</ele>
        <time>2021-11-09T22:28:00.461Z</time>
      </trkpt>
      <trkpt lat="47.677963" lon="7.765384">
        <ele>376.707488</ele>
        <time>2021-11-09T22:28:02.029Z</time>
      </trkpt>
      <trkpt lat="47.677617" lon="7.765148">
        <ele>375.457436</ele>
        <time>2021-11-09T22:28:05.784Z</time>
      </trkpt>
      <trkpt lat="47.677471" lon="7.764954">
        <ele>374.814250</ele>
        <time>2021-11-09T22:28:07.739Z</time>
      </trkpt>
      <trkpt lat="47.677427" lon="7.764836">
        <ele>374.516070</ele>
        <time>2021-11-09T22:28:08.648Z</time>
      </trkpt>
      <trkpt lat="47.677379" lon="7.764714">
        <ele>374.203709</ele>
        <time>2021-11-09T22:28:09.668Z</time>
      </trkpt>
      <trkpt lat="47.677356" lon="7.764658">
        <ele>374.058702</ele>
        <time>2021-11-09T22:28:10.127Z</time>
      </trkpt>
      <trkpt lat="47.677342" lon="7.764623">
        <ele>373.968708</ele>
        <time>2021-11-09T22:28:10.399Z</time>
      </trkpt>
      <trkpt lat="47.677251" lon="7.764397">
        <ele>373.518544</ele>
        <time>2021-11-09T22:28:12.216Z</time>
      </trkpt>
      <trkpt lat="47.677202" lon="7.764311">
        <ele>373.374181</ele>
        <time>2021-11-09T22:28:13.103Z</time>
      </trkpt>
      <trkpt lat="47.677132" lon="7.764248">
        <ele>373.218409</ele>
        <time>2021-11-09T22:28:13.994Z</time>
      </trkpt>
      <trkpt lat="47.676954" lon="7.764130">
        <ele>372.847434</ele>
        <time>2021-11-09T22:28:16.028Z</time>
      </trkpt>
      <trkpt lat="47.676526" lon="7.763904">
        <ele>371.982934</ele>
        <time>2021-11-09T22:28:21.240Z</time>
      </trkpt>
      <trkpt lat="47.676293" lon="7.763712">
        <ele>371.475818</ele>
        <time>2021-11-09T22:28:24.139Z</time>
      </trkpt>
      <trkpt lat="47.676229" lon="7.763812">
        <ele>371.299023</ele>
        <time>2021-11-09T22:28:25.343Z</time>
      </trkpt>
      <trkpt lat="47.676125" lon="7.763727">
        <ele>371.073104</ele>
        <time>2021-11-09T22:28:26.625Z</time>
      </trkpt>
      <trkpt lat="47.675993" lon="7.763584">
        <ele>370.762156</ele>
        <time>2021-11-09T22:28:28.469Z</time>
      </trkpt>
      <trkpt lat="47.675740" lon="7.763353">
        <ele>370.230676</ele>
        <time>2021-11-09T22:28:31.915Z</time>
      </trkpt>
      <trkpt lat="47.675250" lon="7.762909">
        <ele>369.596152</ele>
        <time>2021-11-09T22:28:38.932Z</time>
      </trkpt>
      <trkpt lat="47.674425" lon="7.762674">
        <ele>368.667540</ele>
        <time>2021-11-09T22:28:49.379Z</time>
      </trkpt>
      <trkpt lat="47.673906" lon="7.762269">
        <ele>367.967940</ele>
        <time>2021-11-09T22:28:56.322Z</time>
      </trkpt>
      <trkpt lat="47.673690" lon="7.762041">
        <ele>367.619058</ele>
        <time>2021-11-09T22:28:59.465Z</time>
      </trkpt>
      <trkpt lat="47.673664" lon="7.762014">
        <ele>367.577290</ele>
        <time>2021-11-09T22:28:59.797Z</time>
      </trkpt>
      <trkpt lat="47.673325" lon="7.761682">
        <ele>367.042681</ele>
        <time>2021-11-09T22:29:04.487Z</time>
      </trkpt>
      <trkpt lat="47.673263" lon="7.761602">
        <ele>366.934550</ele>
        <time>2021-11-09T22:29:05.494Z</time>
      </trkpt>
      <trkpt lat="47.673205" lon="7.761545">
        <ele>366.842986</ele>
        <time>2021-11-09T22:29:06.296Z</time>
      </trkpt>
      <trkpt lat="47.673117" lon="7.761431">
        <ele>366.689248</ele>
        <time>2021-11-09T22:29:07.685Z</time>
      </trkpt>
      <trkpt lat="47.673060" lon="7.761352">
        <ele>366.586603</ele>
        <time>2021-11-09T22:29:08.531Z</time>
      </trkpt>
      <trkpt lat="47.672856" lon="7.760939">
        <ele>366.132535</ele>
        <time>2021-11-09T22:29:12.636Z</time>
      </trkpt>
      <trkpt lat="47.672781" lon="7.760789">
        <ele>365.966909</ele>
        <time>2021-11-09T22:29:14.143Z</time>
      </trkpt>
      <trkpt lat="47.672453" lon="7.760092">
        <ele>365.290003</ele>
        <time>2021-11-09T22:29:20.889Z</time>
      </trkpt>
      <trkpt lat="47.672336" lon="7.759883">
        <ele>365.075234</ele>
        <time>2021-11-09T22:29:23.049Z</time>
      </trkpt>
      <trkpt lat="47.672076" lon="7.759475">
        <ele>364.631347</ele>
        <time>2021-11-09T22:29:27.569Z</time>
      </trkpt>
      <trkpt lat="47.672076" lon="7.759475">
        <ele>364.631347</ele>
        <time>2021-11-09T22:29:27.583Z</time>
      </trkpt>
      <trkpt lat="47.671998" lon="7.759327">
        <ele>364.482836</ele>
        <time>2021-11-09T22:29:29.021Z</time>
      </trkpt>
      <trkpt lat="47.671800" lon="7.758924">
        <ele>364.088627</ele>
        <time>2021-11-09T22:29:33.040Z</time>
      </trkpt>
      <trkpt lat="47.671358" lon="7.758058">
        <ele>363.544506</ele>
        <time>2021-11-09T22:29:42.091Z</time>
      </trkpt>
      <trkpt lat="47.671186" lon="7.757811">
        <ele>363.415874</ele>
        <time>2021-11-09T22:29:45.199Z</time>
      </trkpt>
      <trkpt lat="47.671126" lon="7.757733">
        <ele>363.373004</ele>
        <time>2021-11-09T22:29:46.101Z</time>
      </trkpt>
      <trkpt lat="47.671039" lon="7.757642">
        <ele>363.315795</ele>
        <time>2021-11-09T22:29:47.435Z</time>
      </trkpt>
      <trkpt lat="47.670676" lon="7.757263">
        <ele>363.077236</ele>
        <time>2021-11-09T22:29:53.279Z</time>
      </trkpt>
      <trkpt lat="47.670241" lon="7.757100">
        <ele>362.866694</ele>
        <time>2021-11-09T22:29:59.751Z</time>
      </trkpt>
      <trkpt lat="47.670073" lon="7.757037">
        <ele>363.157548</ele>
        <time>2021-11-09T22:30:02.221Z</time>
      </trkpt>
      <trkpt lat="47.669557" lon="7.756969">
        <ele>364.027099</ele>
        <time>2021-11-09T22:30:12.291Z</time>
      </trkpt>
      <trkpt lat="47.669247" lon="7.756923">
        <ele>364.550050</ele>
        <time>2021-11-09T22:30:20.181Z</time>
      </trkpt>
      <trkpt lat="47.668933" lon="7.756884">
        <ele>365.078965</ele>
        <time>2021-11-09T22:30:27.681Z</time>
      </trkpt>
      <trkpt lat="47.668731" lon="7.756866">
        <ele>365.418648</ele>
        <time>2021-11-09T22:30:31.964Z</time>
      </trkpt>
      <trkpt lat="47.668355" lon="7.756843">
        <ele>366.121682</ele>
        <time>2021-11-09T22:30:41.407Z</time>
      </trkpt>
      <trkpt lat="47.668200" lon="7.756833">
        <ele>366.481116</ele>
        <time>2021-11-09T22:30:46.103Z</time>
      </trkpt>
      <trkpt lat="47.668039" lon="7.756791">
        <ele>366.859823</ele>
        <time>2021-11-09T22:30:49.432Z</time>
      </trkpt>
      <trkpt lat="47.667830" lon="7.756709">
        <ele>367.360637</ele>
        <time>2021-11-09T22:30:55.820Z</time>
      </trkpt>
      <trkpt lat="47.667710" lon="7.756630">
        <ele>367.664743</ele>
        <time>2021-11-09T22:30:58.211Z</time>
      </trkpt>
      <trkpt lat="47.667431" lon="7.756411">
        <ele>368.395864</ele>
        <time>2021-11-09T22:31:06.209Z</time>
      </trkpt>
      <trkpt lat="47.666885" lon="7.755703">
        <ele>370.054952</ele>
        <time>2021-11-09T22:31:23.653Z</time>
      </trkpt>
      <trkpt lat="47.666229" lon="7.755138">
        <ele>371.030738</ele>
        <time>2021-11-09T22:31:39.075Z</time>
      </trkpt>
      <trkpt lat="47.665657" lon="7.754266">
        <ele>372.085557</ele>
        <time>2021-11-09T22:31:54.474Z</time>
      </trkpt>
      <trkpt lat="47.664785" lon="7.753598">
        <ele>372.998314</ele>
        <time>2021-11-09T22:32:13.309Z</time>
      </trkpt>
      <trkpt lat="47.664178" lon="7.752880">
        <ele>373.649048</ele>
        <time>2021-11-09T22:32:27.618Z</time>
      </trkpt>
      <trkpt lat="47.663794" lon="7.752548">
        <ele>373.720712</ele>
        <time>2021-11-09T22:32:35.013Z</time>
      </trkpt>
      <trkpt lat="47.663526" lon="7.752332">
        <ele>373.522479</ele>
        <time>2021-11-09T22:32:39.485Z</time>
      </trkpt>
      <trkpt lat="47.663202" lon="7.751961">
        <ele>373.256497</ele>
        <time>2021-11-09T22:32:44.612Z</time>
      </trkpt>
      <trkpt lat="47.662816" lon="7.751172">
        <ele>372.829536</ele>
        <time>2021-11-09T22:32:52.185Z</time>
      </trkpt>
      <trkpt lat="47.662524" lon="7.750379">
        <ele>372.714054</ele>
        <time>2021-11-09T22:32:59.643Z</time>
      </trkpt>
      <trkpt lat="47.662354" lon="7.749988">
        <ele>372.739568</ele>
        <time>2021-11-09T22:33:04.128Z</time>
      </trkpt>
      <trkpt lat="47.662130" lon="7.749679">
        <ele>372.764457</ele>
        <time>2021-11-09T22:33:08.808Z</time>
      </trkpt>
      <trkpt lat="47.662033" lon="7.749559">
        <ele>372.774734</ele>
        <time>2021-11-09T22:33:10.812Z</time>
      </trkpt>
      <trkpt lat="47.661974" lon="7.749503">
        <ele>372.780434</ele>
        <time>2021-11-09T22:33:12.201Z</time>
      </trkpt>
      <trkpt lat="47.661873" lon="7.749406">
        <ele>372.790226</ele>
        <time>2021-11-09T22:33:14.244Z</time>
      </trkpt>
      <trkpt lat="47.661671" lon="7.749230">
        <ele>372.809290</ele>
        <time>2021-11-09T22:33:18.221Z</time>
      </trkpt>
      <trkpt lat="47.661437" lon="7.749003">
        <ele>372.843095</ele>
        <time>2021-11-09T22:33:23.330Z</time>
      </trkpt>
      <trkpt lat="47.661244" lon="7.748751">
        <ele>372.947720</ele>
        <time>2021-11-09T22:33:28.307Z</time>
      </trkpt>
      <trkpt lat="47.661195" lon="7.748690">
        <ele>372.973751</ele>
        <time>2021-11-09T22:33:29.819Z</time>
      </trkpt>
      <trkpt lat="47.660700" lon="7.748048">
        <ele>373.241310</ele>
        <time>2021-11-09T22:33:43.880Z</time>
      </trkpt>
      <trkpt lat="47.658822" lon="7.745603">
        <ele>372.027064</ele>
        <time>2021-11-09T22:34:15.245Z</time>
      </trkpt>
      <trkpt lat="47.658691" lon="7.745477">
        <ele>371.869646</ele>
        <time>2021-11-09T22:34:16.968Z</time>
      </trkpt>
      <trkpt lat="47.658650" lon="7.745437">
        <ele>371.813189</ele>
        <time>2021-11-09T22:34:17.502Z</time>
      </trkpt>
      <trkpt lat="47.656876" lon="7.744283">
        <ele>369.646870</ele>
        <time>2021-11-09T22:34:40.630Z</time>
      </trkpt>
      <trkpt lat="47.656655" lon="7.744215">
        <ele>369.442278</ele>
        <time>2021-11-09T22:34:43.980Z</time>
      </trkpt>
      <trkpt lat="47.656594" lon="7.744070">
        <ele>369.337893</ele>
        <time>2021-11-09T22:34:45.482Z</time>
      </trkpt>
      <trkpt lat="47.656592" lon="7.744040">
        <ele>369.319486</ele>
        <time>2021-11-09T22:34:45.660Z</time>
      </trkpt>
      <trkpt lat="47.656129" lon="7.743833">
        <ele>368.881161</ele>
        <time>2021-11-09T22:34:52.068Z</time>
      </trkpt>
      <trkpt lat="47.654324" lon="7.743075">
        <ele>366.819699</ele>
        <time>2021-11-09T22:35:14.724Z</time>
      </trkpt>
      <trkpt lat="47.653639" lon="7.742914">
        <ele>365.973913</ele>
        <time>2021-11-09T22:35:22.707Z</time>
      </trkpt>
      <trkpt lat="47.653011" lon="7.743041">
        <ele>365.165739</ele>
        <time>2021-11-09T22:35:30.130Z</time>
      </trkpt>
      <trkpt lat="47.652352" lon="7.743329">
        <ele>364.289777</ele>
        <time>2021-11-09T22:35:38.399Z</time>
      </trkpt>
      <trkpt lat="47.651664" lon="7.743365">
        <ele>362.869399</ele>
        <time>2021-11-09T22:35:46.789Z</time>
      </trkpt>
      <trkpt lat="47.650941" lon="7.743251">
        <ele>360.549664</ele>
        <time>2021-11-09T22:35:54.695Z</time>
      </trkpt>
      <trkpt lat="47.650238" lon="7.743181">
        <ele>358.301675</ele>
        <time>2021-11-09T22:36:01.529Z</time>
      </trkpt>
      <trkpt lat="47.649349" lon="7.742957">
        <ele>352.146844</ele>
        <time>2021-11-09T22:36:09.656Z</time>
      </trkpt>
      <trkpt lat="47.648726" lon="7.742773">
        <ele>347.574689</ele>
        <time>2021-11-09T22:36:15.256Z</time>
      </trkpt>
      <trkpt lat="47.648686" lon="7.742761">
        <ele>347.280954</ele>
        <time>2021-11-09T22:36:15.614Z</time>
      </trkpt>
      <trkpt lat="47.648430" lon="7.742708">
        <ele>345.420470</ele>
        <time>2021-11-09T22:36:17.884Z</time>
      </trkpt>
      <trkpt lat="47.647923" lon="7.742761">
        <ele>342.527102</ele>
        <time>2021-11-09T22:36:22.396Z</time>
      </trkpt>
      <trkpt lat="47.647668" lon="7.742782">
        <ele>341.111628</ele>
        <time>2021-11-09T22:36:24.689Z</time>
      </trkpt>
      <trkpt lat="47.647263" lon="7.742628">
        <ele>338.794496</ele>
        <time>2021-11-09T22:36:28.555Z</time>
      </trkpt>
      <trkpt lat="47.647031" lon="7.742584">
        <ele>337.498217</ele>
        <time>2021-11-09T22:36:30.844Z</time>
      </trkpt>
      <trkpt lat="47.646932" lon="7.742608">
        <ele>336.942255</ele>
        <time>2021-11-09T22:36:31.788Z</time>
      </trkpt>
      <trkpt lat="47.646840" lon="7.742630">
        <ele>336.425784</ele>
        <time>2021-11-09T22:36:32.756Z</time>
      </trkpt>
      <trkpt lat="47.646642" lon="7.742762">
        <ele>335.222796</ele>
        <time>2021-11-09T22:36:34.980Z</time>
      </trkpt>
      <trkpt lat="47.646406" lon="7.742933">
        <ele>334.687931</ele>
        <time>2021-11-09T22:36:37.763Z</time>
      </trkpt>
      <trkpt lat="47.646017" lon="7.743245">
        <ele>333.905907</ele>
        <time>2021-11-09T22:36:42.589Z</time>
      </trkpt>
      <trkpt lat="47.645911" lon="7.743330">
        <ele>333.692820</ele>
        <time>2021-11-09T22:36:43.907Z</time>
      </trkpt>
      <trkpt lat="47.645734" lon="7.743440">
        <ele>333.353436</ele>
        <time>2021-11-09T22:36:46.247Z</time>
      </trkpt>
      <trkpt lat="47.645188" lon="7.743513">
        <ele>332.383841</ele>
        <time>2021-11-09T22:36:52.760Z</time>
      </trkpt>
      <trkpt lat="47.645131" lon="7.743484">
        <ele>332.277270</ele>
        <time>2021-11-09T22:36:53.492Z</time>
      </trkpt>
      <trkpt lat="47.645054" lon="7.743433">
        <ele>332.128140</ele>
        <time>2021-11-09T22:36:54.514Z</time>
      </trkpt>
      <trkpt lat="47.644925" lon="7.743203">
        <ele>331.861415</ele>
        <time>2021-11-09T22:36:56.979Z</time>
      </trkpt>
      <trkpt lat="47.644734" lon="7.742487">
        <ele>331.438526</ele>
        <time>2021-11-09T22:37:03.383Z</time>
      </trkpt>
      <trkpt lat="47.644669" lon="7.742280">
        <ele>331.313112</ele>
        <time>2021-11-09T22:37:05.288Z</time>
      </trkpt>
      <trkpt lat="47.644599" lon="7.742155">
        <ele>331.223851</ele>
        <time>2021-11-09T22:37:06.641Z</time>
      </trkpt>
      <trkpt lat="47.644397" lon="7.741849">
        <ele>330.988592</ele>
        <time>2021-11-09T22:37:10.272Z</time>
      </trkpt>
      <trkpt lat="47.644276" lon="7.741683">
        <ele>330.854290</ele>
        <time>2021-11-09T22:37:12.367Z</time>
      </trkpt>
      <trkpt lat="47.644182" lon="7.741417">
        <ele>330.689340</ele>
        <time>2021-11-09T22:37:14.925Z</time>
      </trkpt>
      <trkpt lat="47.644157" lon="7.741340">
        <ele>330.642402</ele>
        <time>2021-11-09T22:37:15.668Z</time>
      </trkpt>
      <trkpt lat="47.644056" lon="7.741009">
        <ele>330.455638</ele>
        <time>2021-11-09T22:37:18.901Z</time>
      </trkpt>
      <trkpt lat="47.644034" lon="7.740945">
        <ele>330.433377</ele>
        <time>2021-11-09T22:37:19.534Z</time>
      </trkpt>
      <trkpt lat="47.643938" lon="7.740664">
        <ele>330.335763</ele>
        <time>2021-11-09T22:37:22.380Z</time>
      </trkpt>
      <trkpt lat="47.643881" lon="7.740570">
        <ele>330.296580</ele>
        <time>2021-11-09T22:37:23.505Z</time>
      </trkpt>
      <trkpt lat="47.643783" lon="7.740468">
        <ele>330.241538</ele>
        <time>2021-11-09T22:37:25.065Z</time>
      </trkpt>
      <trkpt lat="47.643656" lon="7.740319">
        <ele>330.167093</ele>
        <time>2021-11-09T22:37:27.255Z</time>
      </trkpt>
      <trkpt lat="47.643591" lon="7.740215">
        <ele>330.123142</ele>
        <time>2021-11-09T22:37:28.536Z</time>
      </trkpt>
      <trkpt lat="47.643475" lon="7.739785">
        <ele>329.979633</ele>
        <time>2021-11-09T22:37:32.650Z</time>
      </trkpt>
      <trkpt lat="47.643301" lon="7.739935">
        <ele>329.887100</ele>
        <time>2021-11-09T22:37:35.330Z</time>
      </trkpt>
      <trkpt lat="47.643168" lon="7.740007">
        <ele>329.821997</ele>
        <time>2021-11-09T22:37:37.263Z</time>
      </trkpt>
      <trkpt lat="47.643121" lon="7.740032">
        <ele>329.799037</ele>
        <time>2021-11-09T22:37:37.953Z</time>
      </trkpt>
      <trkpt lat="47.642972" lon="7.740117">
        <ele>329.725631</ele>
        <time>2021-11-09T22:37:40.124Z</time>
      </trkpt>
      <trkpt lat="47.642922" lon="7.740181">
        <ele>329.695269</ele>
        <time>2021-11-09T22:37:41.041Z</time>
      </trkpt>
      <trkpt lat="47.642911" lon="7.740194">
        <ele>329.688803</ele>
        <time>2021-11-09T22:37:41.222Z</time>
      </trkpt>
      <trkpt lat="47.642862" lon="7.740256">
        <ele>329.659193</ele>
        <time>2021-11-09T22:37:42.089Z</time>
      </trkpt>
      <trkpt lat="47.642822" lon="7.740329">
        <ele>329.641768</ele>
        <time>2021-11-09T22:37:42.902Z</time>
      </trkpt>
      <trkpt lat="47.642798" lon="7.740374">
        <ele>329.637876</ele>
        <time>2021-11-09T22:37:43.459Z</time>
      </trkpt>
      <trkpt lat="47.642647" lon="7.740709">
        <ele>329.610545</ele>
        <time>2021-11-09T22:37:47.220Z</time>
      </trkpt>
      <trkpt lat="47.642519" lon="7.740966">
        <ele>329.588872</ele>
        <time>2021-11-09T22:37:50.326Z</time>
      </trkpt>
      <trkpt lat="47.642394" lon="7.741202">
        <ele>329.568516</ele>
        <time>2021-11-09T22:37:53.156Z</time>
      </trkpt>
      <trkpt lat="47.642274" lon="7.741453">
        <ele>329.547645</ele>
        <time>2021-11-09T22:37:56.238Z</time>
      </trkpt>
      <trkpt lat="47.642209" lon="7.741595">
        <ele>329.536004</ele>
        <time>2021-11-09T22:37:57.836Z</time>
      </trkpt>
      <trkpt lat="47.642066" lon="7.741908">
        <ele>329.510359</ele>
        <time>2021-11-09T22:38:01.616Z</time>
      </trkpt>
      <trkpt lat="47.641997" lon="7.741966">
        <ele>329.502378</ele>
        <time>2021-11-09T22:38:02.778Z</time>
      </trkpt>
      <trkpt lat="47.641954" lon="7.741976">
        <ele>329.497997</ele>
        <time>2021-11-09T22:38:03.351Z</time>
      </trkpt>
      <trkpt lat="47.641958" lon="7.742061">
        <ele>329.492219</ele>
        <time>2021-11-09T22:38:04.226Z</time>
      </trkpt>
      <trkpt lat="47.641960" lon="7.742153">
        <ele>329.485977</ele>
        <time>2021-11-09T22:38:05.201Z</time>
      </trkpt>
      <trkpt lat="47.641952" lon="7.742244">
        <ele>329.479754</ele>
        <time>2021-11-09T22:38:06.184Z</time>
      </trkpt>
      <trkpt lat="47.641935" lon="7.742324">
        <ele>329.474065</ele>
        <time>2021-11-09T22:38:07.060Z</time>
      </trkpt>
      <trkpt lat="47.641903" lon="7.742471">
        <ele>329.465605</ele>
        <time>2021-11-09T22:38:08.581Z</time>
      </trkpt>
      <trkpt lat="47.641887" lon="7.742564">
        <ele>329.489187</ele>
        <time>2021-11-09T22:38:09.483Z</time>
      </trkpt>
      <trkpt lat="47.641875" lon="7.742622">
        <ele>329.504094</ele>
        <time>2021-11-09T22:38:10.159Z</time>
      </trkpt>
      <trkpt lat="47.641858" lon="7.742708">
        <ele>329.526114</ele>
        <time>2021-11-09T22:38:11.185Z</time>
      </trkpt>
      <trkpt lat="47.641802" lon="7.742982">
        <ele>329.596462</ele>
        <time>2021-11-09T22:38:14.243Z</time>
      </trkpt>
      <trkpt lat="47.641773" lon="7.743087">
        <ele>329.624343</ele>
        <time>2021-11-09T22:38:15.376Z</time>
      </trkpt>
      <trkpt lat="47.641651" lon="7.743319">
        <ele>329.696648</ele>
        <time>2021-11-09T22:38:18.726Z</time>
      </trkpt>
      <trkpt lat="47.641543" lon="7.743498">
        <ele>329.755683</ele>
        <time>2021-11-09T22:38:21.158Z</time>
      </trkpt>
      <trkpt lat="47.641440" lon="7.743669">
        <ele>329.812037</ele>
        <time>2021-11-09T22:38:23.782Z</time>
      </trkpt>
      <trkpt lat="47.641133" lon="7.744182">
        <ele>329.980615</ele>
        <time>2021-11-09T22:38:31.643Z</time>
      </trkpt>
      <trkpt lat="47.641118" lon="7.744203">
        <ele>329.988134</ele>
        <time>2021-11-09T22:38:32.032Z</time>
      </trkpt>
      <trkpt lat="47.641021" lon="7.744322">
        <ele>330.034025</ele>
        <time>2021-11-09T22:38:34.188Z</time>
      </trkpt>
      <trkpt lat="47.641089" lon="7.744504">
        <ele>330.085156</ele>
        <time>2021-11-09T22:38:36.698Z</time>
      </trkpt>
      <trkpt lat="47.641098" lon="7.744530">
        <ele>330.092338</ele>
        <time>2021-11-09T22:38:36.978Z</time>
      </trkpt>
      <trkpt lat="47.641149" lon="7.744754">
        <ele>330.178800</ele>
        <time>2021-11-09T22:38:39.623Z</time>
      </trkpt>
      <trkpt lat="47.641056" lon="7.744855">
        <ele>330.259877</ele>
        <time>2021-11-09T22:38:41.605Z</time>
      </trkpt>
      <trkpt lat="47.640998" lon="7.744824">
        <ele>330.303248</ele>
        <time>2021-11-09T22:38:42.582Z</time>
      </trkpt>
      <trkpt lat="47.640958" lon="7.744746">
        <ele>330.349715</ele>
        <time>2021-11-09T22:38:43.590Z</time>
      </trkpt>
      <trkpt lat="47.640859" lon="7.744671">
        <ele>330.427916</ele>
        <time>2021-11-09T22:38:45.388Z</time>
      </trkpt>
      <trkpt lat="47.640802" lon="7.744697">
        <ele>330.469870</ele>
        <time>2021-11-09T22:38:46.346Z</time>
      </trkpt>
      <trkpt lat="47.640698" lon="7.744798">
        <ele>330.557312</ele>
        <time>2021-11-09T22:38:48.409Z</time>
      </trkpt>
      <trkpt lat="47.640175" lon="7.745392">
        <ele>331.020650</ele>
        <time>2021-11-09T22:38:58.712Z</time>
      </trkpt>
      <trkpt lat="47.639661" lon="7.744599">
        <ele>332.903552</ele>
        <time>2021-11-09T22:39:12.564Z</time>
      </trkpt>
      <trkpt lat="47.639286" lon="7.744230">
        <ele>335.966171</ele>
        <time>2021-11-09T22:39:24.117Z</time>
      </trkpt>
      <trkpt lat="47.639124" lon="7.743936">
        <ele>337.708048</ele>
        <time>2021-11-09T22:39:34.307Z</time>
      </trkpt>
      <trkpt lat="47.639034" lon="7.743640">
        <ele>339.197447</ele>
        <time>2021-11-09T22:39:45.191Z</time>
      </trkpt>
      <trkpt lat="47.638834" lon="7.743716">
        <ele>340.602723</ele>
        <time>2021-11-09T22:39:57.339Z</time>
      </trkpt>
      <trkpt lat="47.638755" lon="7.743743">
        <ele>341.154534</ele>
        <time>2021-11-09T22:40:02.352Z</time>
      </trkpt>
      <trkpt lat="47.638586" lon="7.743801">
        <ele>342.335240</ele>
        <time>2021-11-09T22:40:13.483Z</time>
      </trkpt>
      <trkpt lat="47.638504" lon="7.743804">
        <ele>342.893567</ele>
        <time>2021-11-09T22:40:17.893Z</time>
      </trkpt>
      <trkpt lat="47.638337" lon="7.743810">
        <ele>344.344269</ele>
        <time>2021-11-09T22:40:28.087Z</time>
      </trkpt>
      <trkpt lat="47.638011" lon="7.743662">
        <ele>348.473936</ele>
        <time>2021-11-09T22:40:49.472Z</time>
      </trkpt>
      <trkpt lat="47.637785" lon="7.743491">
        <ele>351.546879</ele>
        <time>2021-11-09T22:41:06.276Z</time>
      </trkpt>
      <trkpt lat="47.637644" lon="7.743238">
        <ele>354.226774</ele>
        <time>2021-11-09T22:41:22.137Z</time>
      </trkpt>
      <trkpt lat="47.637552" lon="7.742900">
        <ele>357.202239</ele>
        <time>2021-11-09T22:41:38.116Z</time>
      </trkpt>
      <trkpt lat="47.637523" lon="7.742385">
        <ele>361.420508</ele>
        <time>2021-11-09T22:42:00.744Z</time>
      </trkpt>
      <trkpt lat="47.637556" lon="7.741902">
        <ele>365.383144</ele>
        <time>2021-11-09T22:42:21.420Z</time>
      </trkpt>
      <trkpt lat="47.637528" lon="7.741566">
        <ele>366.964526</ele>
        <time>2021-11-09T22:42:35.670Z</time>
      </trkpt>
      <trkpt lat="47.637507" lon="7.741319">
        <ele>368.116806</ele>
        <time>2021-11-09T22:42:45.383Z</time>
      </trkpt>
      <trkpt lat="47.637359" lon="7.740737">
        <ele>370.995989</ele>
        <time>2021-11-09T22:43:02.735Z</time>
      </trkpt>
      <trkpt lat="47.637115" lon="7.740401">
        <ele>373.282368</ele>
        <time>2021-11-09T22:43:13.488Z</time>
      </trkpt>
      <trkpt lat="47.636771" lon="7.740116">
        <ele>375.988543</ele>
        <time>2021-11-09T22:43:26.610Z</time>
      </trkpt>
      <trkpt lat="47.636317" lon="7.740109">
        <ele>378.718623</ele>
        <time>2021-11-09T22:43:42.115Z</time>
      </trkpt>
      <trkpt lat="47.636139" lon="7.739987">
        <ele>379.673705</ele>
        <time>2021-11-09T22:43:48.589Z</time>
      </trkpt>
      <trkpt lat="47.635963" lon="7.739717">
        <ele>380.906774</ele>
        <time>2021-11-09T22:43:57.191Z</time>
      </trkpt>
      <trkpt lat="47.635790" lon="7.739028">
        <ele>383.320265</ele>
        <time>2021-11-09T22:44:14.516Z</time>
      </trkpt>
      <trkpt lat="47.635441" lon="7.738683">
        <ele>385.362959</ele>
        <time>2021-11-09T22:44:29.620Z</time>
      </trkpt>
      <trkpt lat="47.634316" lon="7.737920">
        <ele>390.517904</ele>
        <time>2021-11-09T22:45:10.782Z</time>
      </trkpt>
      <trkpt lat="47.632595" lon="7.737266">
        <ele>396.504495</ele>
        <time>2021-11-09T22:45:59.424Z</time>
      </trkpt>
      <trkpt lat="47.632395" lon="7.737249">
        <ele>397.076028</ele>
        <time>2021-11-09T22:46:04.467Z</time>
      </trkpt>
      <trkpt lat="47.632230" lon="7.737357">
        <ele>397.590530</ele>
        <time>2021-11-09T22:46:09.107Z</time>
      </trkpt>
      <trkpt lat="47.631655" lon="7.738144">
        <ele>399.809118</ele>
        <time>2021-11-09T22:46:28.171Z</time>
      </trkpt>
      <trkpt lat="47.631444" lon="7.738356">
        <ele>400.526237</ele>
        <time>2021-11-09T22:46:34.953Z</time>
      </trkpt>
      <trkpt lat="47.631083" lon="7.738808">
        <ele>401.855516</ele>
        <time>2021-11-09T22:46:46.845Z</time>
      </trkpt>
      <trkpt lat="47.630948" lon="7.739058">
        <ele>402.463089</ele>
        <time>2021-11-09T22:46:52.895Z</time>
      </trkpt>
      <trkpt lat="47.630891" lon="7.739335">
        <ele>403.012374</ele>
        <time>2021-11-09T22:46:57.618Z</time>
      </trkpt>
      <trkpt lat="47.630920" lon="7.739520">
        <ele>403.372600</ele>
        <time>2021-11-09T22:47:01.657Z</time>
      </trkpt>
      <trkpt lat="47.630944" lon="7.739673">
        <ele>403.670527</ele>
        <time>2021-11-09T22:47:04.522Z</time>
      </trkpt>
      <trkpt lat="47.630907" lon="7.739873">
        <ele>404.117146</ele>
        <time>2021-11-09T22:47:07.950Z</time>
      </trkpt>
      <trkpt lat="47.630897" lon="7.740046">
        <ele>404.565984</ele>
        <time>2021-11-09T22:47:11.791Z</time>
      </trkpt>
      <trkpt lat="47.630863" lon="7.740423">
        <ele>405.549196</ele>
        <time>2021-11-09T22:47:18.385Z</time>
      </trkpt>
      <trkpt lat="47.630897" lon="7.740602">
        <ele>406.029929</ele>
        <time>2021-11-09T22:47:22.239Z</time>
      </trkpt>
      <trkpt lat="47.631075" lon="7.740915">
        <ele>407.088604</ele>
        <time>2021-11-09T22:47:29.915Z</time>
      </trkpt>
      <trkpt lat="47.631280" lon="7.741275">
        <ele>408.306919</ele>
        <time>2021-11-09T22:47:39.199Z</time>
      </trkpt>
      <trkpt lat="47.631424" lon="7.741490">
        <ele>409.090474</ele>
        <time>2021-11-09T22:47:46.009Z</time>
      </trkpt>
      <trkpt lat="47.631477" lon="7.741795">
        <ele>409.904663</ele>
        <time>2021-11-09T22:47:52.937Z</time>
      </trkpt>
      <trkpt lat="47.631282" lon="7.742608">
        <ele>412.537943</ele>
        <time>2021-11-09T22:48:12.470Z</time>
      </trkpt>
      <trkpt lat="47.631260" lon="7.742819">
        <ele>413.258302</ele>
        <time>2021-11-09T22:48:17.447Z</time>
      </trkpt>
      <trkpt lat="47.631202" lon="7.744011">
        <ele>417.290440</ele>
        <time>2021-11-09T22:48:45.724Z</time>
      </trkpt>
      <trkpt lat="47.631185" lon="7.744218">
        <ele>417.994001</ele>
        <time>2021-11-09T22:48:50.512Z</time>
      </trkpt>
      <trkpt lat="47.631075" lon="7.745596">
        <ele>422.462831</ele>
        <time>2021-11-09T22:49:24.563Z</time>
      </trkpt>
      <trkpt lat="47.631034" lon="7.745824">
        <ele>423.199617</ele>
        <time>2021-11-09T22:49:29.648Z</time>
      </trkpt>
      <trkpt lat="47.630948" lon="7.746031">
        <ele>423.958878</ele>
        <time>2021-11-09T22:49:35.503Z</time>
      </trkpt>
      <trkpt lat="47.630697" lon="7.746375">
        <ele>425.541907</ele>
        <time>2021-11-09T22:49:46.781Z</time>
      </trkpt>
      <trkpt lat="47.629711" lon="7.747557">
        <ele>430.921441</ele>
        <time>2021-11-09T22:50:25.400Z</time>
      </trkpt>
      <trkpt lat="47.629452" lon="7.747871">
        <ele>432.236577</ele>
        <time>2021-11-09T22:50:35.637Z</time>
      </trkpt>
      <trkpt lat="47.629212" lon="7.748211">
        <ele>433.541339</ele>
        <time>2021-11-09T22:50:45.702Z</time>
      </trkpt>
      <trkpt lat="47.628729" lon="7.749001">
        <ele>436.290740</ele>
        <time>2021-11-09T22:51:07.782Z</time>
      </trkpt>
      <trkpt lat="47.628604" lon="7.749202">
        <ele>436.966459</ele>
        <time>2021-11-09T22:51:13.060Z</time>
      </trkpt>
      <trkpt lat="47.628584" lon="7.749233">
        <ele>437.072486</ele>
        <time>2021-11-09T22:51:14.735Z</time>
      </trkpt>
      <trkpt lat="47.627609" lon="7.750299">
        <ele>441.512330</ele>
        <time>2021-11-09T22:51:51.054Z</time>
      </trkpt>
      <trkpt lat="47.625761" lon="7.752304">
        <ele>446.374125</ele>
        <time>2021-11-09T22:52:46.308Z</time>
      </trkpt>
      <trkpt lat="47.624838" lon="7.753339">
        <ele>447.097183</ele>
        <time>2021-11-09T22:53:04.398Z</time>
      </trkpt>
      <trkpt lat="47.624277" lon="7.754101">
        <ele>447.035189</ele>
        <time>2021-11-09T22:53:14.275Z</time>
      </trkpt>
      <trkpt lat="47.622712" lon="7.756863">
        <ele>445.707054</ele>
        <time>2021-11-09T22:53:47.310Z</time>
      </trkpt>
      <trkpt lat="47.622511" lon="7.757074">
        <ele>445.532443</ele>
        <time>2021-11-09T22:53:50.391Z</time>
      </trkpt>
      <trkpt lat="47.622401" lon="7.757191">
        <ele>445.436462</ele>
        <time>2021-11-09T22:53:51.922Z</time>
      </trkpt>
      <trkpt lat="47.621775" lon="7.757496">
        <ele>445.017148</ele>
        <time>2021-11-09T22:53:59.518Z</time>
      </trkpt>
      <trkpt lat="47.621392" lon="7.757689">
        <ele>444.778706</ele>
        <time>2021-11-09T22:54:04.211Z</time>
      </trkpt>
      <trkpt lat="47.621012" lon="7.757974">
        <ele>444.527705</ele>
        <time>2021-11-09T22:54:10.251Z</time>
      </trkpt>
      <trkpt lat="47.620828" lon="7.758215">
        <ele>444.383018</ele>
        <time>2021-11-09T22:54:13.470Z</time>
      </trkpt>
      <trkpt lat="47.620566" lon="7.758657">
        <ele>444.359385</ele>
        <time>2021-11-09T22:54:19.789Z</time>
      </trkpt>
      <trkpt lat="47.620058" lon="7.759513">
        <ele>446.077323</ele>
        <time>2021-11-09T22:54:34.321Z</time>
      </trkpt>
      <trkpt lat="47.620043" lon="7.759548">
        <ele>446.139798</ele>
        <time>2021-11-09T22:54:36.024Z</time>
      </trkpt>
      <trkpt lat="47.619245" lon="7.761370">
        <ele>449.078106</ele>
        <time>2021-11-09T22:55:17.788Z</time>
      </trkpt>
      <trkpt lat="47.618940" lon="7.761783">
        <ele>449.743601</ele>
        <time>2021-11-09T22:55:27.057Z</time>
      </trkpt>
      <trkpt lat="47.618742" lon="7.761992">
        <ele>450.135222</ele>
        <time>2021-11-09T22:55:31.739Z</time>
      </trkpt>
      <trkpt lat="47.618586" lon="7.762088">
        <ele>450.407400</ele>
        <time>2021-11-09T22:55:34.830Z</time>
      </trkpt>
      <trkpt lat="47.618125" lon="7.762615">
        <ele>450.849820</ele>
        <time>2021-11-09T22:55:43.520Z</time>
      </trkpt>
      <trkpt lat="47.617894" lon="7.763136">
        <ele>450.093669</ele>
        <time>2021-11-09T22:55:48.758Z</time>
      </trkpt>
      <trkpt lat="47.617858" lon="7.763622">
        <ele>449.500820</ele>
        <time>2021-11-09T22:55:52.513Z</time>
      </trkpt>
      <trkpt lat="47.617849" lon="7.763863">
        <ele>449.208145</ele>
        <time>2021-11-09T22:55:54.263Z</time>
      </trkpt>
      <trkpt lat="47.617934" lon="7.764271">
        <ele>448.690333</ele>
        <time>2021-11-09T22:55:57.199Z</time>
      </trkpt>
      <trkpt lat="47.618136" lon="7.764529">
        <ele>448.210850</ele>
        <time>2021-11-09T22:55:59.882Z</time>
      </trkpt>
      <trkpt lat="47.617927" lon="7.765048">
        <ele>447.451852</ele>
        <time>2021-11-09T22:56:04.085Z</time>
      </trkpt>
      <trkpt lat="47.617756" lon="7.765839">
        <ele>446.378950</ele>
        <time>2021-11-09T22:56:10.057Z</time>
      </trkpt>
      <trkpt lat="47.617587" lon="7.766558">
        <ele>445.395455</ele>
        <time>2021-11-09T22:56:15.847Z</time>
      </trkpt>
      <trkpt lat="47.617431" lon="7.767002">
        <ele>444.748760</ele>
        <time>2021-11-09T22:56:19.979Z</time>
      </trkpt>
      <trkpt lat="47.617229" lon="7.767356">
        <ele>444.209345</ele>
        <time>2021-11-09T22:56:23.839Z</time>
      </trkpt>
      <trkpt lat="47.616591" lon="7.768154">
        <ele>442.951419</ele>
        <time>2021-11-09T22:56:33.838Z</time>
      </trkpt>
      <trkpt lat="47.616428" lon="7.768317">
        <ele>442.655104</ele>
        <time>2021-11-09T22:56:36.264Z</time>
      </trkpt>
      <trkpt lat="47.616270" lon="7.768392">
        <ele>442.405041</ele>
        <time>2021-11-09T22:56:38.084Z</time>
      </trkpt>
      <trkpt lat="47.615847" lon="7.768379">
        <ele>441.767279</ele>
        <time>2021-11-09T22:56:42.777Z</time>
      </trkpt>
      <trkpt lat="47.615686" lon="7.768286">
        <ele>441.283007</ele>
        <time>2021-11-09T22:56:44.650Z</time>
      </trkpt>
      <trkpt lat="47.615034" lon="7.767629">
        <ele>438.835777</ele>
        <time>2021-11-09T22:56:52.732Z</time>
      </trkpt>
      <trkpt lat="47.614847" lon="7.767530">
        <ele>438.219304</ele>
        <time>2021-11-09T22:56:54.707Z</time>
      </trkpt>
      <trkpt lat="47.614663" lon="7.767520">
        <ele>437.647628</ele>
        <time>2021-11-09T22:56:56.567Z</time>
      </trkpt>
      <trkpt lat="47.614123" lon="7.767665">
        <ele>435.937214</ele>
        <time>2021-11-09T22:57:01.929Z</time>
      </trkpt>
      <trkpt lat="47.613763" lon="7.767578">
        <ele>434.765652</ele>
        <time>2021-11-09T22:57:05.562Z</time>
      </trkpt>
      <trkpt lat="47.613205" lon="7.767665">
        <ele>432.963487</ele>
        <time>2021-11-09T22:57:11.313Z</time>
      </trkpt>
      <trkpt lat="47.613003" lon="7.767758">
        <ele>432.284132</ele>
        <time>2021-11-09T22:57:13.433Z</time>
      </trkpt>
      <trkpt lat="47.612771" lon="7.767909">
        <ele>431.470374</ele>
        <time>2021-11-09T22:57:16.032Z</time>
      </trkpt>
      <trkpt lat="47.612502" lon="7.768119">
        <ele>430.493997</ele>
        <time>2021-11-09T22:57:19.161Z</time>
      </trkpt>
      <trkpt lat="47.611960" lon="7.768717">
        <ele>428.495219</ele>
        <time>2021-11-09T22:57:26.193Z</time>
      </trkpt>
      <trkpt lat="47.611843" lon="7.768871">
        <ele>428.035050</ele>
        <time>2021-11-09T22:57:27.797Z</time>
      </trkpt>
      <trkpt lat="47.611735" lon="7.769126">
        <ele>427.437797</ele>
        <time>2021-11-09T22:57:29.859Z</time>
      </trkpt>
      <trkpt lat="47.611495" lon="7.770538">
        <ele>424.581234</ele>
        <time>2021-11-09T22:57:39.967Z</time>
      </trkpt>
      <trkpt lat="47.611349" lon="7.770818">
        <ele>423.922054</ele>
        <time>2021-11-09T22:57:42.307Z</time>
      </trkpt>
      <trkpt lat="47.610490" lon="7.771899">
        <ele>420.810375</ele>
        <time>2021-11-09T22:57:54.034Z</time>
      </trkpt>
      <trkpt lat="47.610258" lon="7.772352">
        <ele>419.752161</ele>
        <time>2021-11-09T22:57:58.168Z</time>
      </trkpt>
      <trkpt lat="47.610187" lon="7.772679">
        <ele>419.114605</ele>
        <time>2021-11-09T22:58:00.772Z</time>
      </trkpt>
      <trkpt lat="47.610132" lon="7.773138">
        <ele>418.249424</ele>
        <time>2021-11-09T22:58:04.111Z</time>
      </trkpt>
      <trkpt lat="47.610139" lon="7.773592">
        <ele>417.406652</ele>
        <time>2021-11-09T22:58:07.315Z</time>
      </trkpt>
      <trkpt lat="47.610312" lon="7.774653">
        <ele>415.380837</ele>
        <time>2021-11-09T22:58:14.945Z</time>
      </trkpt>
      <trkpt lat="47.610473" lon="7.775477">
        <ele>412.494462</ele>
        <time>2021-11-09T22:58:20.650Z</time>
      </trkpt>
      <trkpt lat="47.610502" lon="7.776042">
        <ele>410.439668</ele>
        <time>2021-11-09T22:58:24.246Z</time>
      </trkpt>
      <trkpt lat="47.610448" lon="7.776605">
        <ele>408.377497</ele>
        <time>2021-11-09T22:58:27.773Z</time>
      </trkpt>
      <trkpt lat="47.610341" lon="7.777059">
        <ele>406.633446</ele>
        <time>2021-11-09T22:58:30.720Z</time>
      </trkpt>
      <trkpt lat="47.610133" lon="7.777501">
        <ele>404.315145</ele>
        <time>2021-11-09T22:58:33.980Z</time>
      </trkpt>
      <trkpt lat="47.609368" lon="7.778574">
        <ele>396.051146</ele>
        <time>2021-11-09T22:58:43.293Z</time>
      </trkpt>
      <trkpt lat="47.608894" lon="7.779407">
        <ele>390.362030</ele>
        <time>2021-11-09T22:58:49.750Z</time>
      </trkpt>
      <trkpt lat="47.608573" lon="7.780374">
        <ele>385.079945</ele>
        <time>2021-11-09T22:58:56.154Z</time>
      </trkpt>
      <trkpt lat="47.608399" lon="7.780950">
        <ele>381.986832</ele>
        <time>2021-11-09T22:58:59.935Z</time>
      </trkpt>
      <trkpt lat="47.608295" lon="7.781364">
        <ele>379.821741</ele>
        <time>2021-11-09T22:59:02.648Z</time>
      </trkpt>
      <trkpt lat="47.608309" lon="7.781587">
        <ele>378.724188</ele>
        <time>2021-11-09T22:59:04.051Z</time>
      </trkpt>
      <trkpt lat="47.608437" lon="7.781938">
        <ele>377.522273</ele>
        <time>2021-11-09T22:59:06.554Z</time>
      </trkpt>
      <trkpt lat="47.608448" lon="7.782041">
        <ele>377.266242</ele>
        <time>2021-11-09T22:59:07.223Z</time>
      </trkpt>
      <trkpt lat="47.608319" lon="7.782746">
        <ele>375.472765</ele>
        <time>2021-11-09T22:59:11.964Z</time>
      </trkpt>
      <trkpt lat="47.608293" lon="7.782840">
        <ele>375.223316</ele>
        <time>2021-11-09T22:59:12.621Z</time>
      </trkpt>
      <trkpt lat="47.608067" lon="7.783679">
        <ele>373.005134</ele>
        <time>2021-11-09T22:59:18.800Z</time>
      </trkpt>
      <trkpt lat="47.608000" lon="7.783873">
        <ele>372.469981</ele>
        <time>2021-11-09T22:59:20.358Z</time>
      </trkpt>
      <trkpt lat="47.607811" lon="7.784422">
        <ele>371.452442</ele>
        <time>2021-11-09T22:59:25.100Z</time>
      </trkpt>
      <trkpt lat="47.607784" lon="7.784501">
        <ele>371.374575</ele>
        <time>2021-11-09T22:59:25.779Z</time>
      </trkpt>
      <trkpt lat="47.607357" lon="7.785276">
        <ele>370.494657</ele>
        <time>2021-11-09T22:59:34.609Z</time>
      </trkpt>
      <trkpt lat="47.607244" lon="7.785405">
        <ele>370.308716</ele>
        <time>2021-11-09T22:59:36.261Z</time>
      </trkpt>
      <trkpt lat="47.607090" lon="7.785536">
        <ele>370.077221</ele>
        <time>2021-11-09T22:59:38.493Z</time>
      </trkpt>
      <trkpt lat="47.606894" lon="7.785802">
        <ele>369.730796</ele>
        <time>2021-11-09T22:59:41.598Z</time>
      </trkpt>
      <trkpt lat="47.606482" lon="7.786756">
        <ele>367.929234</ele>
        <time>2021-11-09T22:59:50.289Z</time>
      </trkpt>
      <trkpt lat="47.606236" lon="7.787573">
        <ele>366.166048</ele>
        <time>2021-11-09T22:59:56.524Z</time>
      </trkpt>
      <trkpt lat="47.606058" lon="7.787870">
        <ele>365.382996</ele>
        <time>2021-11-09T22:59:59.242Z</time>
      </trkpt>
      <trkpt lat="47.605245" lon="7.789093">
        <ele>361.503173</ele>
        <time>2021-11-09T23:00:10.393Z</time>
      </trkpt>
      <trkpt lat="47.604933" lon="7.789879">
        <ele>359.287390</ele>
        <time>2021-11-09T23:00:16.496Z</time>
      </trkpt>
      <trkpt lat="47.604861" lon="7.790465">
        <ele>357.840362</ele>
        <time>2021-11-09T23:00:20.621Z</time>
      </trkpt>
      <trkpt lat="47.604776" lon="7.790738">
        <ele>357.357749</ele>
        <time>2021-11-09T23:00:22.750Z</time>
      </trkpt>
      <trkpt lat="47.604673" lon="7.790747">
        <ele>357.157828</ele>
        <time>2021-11-09T23:00:23.846Z</time>
      </trkpt>
      <trkpt lat="47.604312" lon="7.790667">
        <ele>356.450582</ele>
        <time>2021-11-09T23:00:27.819Z</time>
      </trkpt>
      <trkpt lat="47.604020" lon="7.790669">
        <ele>355.884790</ele>
        <time>2021-11-09T23:00:31.066Z</time>
      </trkpt>
      <trkpt lat="47.603500" lon="7.790696">
        <ele>354.876610</ele>
        <time>2021-11-09T23:00:36.911Z</time>
      </trkpt>
      <trkpt lat="47.603379" lon="7.790683">
        <ele>354.641544</ele>
        <time>2021-11-09T23:00:38.259Z</time>
      </trkpt>
      <trkpt lat="47.603218" lon="7.790665">
        <ele>354.328702</ele>
        <time>2021-11-09T23:00:40.106Z</time>
      </trkpt>
      <trkpt lat="47.602292" lon="7.790564">
        <ele>353.298749</ele>
        <time>2021-11-09T23:00:51.383Z</time>
      </trkpt>
      <trkpt lat="47.601954" lon="7.790533">
        <ele>352.951926</ele>
        <time>2021-11-09T23:00:55.596Z</time>
      </trkpt>
      <trkpt lat="47.601768" lon="7.790511">
        <ele>352.760830</ele>
        <time>2021-11-09T23:00:57.974Z</time>
      </trkpt>
      <trkpt lat="47.601359" lon="7.790478">
        <ele>352.341334</ele>
        <time>2021-11-09T23:01:03.086Z</time>
      </trkpt>
      <trkpt lat="47.601073" lon="7.790573">
        <ele>351.923206</ele>
        <time>2021-11-09T23:01:06.722Z</time>
      </trkpt>
      <trkpt lat="47.600304" lon="7.790832">
        <ele>350.772658</ele>
        <time>2021-11-09T23:01:16.111Z</time>
      </trkpt>
      <trkpt lat="47.600211" lon="7.790869">
        <ele>350.632172</ele>
        <time>2021-11-09T23:01:17.233Z</time>
      </trkpt>
      <trkpt lat="47.600151" lon="7.790895">
        <ele>350.540971</ele>
        <time>2021-11-09T23:01:17.950Z</time>
      </trkpt>
      <trkpt lat="47.599667" lon="7.791105">
        <ele>349.805207</ele>
        <time>2021-11-09T23:01:23.655Z</time>
      </trkpt>
      <trkpt lat="47.598592" lon="7.791580">
        <ele>346.933805</ele>
        <time>2021-11-09T23:01:35.405Z</time>
      </trkpt>
      <trkpt lat="47.598252" lon="7.791731">
        <ele>345.996981</ele>
        <time>2021-11-09T23:01:39.024Z</time>
      </trkpt>
      <trkpt lat="47.598017" lon="7.791913">
        <ele>345.297194</ele>
        <time>2021-11-09T23:01:41.731Z</time>
      </trkpt>
      <trkpt lat="47.597848" lon="7.792115">
        <ele>344.759049</ele>
        <time>2021-11-09T23:01:43.995Z</time>
      </trkpt>
      <trkpt lat="47.597646" lon="7.792396">
        <ele>344.142105</ele>
        <time>2021-11-09T23:01:46.891Z</time>
      </trkpt>
      <trkpt lat="47.597155" lon="7.792514">
        <ele>343.034123</ele>
        <time>2021-11-09T23:01:52.231Z</time>
      </trkpt>
      <trkpt lat="47.596504" lon="7.792669">
        <ele>341.565436</ele>
        <time>2021-11-09T23:01:59.423Z</time>
      </trkpt>
      <trkpt lat="47.595750" lon="7.792802">
        <ele>340.014740</ele>
        <time>2021-11-09T23:02:07.952Z</time>
      </trkpt>
      <trkpt lat="47.595245" lon="7.792802">
        <ele>339.038227</ele>
        <time>2021-11-09T23:02:13.457Z</time>
      </trkpt>
      <trkpt lat="47.595133" lon="7.792800">
        <ele>338.821638</ele>
        <time>2021-11-09T23:02:14.717Z</time>
      </trkpt>
      <trkpt lat="47.594298" lon="7.792814">
        <ele>337.319494</ele>
        <time>2021-11-09T23:02:23.940Z</time>
      </trkpt>
      <trkpt lat="47.594154" lon="7.792816">
        <ele>337.163630</ele>
        <time>2021-11-09T23:02:25.514Z</time>
      </trkpt>
      <trkpt lat="47.594082" lon="7.792808">
        <ele>337.085483</ele>
        <time>2021-11-09T23:02:26.341Z</time>
      </trkpt>
      <trkpt lat="47.593971" lon="7.792763">
        <ele>336.960935</ele>
        <time>2021-11-09T23:02:28.153Z</time>
      </trkpt>
      <trkpt lat="47.593728" lon="7.792495">
        <ele>336.633156</ele>
        <time>2021-11-09T23:02:33.020Z</time>
      </trkpt>
      <trkpt lat="47.593198" lon="7.791524">
        <ele>335.721351</ele>
        <time>2021-11-09T23:02:47.389Z</time>
      </trkpt>
      <trkpt lat="47.592913" lon="7.791301">
        <ele>335.590493</ele>
        <time>2021-11-09T23:02:54.523Z</time>
      </trkpt>
      <trkpt lat="47.592574" lon="7.791231">
        <ele>335.783336</ele>
        <time>2021-11-09T23:03:03.440Z</time>
      </trkpt>
      <trkpt lat="47.592544" lon="7.791224">
        <ele>335.800446</ele>
        <time>2021-11-09T23:03:03.995Z</time>
      </trkpt>
      <trkpt lat="47.592294" lon="7.791165">
        <ele>335.943075</ele>
        <time>2021-11-09T23:03:10.299Z</time>
      </trkpt>
      <trkpt lat="47.592223" lon="7.791117">
        <ele>335.987039</ele>
        <time>2021-11-09T23:03:12.117Z</time>
      </trkpt>
      <trkpt lat="47.592139" lon="7.791043">
        <ele>336.042089</ele>
        <time>2021-11-09T23:03:13.479Z</time>
      </trkpt>
      <trkpt lat="47.592020" lon="7.790907">
        <ele>336.126740</ele>
        <time>2021-11-09T23:03:16.726Z</time>
      </trkpt>
      <trkpt lat="47.591651" lon="7.790400">
        <ele>336.410177</ele>
        <time>2021-11-09T23:03:24.816Z</time>
      </trkpt>
      <trkpt lat="47.591450" lon="7.790091">
        <ele>336.511058</ele>
        <time>2021-11-09T23:03:29.668Z</time>
      </trkpt>
      <trkpt lat="47.591284" lon="7.789842">
        <ele>336.455981</ele>
        <time>2021-11-09T23:03:33.071Z</time>
      </trkpt>
      <trkpt lat="47.590789" lon="7.789356">
        <ele>336.317505</ele>
        <time>2021-11-09T23:03:43.702Z</time>
      </trkpt>
      <trkpt lat="47.590651" lon="7.789288">
        <ele>336.283586</ele>
        <time>2021-11-09T23:03:45.470Z</time>
      </trkpt>
      <trkpt lat="47.590583" lon="7.789238">
        <ele>336.265882</ele>
        <time>2021-11-09T23:03:46.847Z</time>
      </trkpt>
      <trkpt lat="47.590433" lon="7.789180">
        <ele>336.229725</ele>
        <time>2021-11-09T23:03:48.863Z</time>
      </trkpt>
      <trkpt lat="47.590193" lon="7.788979">
        <ele>336.165432</ele>
        <time>2021-11-09T23:03:52.417Z</time>
      </trkpt>
      <trkpt lat="47.590084" lon="7.788866">
        <ele>336.134410</ele>
        <time>2021-11-09T23:03:53.939Z</time>
      </trkpt>
      <trkpt lat="47.589969" lon="7.788952">
        <ele>336.070091</ele>
        <time>2021-11-09T23:03:55.352Z</time>
      </trkpt>
      <trkpt lat="47.589648" lon="7.789139">
        <ele>335.477357</ele>
        <time>2021-11-09T23:03:59.218Z</time>
      </trkpt>
      <trkpt lat="47.588924" lon="7.789149">
        <ele>334.233015</ele>
        <time>2021-11-09T23:04:07.466Z</time>
      </trkpt>
      <trkpt lat="47.588623" lon="7.789048">
        <ele>333.702625</ele>
        <time>2021-11-09T23:04:11.053Z</time>
      </trkpt>
      <trkpt lat="47.588438" lon="7.788977">
        <ele>333.374200</ele>
        <time>2021-11-09T23:04:13.024Z</time>
      </trkpt>
      <trkpt lat="47.588098" lon="7.788810">
        <ele>332.756832</ele>
        <time>2021-11-09T23:04:16.946Z</time>
      </trkpt>
      <trkpt lat="47.587856" lon="7.788691">
        <ele>332.315603</ele>
        <time>2021-11-09T23:04:19.840Z</time>
      </trkpt>
      <trkpt lat="47.587697" lon="7.788612">
        <ele>332.025405</ele>
        <time>2021-11-09T23:04:21.584Z</time>
      </trkpt>
      <trkpt lat="47.587461" lon="7.788566">
        <ele>331.613478</ele>
        <time>2021-11-09T23:04:24.175Z</time>
      </trkpt>
      <trkpt lat="47.586929" lon="7.788594">
        <ele>330.692238</ele>
        <time>2021-11-09T23:04:29.864Z</time>
      </trkpt>
      <trkpt lat="47.586523" lon="7.788744">
        <ele>329.968143</ele>
        <time>2021-11-09T23:04:34.951Z</time>
      </trkpt>
      <trkpt lat="47.585521" lon="7.789426">
        <ele>329.745363</ele>
        <time>2021-11-09T23:04:51.268Z</time>
      </trkpt>
      <trkpt lat="47.584464" lon="7.789827">
        <ele>328.881833</ele>
        <time>2021-11-09T23:05:08.109Z</time>
      </trkpt>
      <trkpt lat="47.584293" lon="7.789957">
        <ele>328.478541</ele>
        <time>2021-11-09T23:05:10.758Z</time>
      </trkpt>
      <trkpt lat="47.584135" lon="7.790107">
        <ele>328.084805</ele>
        <time>2021-11-09T23:05:12.858Z</time>
      </trkpt>
      <trkpt lat="47.583511" lon="7.790796">
        <ele>326.451991</ele>
        <time>2021-11-09T23:05:21.002Z</time>
      </trkpt>
      <trkpt lat="47.583202" lon="7.791051">
        <ele>325.588046</ele>
        <time>2021-11-09T23:05:24.408Z</time>
      </trkpt>
      <trkpt lat="47.582779" lon="7.791262">
        <ele>323.894635</ele>
        <time>2021-11-09T23:05:28.631Z</time>
      </trkpt>
      <trkpt lat="47.582261" lon="7.791284">
        <ele>321.928371</ele>
        <time>2021-11-09T23:05:33.616Z</time>
      </trkpt>
      <trkpt lat="47.582013" lon="7.791256">
        <ele>320.984654</ele>
        <time>2021-11-09T23:05:35.996Z</time>
      </trkpt>
      <trkpt lat="47.581708" lon="7.791259">
        <ele>319.827361</ele>
        <time>2021-11-09T23:05:39.108Z</time>
      </trkpt>
      <trkpt lat="47.581189" lon="7.791372">
        <ele>318.349029</ele>
        <time>2021-11-09T23:05:44.764Z</time>
      </trkpt>
      <trkpt lat="47.581182" lon="7.791377">
        <ele>318.332138</ele>
        <time>2021-11-09T23:05:44.895Z</time>
      </trkpt>
      <trkpt lat="47.580912" lon="7.791576">
        <ele>317.676669</ele>
        <time>2021-11-09T23:05:48.278Z</time>
      </trkpt>
      <trkpt lat="47.580737" lon="7.791705">
        <ele>317.251815</ele>
        <time>2021-11-09T23:05:50.514Z</time>
      </trkpt>
      <trkpt lat="47.580645" lon="7.791792">
        <ele>317.014599</ele>
        <time>2021-11-09T23:05:51.679Z</time>
      </trkpt>
      <trkpt lat="47.579608" lon="7.792763">
        <ele>313.477923</ele>
        <time>2021-11-09T23:06:05.187Z</time>
      </trkpt>
      <trkpt lat="47.579133" lon="7.793208">
        <ele>310.889284</ele>
        <time>2021-11-09T23:06:10.647Z</time>
      </trkpt>
      <trkpt lat="47.578861" lon="7.793502">
        <ele>309.338479</ele>
        <time>2021-11-09T23:06:13.794Z</time>
      </trkpt>
      <trkpt lat="47.578748" lon="7.793671">
        <ele>308.598991</ele>
        <time>2021-11-09T23:06:15.236Z</time>
      </trkpt>
      <trkpt lat="47.578632" lon="7.793843">
        <ele>307.843143</ele>
        <time>2021-11-09T23:06:16.775Z</time>
      </trkpt>
      <trkpt lat="47.578556" lon="7.793956">
        <ele>307.347249</ele>
        <time>2021-11-09T23:06:17.736Z</time>
      </trkpt>
      <trkpt lat="47.578357" lon="7.794270">
        <ele>305.815921</ele>
        <time>2021-11-09T23:06:20.372Z</time>
      </trkpt>
      <trkpt lat="47.578242" lon="7.794472">
        <ele>304.804389</ele>
        <time>2021-11-09T23:06:21.944Z</time>
      </trkpt>
      <trkpt lat="47.578016" lon="7.794883">
        <ele>302.775189</ele>
        <time>2021-11-09T23:06:25.186Z</time>
      </trkpt>
      <trkpt lat="47.577814" lon="7.795279">
        <ele>300.875240</ele>
        <time>2021-11-09T23:06:28.230Z</time>
      </trkpt>
      <trkpt lat="47.577627" lon="7.795646">
        <ele>299.115132</ele>
        <time>2021-11-09T23:06:31.144Z</time>
      </trkpt>
      <trkpt lat="47.577551" lon="7.795780">
        <ele>298.445160</ele>
        <time>2021-11-09T23:06:32.289Z</time>
      </trkpt>
      <trkpt lat="47.577456" lon="7.795967">
        <ele>297.549286</ele>
        <time>2021-11-09T23:06:33.788Z</time>
      </trkpt>
      <trkpt lat="47.577380" lon="7.796116">
        <ele>296.834419</ele>
        <time>2021-11-09T23:06:35.016Z</time>
      </trkpt>
      <trkpt lat="47.577291" lon="7.796229">
        <ele>296.420256</ele>
        <time>2021-11-09T23:06:36.162Z</time>
      </trkpt>
      <trkpt lat="47.577222" lon="7.796219">
        <ele>296.238264</ele>
        <time>2021-11-09T23:06:36.825Z</time>
      </trkpt>
      <trkpt lat="47.577124" lon="7.796239">
        <ele>295.978582</ele>
        <time>2021-11-09T23:06:37.798Z</time>
      </trkpt>
      <trkpt lat="47.576960" lon="7.796396">
        <ele>295.466103</ele>
        <time>2021-11-09T23:06:39.800Z</time>
      </trkpt>
      <trkpt lat="47.576906" lon="7.796519">
        <ele>295.206223</ele>
        <time>2021-11-09T23:06:40.765Z</time>
      </trkpt>
      <trkpt lat="47.576884" lon="7.796617">
        <ele>295.023321</ele>
        <time>2021-11-09T23:06:41.507Z</time>
      </trkpt>
      <trkpt lat="47.576845" lon="7.796669">
        <ele>294.885623</ele>
        <time>2021-11-09T23:06:42.061Z</time>
      </trkpt>
      <trkpt lat="47.576565" lon="7.796902">
        <ele>294.042714</ele>
        <time>2021-11-09T23:06:45.421Z</time>
      </trkpt>
      <trkpt lat="47.576087" lon="7.797118">
        <ele>292.730931</ele>
        <time>2021-11-09T23:06:50.935Z</time>
      </trkpt>
      <trkpt lat="47.575978" lon="7.797131">
        <ele>292.443875</ele>
        <time>2021-11-09T23:06:52.111Z</time>
      </trkpt>
      <trkpt lat="47.575955" lon="7.797114">
        <ele>292.376409</ele>
        <time>2021-11-09T23:06:52.389Z</time>
      </trkpt>
      <trkpt lat="47.575928" lon="7.797105">
        <ele>292.303763</ele>
        <time>2021-11-09T23:06:52.703Z</time>
      </trkpt>
      <trkpt lat="47.575913" lon="7.797101">
        <ele>292.263755</ele>
        <time>2021-11-09T23:06:52.891Z</time>
      </trkpt>
      <trkpt lat="47.575798" lon="7.797141">
        <ele>291.953675</ele>
        <time>2021-11-09T23:06:54.264Z</time>
      </trkpt>
      <trkpt lat="47.575766" lon="7.797180">
        <ele>291.894715</ele>
        <time>2021-11-09T23:06:54.826Z</time>
      </trkpt>
      <trkpt lat="47.575752" lon="7.797206">
        <ele>291.877921</ele>
        <time>2021-11-09T23:06:55.118Z</time>
      </trkpt>
      <trkpt lat="47.575736" lon="7.797256">
        <ele>291.849985</ele>
        <time>2021-11-09T23:06:55.580Z</time>
      </trkpt>
      <trkpt lat="47.575731" lon="7.797285">
        <ele>291.834875</ele>
        <time>2021-11-09T23:06:55.802Z</time>
      </trkpt>
      <trkpt lat="47.575703" lon="7.797314">
        <ele>291.809315</ele>
        <time>2021-11-09T23:06:56.182Z</time>
      </trkpt>
      <trkpt lat="47.575578" lon="7.797427">
        <ele>291.699755</ele>
        <time>2021-11-09T23:06:57.917Z</time>
      </trkpt>
      <trkpt lat="47.575499" lon="7.797497">
        <ele>291.630883</ele>
        <time>2021-11-09T23:06:59.063Z</time>
      </trkpt>
      <trkpt lat="47.575391" lon="7.797551">
        <ele>291.545593</ele>
        <time>2021-11-09T23:07:00.465Z</time>
      </trkpt>
      <trkpt lat="47.575240" lon="7.797626">
        <ele>291.426426</ele>
        <time>2021-11-09T23:07:02.534Z</time>
      </trkpt>
      <trkpt lat="47.575141" lon="7.797674">
        <ele>291.348482</ele>
        <time>2021-11-09T23:07:03.916Z</time>
      </trkpt>
      <trkpt lat="47.574910" lon="7.797787">
        <ele>291.166456</ele>
        <time>2021-11-09T23:07:07.100Z</time>
      </trkpt>
      <trkpt lat="47.574296" lon="7.798050">
        <ele>290.688202</ele>
        <time>2021-11-09T23:07:15.890Z</time>
      </trkpt>
      <trkpt lat="47.573813" lon="7.798212">
        <ele>290.364643</ele>
        <time>2021-11-09T23:07:22.373Z</time>
      </trkpt>
      <trkpt lat="47.573410" lon="7.798344">
        <ele>290.113641</ele>
        <time>2021-11-09T23:07:27.757Z</time>
      </trkpt>
      <trkpt lat="47.573055" lon="7.798459">
        <ele>289.892647</ele>
        <time>2021-11-09T23:07:32.429Z</time>
      </trkpt>
      <trkpt lat="47.572628" lon="7.798599">
        <ele>289.626684</ele>
        <time>2021-11-09T23:07:38.085Z</time>
      </trkpt>
      <trkpt lat="47.572527" lon="7.798632">
        <ele>289.563785</ele>
        <time>2021-11-09T23:07:39.394Z</time>
      </trkpt>
      <trkpt lat="47.572308" lon="7.798703">
        <ele>289.403480</ele>
        <time>2021-11-09T23:07:42.341Z</time>
      </trkpt>
      <trkpt lat="47.571985" lon="7.798809">
        <ele>289.100395</ele>
        <time>2021-11-09T23:07:46.583Z</time>
      </trkpt>
      <trkpt lat="47.571921" lon="7.798830">
        <ele>289.040341</ele>
        <time>2021-11-09T23:07:47.361Z</time>
      </trkpt>
      <trkpt lat="47.571202" lon="7.799089">
        <ele>288.362449</ele>
        <time>2021-11-09T23:07:56.202Z</time>
      </trkpt>
      <trkpt lat="47.569912" lon="7.799564">
        <ele>287.342122</ele>
        <time>2021-11-09T23:08:12.971Z</time>
      </trkpt>
      <trkpt lat="47.569327" lon="7.799762">
        <ele>286.951469</ele>
        <time>2021-11-09T23:08:20.420Z</time>
      </trkpt>
      <trkpt lat="47.569185" lon="7.799810">
        <ele>286.856649</ele>
        <time>2021-11-09T23:08:22.455Z</time>
      </trkpt>
      <trkpt lat="47.568384" lon="7.800059">
        <ele>286.447670</ele>
        <time>2021-11-09T23:08:34.000Z</time>
      </trkpt>
      <trkpt lat="47.568315" lon="7.800179">
        <ele>286.404237</ele>
        <time>2021-11-09T23:08:35.415Z</time>
      </trkpt>
      <trkpt lat="47.568185" lon="7.800003">
        <ele>286.332348</ele>
        <time>2021-11-09T23:08:38.279Z</time>
      </trkpt>
      <trkpt lat="47.567987" lon="7.799745">
        <ele>286.224706</ele>
        <time>2021-11-09T23:08:41.923Z</time>
      </trkpt>
      <trkpt lat="47.567926" lon="7.799667">
        <ele>286.191812</ele>
        <time>2021-11-09T23:08:43.144Z</time>
      </trkpt>
      <trkpt lat="47.567788" lon="7.799488">
        <ele>286.116937</ele>
        <time>2021-11-09T23:08:45.495Z</time>
      </trkpt>
      <trkpt lat="47.567386" lon="7.798946">
        <ele>285.853598</ele>
        <time>2021-11-09T23:08:52.416Z</time>
      </trkpt>
      <trkpt lat="47.567213" lon="7.798707">
        <ele>285.606277</ele>
        <time>2021-11-09T23:08:55.294Z</time>
      </trkpt>
      <trkpt lat="47.567200" lon="7.798690">
        <ele>285.588147</ele>
        <time>2021-11-09T23:08:55.492Z</time>
      </trkpt>
      <trkpt lat="47.567008" lon="7.798425">
        <ele>285.313783</ele>
        <time>2021-11-09T23:08:58.809Z</time>
      </trkpt>
      <trkpt lat="47.566478" lon="7.797694">
        <ele>284.556668</ele>
        <time>2021-11-09T23:09:07.601Z</time>
      </trkpt>
      <trkpt lat="47.566034" lon="7.797091">
        <ele>283.931465</ele>
        <time>2021-11-09T23:09:14.622Z</time>
      </trkpt>
      <trkpt lat="47.565783" lon="7.796749">
        <ele>283.589233</ele>
        <time>2021-11-09T23:09:18.623Z</time>
      </trkpt>
      <trkpt lat="47.565062" lon="7.795783">
        <ele>282.613647</ele>
        <time>2021-11-09T23:09:30.636Z</time>
      </trkpt>
      <trkpt lat="47.564953" lon="7.795641">
        <ele>282.467979</ele>
        <time>2021-11-09T23:09:32.498Z</time>
      </trkpt>
      <trkpt lat="47.564352" lon="7.794822">
        <ele>281.774505</ele>
        <time>2021-11-09T23:09:42.829Z</time>
      </trkpt>
      <trkpt lat="47.563816" lon="7.794115">
        <ele>281.208949</ele>
        <time>2021-11-09T23:09:51.743Z</time>
      </trkpt>
      <trkpt lat="47.563536" lon="7.793741">
        <ele>280.911850</ele>
        <time>2021-11-09T23:09:56.547Z</time>
      </trkpt>
      <trkpt lat="47.563214" lon="7.793312">
        <ele>280.787343</ele>
        <time>2021-11-09T23:10:02.055Z</time>
      </trkpt>
      <trkpt lat="47.562862" lon="7.792861">
        <ele>280.742323</ele>
        <time>2021-11-09T23:10:08.254Z</time>
      </trkpt>
      <trkpt lat="47.562390" lon="7.792229">
        <ele>280.680777</ele>
        <time>2021-11-09T23:10:18.056Z</time>
      </trkpt>
      <trkpt lat="47.562130" lon="7.791878">
        <ele>280.646748</ele>
        <time>2021-11-09T23:10:23.863Z</time>
      </trkpt>
      <trkpt lat="47.561593" lon="7.791131">
        <ele>280.855827</ele>
        <time>2021-11-09T23:10:36.554Z</time>
      </trkpt>
      <trkpt lat="47.561363" lon="7.790838">
        <ele>280.947168</ele>
        <time>2021-11-09T23:10:41.573Z</time>
      </trkpt>
      <trkpt lat="47.561126" lon="7.790525">
        <ele>281.042773</ele>
        <time>2021-11-09T23:10:46.583Z</time>
      </trkpt>
      <trkpt lat="47.560580" lon="7.789953">
        <ele>281.088771</ele>
        <time>2021-11-09T23:10:56.640Z</time>
      </trkpt>
      <trkpt lat="47.560493" lon="7.789865">
        <ele>281.036693</ele>
        <time>2021-11-09T23:10:58.106Z</time>
      </trkpt>
      <trkpt lat="47.559770" lon="7.789125">
        <ele>280.602271</ele>
        <time>2021-11-09T23:11:10.033Z</time>
      </trkpt>
      <trkpt lat="47.559689" lon="7.789033">
        <ele>280.551815</ele>
        <time>2021-11-09T23:11:11.365Z</time>
      </trkpt>
      <trkpt lat="47.559136" lon="7.788426">
        <ele>279.994731</ele>
        <time>2021-11-09T23:11:19.834Z</time>
      </trkpt>
      <trkpt lat="47.559038" lon="7.788318">
        <ele>279.779404</ele>
        <time>2021-11-09T23:11:21.242Z</time>
      </trkpt>
      <trkpt lat="47.558938" lon="7.788209">
        <ele>279.560535</ele>
        <time>2021-11-09T23:11:22.808Z</time>
      </trkpt>
      <trkpt lat="47.558870" lon="7.788106">
        <ele>279.389095</ele>
        <time>2021-11-09T23:11:24.081Z</time>
      </trkpt>
      <trkpt lat="47.558737" lon="7.787923">
        <ele>279.069105</ele>
        <time>2021-11-09T23:11:26.164Z</time>
      </trkpt>
      <trkpt lat="47.558569" lon="7.787725">
        <ele>278.690645</ele>
        <time>2021-11-09T23:11:28.818Z</time>
      </trkpt>
      <trkpt lat="47.558519" lon="7.787666">
        <ele>278.577955</ele>
        <time>2021-11-09T23:11:29.507Z</time>
      </trkpt>
      <trkpt lat="47.558139" lon="7.787200">
        <ele>277.708311</ele>
        <time>2021-11-09T23:11:35.044Z</time>
      </trkpt>
      <trkpt lat="47.558113" lon="7.787162">
        <ele>277.643925</ele>
        <time>2021-11-09T23:11:35.444Z</time>
      </trkpt>
      <trkpt lat="47.558016" lon="7.786910">
        <ele>277.298748</ele>
        <time>2021-11-09T23:11:37.501Z</time>
      </trkpt>
      <trkpt lat="47.557963" lon="7.786759">
        <ele>277.057104</ele>
        <time>2021-11-09T23:11:38.668Z</time>
      </trkpt>
      <trkpt lat="47.557910" lon="7.786611">
        <ele>276.585614</ele>
        <time>2021-11-09T23:11:39.839Z</time>
      </trkpt>
      <trkpt lat="47.557893" lon="7.786568">
        <ele>276.445373</ele>
        <time>2021-11-09T23:11:40.173Z</time>
      </trkpt>
      <trkpt lat="47.557859" lon="7.786519">
        <ele>276.247598</ele>
        <time>2021-11-09T23:11:40.629Z</time>
      </trkpt>
      <trkpt lat="47.557823" lon="7.786486">
        <ele>276.071077</ele>
        <time>2021-11-09T23:11:41.041Z</time>
      </trkpt>
      <trkpt lat="47.557711" lon="7.786536">
        <ele>275.583306</ele>
        <time>2021-11-09T23:11:42.194Z</time>
      </trkpt>
      <trkpt lat="47.557562" lon="7.786575">
        <ele>274.952363</ele>
        <time>2021-11-09T23:11:43.650Z</time>
      </trkpt>
      <trkpt lat="47.557490" lon="7.786586">
        <ele>274.650534</ele>
        <time>2021-11-09T23:11:44.335Z</time>
      </trkpt>
      <trkpt lat="47.557180" lon="7.786638">
        <ele>273.349588</ele>
        <time>2021-11-09T23:11:47.277Z</time>
      </trkpt>
      <trkpt lat="47.557118" lon="7.786638">
        <ele>273.091050</ele>
        <time>2021-11-09T23:11:47.861Z</time>
      </trkpt>
      <trkpt lat="47.557035" lon="7.786628">
        <ele>272.743801</ele>
        <time>2021-11-09T23:11:48.646Z</time>
      </trkpt>
      <trkpt lat="47.556958" lon="7.786609">
        <ele>272.418292</ele>
        <time>2021-11-09T23:11:49.389Z</time>
      </trkpt>
      <trkpt lat="47.556914" lon="7.786662">
        <ele>272.181840</ele>
        <time>2021-11-09T23:11:49.927Z</time>
      </trkpt>
      <trkpt lat="47.556883" lon="7.786718">
        <ele>271.978012</ele>
        <time>2021-11-09T23:11:50.378Z</time>
      </trkpt>
      <trkpt lat="47.556812" lon="7.787001">
        <ele>271.128360</ele>
        <time>2021-11-09T23:11:52.330Z</time>
      </trkpt>
      <trkpt lat="47.556783" lon="7.787207">
        <ele>270.536168</ele>
        <time>2021-11-09T23:11:53.692Z</time>
      </trkpt>
      <trkpt lat="47.556753" lon="7.787269">
        <ele>270.321478</ele>
        <time>2021-11-09T23:11:54.167Z</time>
      </trkpt>
      <trkpt lat="47.556658" lon="7.787468">
        <ele>269.635513</ele>
        <time>2021-11-09T23:11:55.785Z</time>
      </trkpt>
      <trkpt lat="47.556539" lon="7.787710">
        <ele>269.307551</ele>
        <time>2021-11-09T23:11:57.734Z</time>
      </trkpt>
      <trkpt lat="47.556357" lon="7.788058">
        <ele>268.835235</ele>
        <time>2021-11-09T23:12:00.728Z</time>
      </trkpt>
      <trkpt lat="47.556249" lon="7.788270">
        <ele>268.550278</ele>
        <time>2021-11-09T23:12:02.540Z</time>
      </trkpt>
      <trkpt lat="47.556137" lon="7.788488">
        <ele>268.256349</ele>
        <time>2021-11-09T23:12:04.456Z</time>
      </trkpt>
      <trkpt lat="47.556111" lon="7.788537">
        <ele>268.189479</ele>
        <time>2021-11-09T23:12:04.860Z</time>
      </trkpt>
      <trkpt lat="47.556069" lon="7.788614">
        <ele>268.083265</ele>
        <time>2021-11-09T23:12:05.614Z</time>
      </trkpt>
      <trkpt lat="47.555936" lon="7.788828">
        <ele>267.771164</ele>
        <time>2021-11-09T23:12:07.904Z</time>
      </trkpt>
      <trkpt lat="47.555085" lon="7.789685">
        <ele>267.737842</ele>
        <time>2021-11-09T23:12:50.296Z</time>
      </trkpt>
      <trkpt lat="47.555062" lon="7.789726">
        <ele>267.826143</ele>
        <time>2021-11-09T23:12:52.010Z</time>
      </trkpt>
      <trkpt lat="47.555052" lon="7.789771">
        <ele>267.904610</ele>
        <time>2021-11-09T23:12:53.455Z</time>
      </trkpt>
      <trkpt lat="47.555031" lon="7.789894">
        <ele>268.114744</ele>
        <time>2021-11-09T23:12:57.662Z</time>
      </trkpt>
      <trkpt lat="47.554999" lon="7.790090">
        <ele>268.448728</ele>
        <time>2021-11-09T23:13:04.837Z</time>
      </trkpt>
      <trkpt lat="47.554865" lon="7.790678">
        <ele>269.476614</ele>
        <time>2021-11-09T23:13:26.014Z</time>
      </trkpt>
      <trkpt lat="47.554858" lon="7.790696">
        <ele>269.511022</ele>
        <time>2021-11-09T23:13:27.008Z</time>
      </trkpt>
      <trkpt lat="47.554788" lon="7.790844">
        <ele>269.810347</ele>
        <time>2021-11-09T23:13:32.540Z</time>
      </trkpt>
      <trkpt lat="47.554756" lon="7.790897">
        <ele>269.928129</ele>
        <time>2021-11-09T23:13:35.093Z</time>
      </trkpt>
      <trkpt lat="47.554823" lon="7.791138">
        <ele>270.359821</ele>
        <time>2021-11-09T23:13:43.734Z</time>
      </trkpt>
      <trkpt lat="47.554911" lon="7.791459">
        <ele>270.933660</ele>
        <time>2021-11-09T23:13:54.933Z</time>
      </trkpt>
      <trkpt lat="47.555027" lon="7.791948">
        <ele>271.673230</ele>
        <time>2021-11-09T23:14:11.171Z</time>
      </trkpt>
      <trkpt lat="47.555085" lon="7.792163">
        <ele>271.982291</ele>
        <time>2021-11-09T23:14:18.492Z</time>
      </trkpt>
      <trkpt lat="47.555127" lon="7.792307">
        <ele>272.191685</ele>
        <time>2021-11-09T23:14:22.862Z</time>
      </trkpt>
      <trkpt lat="47.555237" lon="7.792734">
        <ele>272.801757</ele>
        <time>2021-11-09T23:14:37.006Z</time>
      </trkpt>
      <trkpt lat="47.555277" lon="7.793131">
        <ele>273.337546</ele>
        <time>2021-11-09T23:14:49.162Z</time>
      </trkpt>
      <trkpt lat="47.555274" lon="7.793423">
        <ele>273.727352</ele>
        <time>2021-11-09T23:14:57.776Z</time>
      </trkpt>
      <trkpt lat="47.555281" lon="7.793955">
        <ele>274.437601</ele>
        <time>2021-11-09T23:15:13.285Z</time>
      </trkpt>
      <trkpt lat="47.555282" lon="7.794033">
        <ele>274.541734</ele>
        <time>2021-11-09T23:15:15.567Z</time>
      </trkpt>
      <trkpt lat="47.555288" lon="7.794318">
        <ele>274.966151</ele>
        <time>2021-11-09T23:15:24.081Z</time>
      </trkpt>
      <trkpt lat="47.555288" lon="7.794496">
        <ele>275.259877</ele>
        <time>2021-11-09T23:15:29.132Z</time>
      </trkpt>
      <trkpt lat="47.555141" lon="7.794516">
        <ele>275.620820</ele>
        <time>2021-11-09T23:15:35.532Z</time>
      </trkpt>
      <trkpt lat="47.555010" lon="7.794553">
        <ele>275.946895</ele>
        <time>2021-11-09T23:15:41.384Z</time>
      </trkpt>
      <trkpt lat="47.555010" lon="7.794553">
        <ele>275.946895</ele>
        <time>2021-11-09T23:15:41.446Z</time>
      </trkpt>
      <trkpt lat="47.554864" lon="7.794599">
        <ele>276.311861</ele>
        <time>2021-11-09T23:15:47.802Z</time>
      </trkpt>
      <trkpt lat="47.554495" lon="7.794723">
        <ele>277.237017</ele>
        <time>2021-11-09T23:16:05.206Z</time>
      </trkpt>
      <trkpt lat="47.554352" lon="7.794791">
        <ele>277.604231</ele>
        <time>2021-11-09T23:16:12.455Z</time>
      </trkpt>
      <trkpt lat="47.554254" lon="7.794823">
        <ele>277.849601</ele>
        <time>2021-11-09T23:16:17.194Z</time>
      </trkpt>
      <trkpt lat="47.554004" lon="7.794824">
        <ele>278.460879</ele>
        <time>2021-11-09T23:16:29.404Z</time>
      </trkpt>
      <trkpt lat="47.553930" lon="7.794811">
        <ele>278.643084</ele>
        <time>2021-11-09T23:16:33.269Z</time>
      </trkpt>
      <trkpt lat="47.553883" lon="7.794947">
        <ele>278.895222</ele>
        <time>2021-11-09T23:16:36.667Z</time>
      </trkpt>
      <trkpt lat="47.553854" lon="7.795042">
        <ele>279.067281</ele>
        <time>2021-11-09T23:16:39.016Z</time>
      </trkpt>
      <trkpt lat="47.553847" lon="7.795063">
        <ele>279.105931</ele>
        <time>2021-11-09T23:16:39.573Z</time>
      </trkpt>
      <trkpt lat="47.553724" lon="7.795281">
        <ele>279.851239</ele>
        <time>2021-11-09T23:16:46.662Z</time>
      </trkpt>
      <trkpt lat="47.553702" lon="7.795313">
        <ele>279.973964</ele>
        <time>2021-11-09T23:16:47.811Z</time>
      </trkpt>
      <trkpt lat="47.553628" lon="7.795414">
        <ele>280.374480</ele>
        <time>2021-11-09T23:16:51.206Z</time>
      </trkpt>
      <trkpt lat="47.553580" lon="7.795460">
        <ele>280.602045</ele>
        <time>2021-11-09T23:16:53.278Z</time>
      </trkpt>
      <trkpt lat="47.553379" lon="7.795607">
        <ele>281.494359</ele>
        <time>2021-11-09T23:17:01.426Z</time>
      </trkpt>
      <trkpt lat="47.553256" lon="7.795697">
        <ele>282.040455</ele>
        <time>2021-11-09T23:17:06.248Z</time>
      </trkpt>
      <trkpt lat="47.553218" lon="7.795662">
        <ele>282.218573</ele>
        <time>2021-11-09T23:17:07.442Z</time>
      </trkpt>
      <trkpt lat="47.553188" lon="7.795642">
        <ele>282.349531</ele>
        <time>2021-11-09T23:17:08.379Z</time>
      </trkpt>
      <trkpt lat="47.553162" lon="7.795633">
        <ele>282.455820</ele>
        <time>2021-11-09T23:17:09.316Z</time>
      </trkpt>
      <trkpt lat="47.553139" lon="7.795630">
        <ele>282.547734</ele>
        <time>2021-11-09T23:17:10.002Z</time>
      </trkpt>
      <trkpt lat="47.552930" lon="7.795600">
        <ele>283.383628</ele>
        <time>2021-11-09T23:17:16.256Z</time>
      </trkpt>
      <trkpt lat="47.552900" lon="7.795854">
        <ele>284.076425</ele>
        <time>2021-11-09T23:17:21.374Z</time>
      </trkpt>
      <trkpt lat="47.552886" lon="7.795976">
        <ele>284.408909</ele>
        <time>2021-11-09T23:17:23.999Z</time>
      </trkpt>
      <trkpt lat="47.552817" lon="7.796239">
        <ele>285.167027</ele>
        <time>2021-11-09T23:17:30.077Z</time>
      </trkpt>
      <trkpt lat="47.552762" lon="7.796425">
        <ele>285.712617</ele>
        <time>2021-11-09T23:17:34.770Z</time>
      </trkpt>
      <trkpt lat="47.552493" lon="7.797048">
        <ele>287.851964</ele>
        <time>2021-11-09T23:17:51.635Z</time>
      </trkpt>
      <trkpt lat="47.552152" lon="7.797876">
        <ele>290.740550</ele>
        <time>2021-11-09T23:18:13.702Z</time>
      </trkpt>
      <trkpt lat="47.552084" lon="7.798083">
        <ele>291.426137</ele>
        <time>2021-11-09T23:18:19.241Z</time>
      </trkpt>
      <trkpt lat="47.551948" lon="7.798607">
        <ele>293.098017</ele>
        <time>2021-11-09T23:18:31.715Z</time>
      </trkpt>
      <trkpt lat="47.551805" lon="7.799326">
        <ele>294.816749</ele>
        <time>2021-11-09T23:18:46.065Z</time>
      </trkpt>
      <trkpt lat="47.551793" lon="7.799434">
        <ele>294.990413</ele>
        <time>2021-11-09T23:18:48.609Z</time>
      </trkpt>
      <trkpt lat="47.551754" lon="7.799766">
        <ele>295.525100</ele>
        <time>2021-11-09T23:18:54.664Z</time>
      </trkpt>
      <trkpt lat="47.551712" lon="7.800249">
        <ele>296.297786</ele>
        <time>2021-11-09T23:19:03.644Z</time>
      </trkpt>
      <trkpt lat="47.551704" lon="7.800451">
        <ele>296.618840</ele>
        <time>2021-11-09T23:19:07.026Z</time>
      </trkpt>
      <trkpt lat="47.551672" lon="7.801147">
        <ele>297.725709</ele>
        <time>2021-11-09T23:19:16.833Z</time>
      </trkpt>
      <trkpt lat="47.551669" lon="7.801438">
        <ele>298.187478</ele>
        <time>2021-11-09T23:19:20.382Z</time>
      </trkpt>
      <trkpt lat="47.551666" lon="7.801632">
        <ele>298.470668</ele>
        <time>2021-11-09T23:19:23.160Z</time>
      </trkpt>
      <trkpt lat="47.551669" lon="7.801853">
        <ele>298.579607</ele>
        <time>2021-11-09T23:19:25.672Z</time>
      </trkpt>
      <trkpt lat="47.551671" lon="7.802077">
        <ele>298.690012</ele>
        <time>2021-11-09T23:19:28.243Z</time>
      </trkpt>
      <trkpt lat="47.551679" lon="7.802228">
        <ele>298.764659</ele>
        <time>2021-11-09T23:19:29.718Z</time>
      </trkpt>
      <trkpt lat="47.551688" lon="7.802394">
        <ele>298.846734</ele>
        <time>2021-11-09T23:19:31.597Z</time>
      </trkpt>
      <trkpt lat="47.551700" lon="7.802648">
        <ele>298.972220</ele>
        <time>2021-11-09T23:19:34.314Z</time>
      </trkpt>
      <trkpt lat="47.551732" lon="7.803125">
        <ele>299.208461</ele>
        <time>2021-11-09T23:19:39.682Z</time>
      </trkpt>
      <trkpt lat="47.551744" lon="7.803277">
        <ele>299.283883</ele>
        <time>2021-11-09T23:19:41.363Z</time>
      </trkpt>
      <trkpt lat="47.551751" lon="7.803369">
        <ele>299.329511</ele>
        <time>2021-11-09T23:19:42.479Z</time>
      </trkpt>
      <trkpt lat="47.551692" lon="7.803510">
        <ele>299.411273</ele>
        <time>2021-11-09T23:19:45.176Z</time>
      </trkpt>
      <trkpt lat="47.551741" lon="7.804294">
        <ele>299.798390</ele>
        <time>2021-11-09T23:19:58.191Z</time>
      </trkpt>
      <trkpt lat="47.551744" lon="7.804473">
        <ele>299.883560</ele>
        <time>2021-11-09T23:20:00.796Z</time>
      </trkpt>
      <trkpt lat="47.551731" lon="7.804667">
        <ele>299.976292</ele>
        <time>2021-11-09T23:20:04.806Z</time>
      </trkpt>
      <trkpt lat="47.551709" lon="7.805000">
        <ele>300.135445</ele>
        <time>2021-11-09T23:20:09.353Z</time>
      </trkpt>
      <trkpt lat="47.551681" lon="7.805477">
        <ele>300.363193</ele>
        <time>2021-11-09T23:20:17.082Z</time>
      </trkpt>
      <trkpt lat="47.551674" lon="7.805956">
        <ele>300.591090</ele>
        <time>2021-11-09T23:20:24.893Z</time>
      </trkpt>
      <trkpt lat="47.551671" lon="7.806117">
        <ele>300.667701</ele>
        <time>2021-11-09T23:20:27.205Z</time>
      </trkpt>
      <trkpt lat="47.551651" lon="7.806246">
        <ele>300.730660</ele>
        <time>2021-11-09T23:20:30.087Z</time>
      </trkpt>
      <trkpt lat="47.551895" lon="7.806278">
        <ele>300.903295</ele>
        <time>2021-11-09T23:20:33.620Z</time>
      </trkpt>
      <trkpt lat="47.552015" lon="7.806307">
        <ele>300.988984</ele>
        <time>2021-11-09T23:20:36.480Z</time>
      </trkpt>
      <trkpt lat="47.552068" lon="7.806445">
        <ele>301.027996</ele>
        <time>2021-11-09T23:20:37.919Z</time>
      </trkpt>
      <trkpt lat="47.552398" lon="7.808880">
        <ele>300.409260</ele>
        <time>2021-11-09T23:21:00.101Z</time>
      </trkpt>
      <trkpt lat="47.552566" lon="7.810386">
        <ele>299.738714</ele>
        <time>2021-11-09T23:21:13.112Z</time>
      </trkpt>
      <trkpt lat="47.552711" lon="7.812955">
        <ele>298.597345</ele>
        <time>2021-11-09T23:21:35.721Z</time>
      </trkpt>
      <trkpt lat="47.552844" lon="7.816432">
        <ele>297.415243</ele>
        <time>2021-11-09T23:22:06.214Z</time>
      </trkpt>
      <trkpt lat="47.552948" lon="7.819358">
        <ele>297.759551</ele>
        <time>2021-11-09T23:22:37.444Z</time>
      </trkpt>
      <trkpt lat="47.552896" lon="7.820699">
        <ele>298.343901</ele>
        <time>2021-11-09T23:22:53.528Z</time>
      </trkpt>
      <trkpt lat="47.552567" lon="7.824508">
        <ele>300.243354</ele>
        <time>2021-11-09T23:23:40.013Z</time>
      </trkpt>
      <trkpt lat="47.552491" lon="7.827227">
        <ele>301.630544</ele>
        <time>2021-11-09T23:24:11.752Z</time>
      </trkpt>
      <trkpt lat="47.552515" lon="7.828094">
        <ele>302.429007</ele>
        <time>2021-11-09T23:24:23.462Z</time>
      </trkpt>
      <trkpt lat="47.552477" lon="7.828294">
        <ele>302.681543</ele>
        <time>2021-11-09T23:24:26.079Z</time>
      </trkpt>
      <trkpt lat="47.552421" lon="7.828481">
        <ele>302.930198</ele>
        <time>2021-11-09T23:24:29.011Z</time>
      </trkpt>
      <trkpt lat="47.552404" lon="7.828582">
        <ele>303.056717</ele>
        <time>2021-11-09T23:24:30.695Z</time>
      </trkpt>
      <trkpt lat="47.552416" lon="7.828822">
        <ele>303.349221</ele>
        <time>2021-11-09T23:24:33.928Z</time>
      </trkpt>
      <trkpt lat="47.552554" lon="7.829266">
        <ele>303.943349</ele>
        <time>2021-11-09T23:24:41.281Z</time>
      </trkpt>
      <trkpt lat="47.552645" lon="7.830686">
        <ele>306.064320</ele>
        <time>2021-11-09T23:25:04.586Z</time>
      </trkpt>
      <trkpt lat="47.552690" lon="7.832598">
        <ele>309.840632</ele>
        <time>2021-11-09T23:25:40.064Z</time>
      </trkpt>
      <trkpt lat="47.552616" lon="7.832891">
        <ele>310.444053</ele>
        <time>2021-11-09T23:25:45.427Z</time>
      </trkpt>
      <trkpt lat="47.552556" lon="7.832977">
        <ele>310.663882</ele>
        <time>2021-11-09T23:25:48.159Z</time>
      </trkpt>
      <trkpt lat="47.552511" lon="7.833072">
        <ele>310.870157</ele>
        <time>2021-11-09T23:25:50.185Z</time>
      </trkpt>
      <trkpt lat="47.552467" lon="7.833198">
        <ele>311.122291</ele>
        <time>2021-11-09T23:25:52.586Z</time>
      </trkpt>
      <trkpt lat="47.552452" lon="7.833284">
        <ele>311.280158</ele>
        <time>2021-11-09T23:25:54.196Z</time>
      </trkpt>
      <trkpt lat="47.552696" lon="7.833789">
        <ele>312.383961</ele>
        <time>2021-11-09T23:26:05.229Z</time>
      </trkpt>
      <trkpt lat="47.552700" lon="7.833938">
        <ele>312.648981</ele>
        <time>2021-11-09T23:26:08.173Z</time>
      </trkpt>
      <trkpt lat="47.552714" lon="7.835010">
        <ele>314.554558</ele>
        <time>2021-11-09T23:26:26.650Z</time>
      </trkpt>
      <trkpt lat="47.552719" lon="7.836790">
        <ele>316.663145</ele>
        <time>2021-11-09T23:26:51.934Z</time>
      </trkpt>
      <trkpt lat="47.552697" lon="7.838068">
        <ele>318.033651</ele>
        <time>2021-11-09T23:27:09.584Z</time>
      </trkpt>
      <trkpt lat="47.552736" lon="7.838578">
        <ele>318.574969</ele>
        <time>2021-11-09T23:27:16.709Z</time>
      </trkpt>
      <trkpt lat="47.552802" lon="7.839009">
        <ele>319.041079</ele>
        <time>2021-11-09T23:27:22.922Z</time>
      </trkpt>
      <trkpt lat="47.552859" lon="7.839222">
        <ele>319.282736</ele>
        <time>2021-11-09T23:27:26.116Z</time>
      </trkpt>
      <trkpt lat="47.552939" lon="7.839526">
        <ele>319.626861</ele>
        <time>2021-11-09T23:27:30.713Z</time>
      </trkpt>
      <trkpt lat="47.553231" lon="7.841529">
        <ele>321.683308</ele>
        <time>2021-11-09T23:28:00.845Z</time>
      </trkpt>
      <trkpt lat="47.553216" lon="7.841849">
        <ele>321.988269</ele>
        <time>2021-11-09T23:28:05.365Z</time>
      </trkpt>
      <trkpt lat="47.553123" lon="7.842222">
        <ele>322.366311</ele>
        <time>2021-11-09T23:28:10.595Z</time>
      </trkpt>
      <trkpt lat="47.553133" lon="7.842431">
        <ele>322.565509</ele>
        <time>2021-11-09T23:28:13.724Z</time>
      </trkpt>
      <trkpt lat="47.552833" lon="7.842495">
        <ele>322.992466</ele>
        <time>2021-11-09T23:28:21.033Z</time>
      </trkpt>
      <trkpt lat="47.552380" lon="7.842592">
        <ele>323.468234</ele>
        <time>2021-11-09T23:28:32.081Z</time>
      </trkpt>
      <trkpt lat="47.551922" lon="7.842704">
        <ele>323.830034</ele>
        <time>2021-11-09T23:28:42.647Z</time>
      </trkpt>
      <trkpt lat="47.551668" lon="7.842770">
        <ele>324.031025</ele>
        <time>2021-11-09T23:28:48.606Z</time>
      </trkpt>
      <trkpt lat="47.551454" lon="7.842815">
        <ele>324.199491</ele>
        <time>2021-11-09T23:28:53.263Z</time>
      </trkpt>
      <trkpt lat="47.551344" lon="7.844621">
        <ele>325.383343</ele>
        <time>2021-11-09T23:29:15.596Z</time>
      </trkpt>
      <trkpt lat="47.551265" lon="7.845798">
        <ele>326.296018</ele>
        <time>2021-11-09T23:29:31.453Z</time>
      </trkpt>
      <trkpt lat="47.551205" lon="7.846694">
        <ele>327.089877</ele>
        <time>2021-11-09T23:29:43.587Z</time>
      </trkpt>
      <trkpt lat="47.551184" lon="7.847206">
        <ele>327.628993</ele>
        <time>2021-11-09T23:29:50.972Z</time>
      </trkpt>
      <trkpt lat="47.551196" lon="7.847517">
        <ele>327.956395</ele>
        <time>2021-11-09T23:29:55.545Z</time>
      </trkpt>
      <trkpt lat="47.551669" lon="7.848083">
        <ele>328.903185</ele>
        <time>2021-11-09T23:30:08.780Z</time>
      </trkpt>
      <trkpt lat="47.551242" lon="7.848702">
        <ele>329.798015</ele>
        <time>2021-11-09T23:30:21.414Z</time>
      </trkpt>
      <trkpt lat="47.550975" lon="7.849066">
        <ele>330.299551</ele>
        <time>2021-11-09T23:30:28.729Z</time>
      </trkpt>
      <trkpt lat="47.550810" lon="7.849346">
        <ele>330.646335</ele>
        <time>2021-11-09T23:30:35.122Z</time>
      </trkpt>
      <trkpt lat="47.550488" lon="7.850081">
        <ele>331.463850</ele>
        <time>2021-11-09T23:30:50.588Z</time>
      </trkpt>
      <trkpt lat="47.550333" lon="7.850434">
        <ele>331.856746</ele>
        <time>2021-11-09T23:30:57.919Z</time>
      </trkpt>
      <trkpt lat="47.550009" lon="7.851173">
        <ele>332.187841</ele>
        <time>2021-11-09T23:31:12.567Z</time>
      </trkpt>
      <trkpt lat="47.549652" lon="7.851969">
        <ele>332.430473</ele>
        <time>2021-11-09T23:31:26.580Z</time>
      </trkpt>
      <trkpt lat="47.549535" lon="7.852225">
        <ele>332.508964</ele>
        <time>2021-11-09T23:31:30.569Z</time>
      </trkpt>
      <trkpt lat="47.549285" lon="7.852784">
        <ele>332.679209</ele>
        <time>2021-11-09T23:31:39.231Z</time>
      </trkpt>
      <trkpt lat="47.549695" lon="7.853263">
        <ele>332.431366</ele>
        <time>2021-11-09T23:31:49.407Z</time>
      </trkpt>
      <trkpt lat="47.549708" lon="7.853279">
        <ele>332.423226</ele>
        <time>2021-11-09T23:31:49.654Z</time>
      </trkpt>
      <trkpt lat="47.550221" lon="7.853833">
        <ele>332.117471</ele>
        <time>2021-11-09T23:32:01.685Z</time>
      </trkpt>
      <trkpt lat="47.549883" lon="7.854434">
        <ele>331.863158</ele>
        <time>2021-11-09T23:32:08.308Z</time>
      </trkpt>
      <trkpt lat="47.549566" lon="7.855225">
        <ele>331.584208</ele>
        <time>2021-11-09T23:32:19.390Z</time>
      </trkpt>
      <trkpt lat="47.549362" lon="7.855774">
        <ele>331.396834</ele>
        <time>2021-11-09T23:32:27.312Z</time>
      </trkpt>
      <trkpt lat="47.548887" lon="7.857308">
        <ele>331.123970</ele>
        <time>2021-11-09T23:32:49.420Z</time>
      </trkpt>
      <trkpt lat="47.548743" lon="7.857692">
        <ele>331.235118</ele>
        <time>2021-11-09T23:32:55.392Z</time>
      </trkpt>
      <trkpt lat="47.548701" lon="7.857893">
        <ele>331.288356</ele>
        <time>2021-11-09T23:32:58.363Z</time>
      </trkpt>
      <trkpt lat="47.548686" lon="7.857973">
        <ele>331.309364</ele>
        <time>2021-11-09T23:32:59.486Z</time>
      </trkpt>
      <trkpt lat="47.548611" lon="7.858381">
        <ele>331.416357</ele>
        <time>2021-11-09T23:33:05.700Z</time>
      </trkpt>
      <trkpt lat="47.548334" lon="7.859801">
        <ele>332.067599</ele>
        <time>2021-11-09T23:33:28.738Z</time>
      </trkpt>
      <trkpt lat="47.548049" lon="7.860929">
        <ele>333.231397</ele>
        <time>2021-11-09T23:33:49.756Z</time>
      </trkpt>
      <trkpt lat="47.547930" lon="7.861711">
        <ele>334.005979</ele>
        <time>2021-11-09T23:34:04.520Z</time>
      </trkpt>
      <trkpt lat="47.547568" lon="7.863151">
        <ele>335.411540</ele>
        <time>2021-11-09T23:34:33.648Z</time>
      </trkpt>
      <trkpt lat="47.547320" lon="7.863864">
        <ele>336.136413</ele>
        <time>2021-11-09T23:34:47.588Z</time>
      </trkpt>
      <trkpt lat="47.546974" lon="7.864423">
        <ele>336.622280</ele>
        <time>2021-11-09T23:34:58.411Z</time>
      </trkpt>
      <trkpt lat="47.546885" lon="7.864500">
        <ele>336.572703</ele>
        <time>2021-11-09T23:35:01.496Z</time>
      </trkpt>
      <trkpt lat="47.546894" lon="7.864837">
        <ele>336.463197</ele>
        <time>2021-11-09T23:35:05.380Z</time>
      </trkpt>
      <trkpt lat="47.546889" lon="7.865225">
        <ele>336.337195</ele>
        <time>2021-11-09T23:35:10.805Z</time>
      </trkpt>
      <trkpt lat="47.546819" lon="7.865489">
        <ele>336.245101</ele>
        <time>2021-11-09T23:35:14.749Z</time>
      </trkpt>
      <trkpt lat="47.546510" lon="7.865766">
        <ele>336.071370</ele>
        <time>2021-11-09T23:35:21.383Z</time>
      </trkpt>
      <trkpt lat="47.546327" lon="7.865959">
        <ele>335.963314</ele>
        <time>2021-11-09T23:35:24.898Z</time>
      </trkpt>
      <trkpt lat="47.546096" lon="7.866147">
        <ele>335.836533</ele>
        <time>2021-11-09T23:35:29.454Z</time>
      </trkpt>
      <trkpt lat="47.545240" lon="7.866887">
        <ele>335.509005</ele>
        <time>2021-11-09T23:35:46.128Z</time>
      </trkpt>
      <trkpt lat="47.545160" lon="7.866985">
        <ele>335.475626</ele>
        <time>2021-11-09T23:35:48.084Z</time>
      </trkpt>
      <trkpt lat="47.545003" lon="7.867278">
        <ele>335.394431</ele>
        <time>2021-11-09T23:35:53.752Z</time>
      </trkpt>
      <trkpt lat="47.544568" lon="7.867693">
        <ele>335.231486</ele>
        <time>2021-11-09T23:36:06.324Z</time>
      </trkpt>
      <trkpt lat="47.544469" lon="7.867776">
        <ele>335.231486</ele>
        <time>2021-11-09T23:36:08.913Z</time>
      </trkpt>
      <trkpt lat="47.544410" lon="7.867825">
        <ele>335.231486</ele>
        <time>2021-11-09T23:36:10.707Z</time>
      </trkpt>
      <trkpt lat="47.544246" lon="7.867967">
        <ele>335.231486</ele>
        <time>2021-11-09T23:36:15.344Z</time>
      </trkpt>
      <trkpt lat="47.544214" lon="7.867988">
        <ele>335.231486</ele>
        <time>2021-11-09T23:36:16.148Z</time>
      </trkpt>
      <trkpt lat="47.543801" lon="7.868269">
        <ele>335.231486</ele>
        <time>2021-11-09T23:36:27.188Z</time>
      </trkpt>
      <trkpt lat="47.543657" lon="7.868359">
        <ele>335.231486</ele>
        <time>2021-11-09T23:36:31.446Z</time>
      </trkpt>
      <trkpt lat="47.543394" lon="7.868531">
        <ele>335.231486</ele>
        <time>2021-11-09T23:36:37.427Z</time>
      </trkpt>
    </trkseg>
  </trk>
</gpx>